<?xml version="1.0" encoding="UTF-8" standalone="no" ?>
<gpx xmlns="http://www.topografix.com/GPX/1/1" xmlns:xsi="http://www.w3.org/2001/XMLSchema-instance" xsi:schemaLocation="http://www.topografix.com/GPX/1/1 http://www.topografix.com/GPX/1/1/gpx.xsd" version="1.1" creator="VisuGPX - https://www.visugpx.com">
  <metadata>
    <name>83-M-Mons             </name>
    <desc><![CDATA[83-M-Mons : l'aqueduc de la Roche Taillée - dolmen de Riens
]]></desc>
  </metadata>
  <trk>
    <name><![CDATA[20 mars 2019]]></name>
    <cmt><![CDATA[10:03:47]]></cmt>
    <desc><![CDATA[comment ...]]></desc>
    <trkseg>
      <trkpt lat="43.68916" lon="6.71347">
        <ele>819</ele>
        <time>2019-03-20T09:03:48Z</time>
      </trkpt>
      <trkpt lat="43.68916" lon="6.71347">
        <ele>819</ele>
        <time>2019-03-20T09:03:49Z</time>
      </trkpt>
      <trkpt lat="43.6892" lon="6.71351">
        <ele>818</ele>
        <time>2019-03-20T09:04:08Z</time>
      </trkpt>
      <trkpt lat="43.68924" lon="6.7135">
        <ele>814</ele>
        <time>2019-03-20T09:04:38Z</time>
      </trkpt>
      <trkpt lat="43.68927" lon="6.71355">
        <ele>812</ele>
        <time>2019-03-20T09:04:53Z</time>
      </trkpt>
      <trkpt lat="43.68932" lon="6.71361">
        <ele>811</ele>
        <time>2019-03-20T09:05:32Z</time>
      </trkpt>
      <trkpt lat="43.68938" lon="6.71362">
        <ele>815</ele>
        <time>2019-03-20T09:06:35Z</time>
      </trkpt>
      <trkpt lat="43.68944" lon="6.71359">
        <ele>815</ele>
        <time>2019-03-20T09:06:40Z</time>
      </trkpt>
      <trkpt lat="43.68949" lon="6.71363">
        <ele>815</ele>
        <time>2019-03-20T09:06:45Z</time>
      </trkpt>
      <trkpt lat="43.68954" lon="6.71365">
        <ele>815</ele>
        <time>2019-03-20T09:06:53Z</time>
      </trkpt>
      <trkpt lat="43.68959" lon="6.71363">
        <ele>815</ele>
        <time>2019-03-20T09:06:59Z</time>
      </trkpt>
      <trkpt lat="43.68965" lon="6.7135">
        <ele>816</ele>
        <time>2019-03-20T09:07:09Z</time>
      </trkpt>
      <trkpt lat="43.68972" lon="6.71353">
        <ele>819</ele>
        <time>2019-03-20T09:07:22Z</time>
      </trkpt>
      <trkpt lat="43.68979" lon="6.71358">
        <ele>820</ele>
        <time>2019-03-20T09:07:29Z</time>
      </trkpt>
      <trkpt lat="43.68989" lon="6.71362">
        <ele>823</ele>
        <time>2019-03-20T09:07:37Z</time>
      </trkpt>
      <trkpt lat="43.68996" lon="6.71365">
        <ele>826</ele>
        <time>2019-03-20T09:07:45Z</time>
      </trkpt>
      <trkpt lat="43.69004" lon="6.71368">
        <ele>827</ele>
        <time>2019-03-20T09:07:53Z</time>
      </trkpt>
      <trkpt lat="43.69014" lon="6.71371">
        <ele>828</ele>
        <time>2019-03-20T09:08:04Z</time>
      </trkpt>
      <trkpt lat="43.69032" lon="6.71368">
        <ele>829</ele>
        <time>2019-03-20T09:08:28Z</time>
      </trkpt>
      <trkpt lat="43.69066" lon="6.7138">
        <ele>827</ele>
        <time>2019-03-20T09:09:00Z</time>
      </trkpt>
      <trkpt lat="43.6908" lon="6.71379">
        <ele>828</ele>
        <time>2019-03-20T09:09:19Z</time>
      </trkpt>
      <trkpt lat="43.69085" lon="6.71396">
        <ele>831</ele>
        <time>2019-03-20T09:09:29Z</time>
      </trkpt>
      <trkpt lat="43.69095" lon="6.71389">
        <ele>832</ele>
        <time>2019-03-20T09:10:04Z</time>
      </trkpt>
      <trkpt lat="43.69109" lon="6.71407">
        <ele>833</ele>
        <time>2019-03-20T09:12:07Z</time>
      </trkpt>
      <trkpt lat="43.69132" lon="6.71412">
        <ele>829</ele>
        <time>2019-03-20T09:12:25Z</time>
      </trkpt>
      <trkpt lat="43.6914" lon="6.7143">
        <ele>828</ele>
        <time>2019-03-20T09:12:41Z</time>
      </trkpt>
      <trkpt lat="43.69166" lon="6.7146">
        <ele>823</ele>
        <time>2019-03-20T09:13:12Z</time>
      </trkpt>
      <trkpt lat="43.69175" lon="6.71467">
        <ele>824</ele>
        <time>2019-03-20T09:13:23Z</time>
      </trkpt>
      <trkpt lat="43.69202" lon="6.71469">
        <ele>829</ele>
        <time>2019-03-20T09:13:51Z</time>
      </trkpt>
      <trkpt lat="43.69211" lon="6.71473">
        <ele>828</ele>
        <time>2019-03-20T09:14:00Z</time>
      </trkpt>
      <trkpt lat="43.6922" lon="6.71481">
        <ele>827</ele>
        <time>2019-03-20T09:14:07Z</time>
      </trkpt>
      <trkpt lat="43.69226" lon="6.71486">
        <ele>822</ele>
        <time>2019-03-20T09:14:14Z</time>
      </trkpt>
      <trkpt lat="43.69232" lon="6.7149">
        <ele>819</ele>
        <time>2019-03-20T09:16:12Z</time>
      </trkpt>
      <trkpt lat="43.69237" lon="6.71494">
        <ele>816</ele>
        <time>2019-03-20T09:16:17Z</time>
      </trkpt>
      <trkpt lat="43.69241" lon="6.71503">
        <ele>814</ele>
        <time>2019-03-20T09:16:26Z</time>
      </trkpt>
      <trkpt lat="43.69247" lon="6.71511">
        <ele>813</ele>
        <time>2019-03-20T09:16:36Z</time>
      </trkpt>
      <trkpt lat="43.69254" lon="6.71518">
        <ele>815</ele>
        <time>2019-03-20T09:16:45Z</time>
      </trkpt>
      <trkpt lat="43.69259" lon="6.71527">
        <ele>817</ele>
        <time>2019-03-20T09:16:52Z</time>
      </trkpt>
      <trkpt lat="43.69259" lon="6.7155">
        <ele>819</ele>
        <time>2019-03-20T09:17:12Z</time>
      </trkpt>
      <trkpt lat="43.69256" lon="6.71558">
        <ele>819</ele>
        <time>2019-03-20T09:17:21Z</time>
      </trkpt>
      <trkpt lat="43.69255" lon="6.71568">
        <ele>819</ele>
        <time>2019-03-20T09:17:29Z</time>
      </trkpt>
      <trkpt lat="43.69251" lon="6.71584">
        <ele>819</ele>
        <time>2019-03-20T09:17:47Z</time>
      </trkpt>
      <trkpt lat="43.69247" lon="6.71599">
        <ele>820</ele>
        <time>2019-03-20T09:18:01Z</time>
      </trkpt>
      <trkpt lat="43.69241" lon="6.71615">
        <ele>821</ele>
        <time>2019-03-20T09:18:12Z</time>
      </trkpt>
      <trkpt lat="43.69237" lon="6.7163">
        <ele>822</ele>
        <time>2019-03-20T09:18:25Z</time>
      </trkpt>
      <trkpt lat="43.69235" lon="6.71638">
        <ele>822</ele>
        <time>2019-03-20T09:18:30Z</time>
      </trkpt>
      <trkpt lat="43.69234" lon="6.71648">
        <ele>823</ele>
        <time>2019-03-20T09:18:37Z</time>
      </trkpt>
      <trkpt lat="43.69236" lon="6.71656">
        <ele>823</ele>
        <time>2019-03-20T09:18:43Z</time>
      </trkpt>
      <trkpt lat="43.69241" lon="6.71661">
        <ele>823</ele>
        <time>2019-03-20T09:18:49Z</time>
      </trkpt>
      <trkpt lat="43.6925" lon="6.71668">
        <ele>824</ele>
        <time>2019-03-20T09:19:04Z</time>
      </trkpt>
      <trkpt lat="43.69254" lon="6.71675">
        <ele>824</ele>
        <time>2019-03-20T09:19:12Z</time>
      </trkpt>
      <trkpt lat="43.69258" lon="6.71696">
        <ele>826</ele>
        <time>2019-03-20T09:19:27Z</time>
      </trkpt>
      <trkpt lat="43.69264" lon="6.71703">
        <ele>827</ele>
        <time>2019-03-20T09:19:35Z</time>
      </trkpt>
      <trkpt lat="43.6927" lon="6.717">
        <ele>828</ele>
        <time>2019-03-20T09:19:41Z</time>
      </trkpt>
      <trkpt lat="43.69274" lon="6.71684">
        <ele>830</ele>
        <time>2019-03-20T09:19:55Z</time>
      </trkpt>
      <trkpt lat="43.6928" lon="6.7168">
        <ele>830</ele>
        <time>2019-03-20T09:20:07Z</time>
      </trkpt>
      <trkpt lat="43.69285" lon="6.71686">
        <ele>832</ele>
        <time>2019-03-20T09:20:17Z</time>
      </trkpt>
      <trkpt lat="43.69292" lon="6.71693">
        <ele>833</ele>
        <time>2019-03-20T09:20:24Z</time>
      </trkpt>
      <trkpt lat="43.69299" lon="6.71699">
        <ele>834</ele>
        <time>2019-03-20T09:20:32Z</time>
      </trkpt>
      <trkpt lat="43.69312" lon="6.71715">
        <ele>835</ele>
        <time>2019-03-20T09:20:49Z</time>
      </trkpt>
      <trkpt lat="43.69318" lon="6.71727">
        <ele>834</ele>
        <time>2019-03-20T09:20:59Z</time>
      </trkpt>
      <trkpt lat="43.69332" lon="6.71753">
        <ele>830</ele>
        <time>2019-03-20T09:21:20Z</time>
      </trkpt>
      <trkpt lat="43.69337" lon="6.71762">
        <ele>831</ele>
        <time>2019-03-20T09:21:29Z</time>
      </trkpt>
      <trkpt lat="43.69356" lon="6.7179">
        <ele>834</ele>
        <time>2019-03-20T09:21:53Z</time>
      </trkpt>
      <trkpt lat="43.69373" lon="6.71815">
        <ele>832</ele>
        <time>2019-03-20T09:22:13Z</time>
      </trkpt>
      <trkpt lat="43.69391" lon="6.71867">
        <ele>835</ele>
        <time>2019-03-20T09:22:47Z</time>
      </trkpt>
      <trkpt lat="43.69395" lon="6.71877">
        <ele>834</ele>
        <time>2019-03-20T09:22:53Z</time>
      </trkpt>
      <trkpt lat="43.69399" lon="6.71886">
        <ele>835</ele>
        <time>2019-03-20T09:23:00Z</time>
      </trkpt>
      <trkpt lat="43.69403" lon="6.71897">
        <ele>836</ele>
        <time>2019-03-20T09:23:07Z</time>
      </trkpt>
      <trkpt lat="43.69409" lon="6.71907">
        <ele>835</ele>
        <time>2019-03-20T09:23:14Z</time>
      </trkpt>
      <trkpt lat="43.69412" lon="6.71914">
        <ele>836</ele>
        <time>2019-03-20T09:23:19Z</time>
      </trkpt>
      <trkpt lat="43.69422" lon="6.71932">
        <ele>837</ele>
        <time>2019-03-20T09:23:35Z</time>
      </trkpt>
      <trkpt lat="43.69426" lon="6.71941">
        <ele>837</ele>
        <time>2019-03-20T09:23:48Z</time>
      </trkpt>
      <trkpt lat="43.69429" lon="6.7195">
        <ele>837</ele>
        <time>2019-03-20T09:24:03Z</time>
      </trkpt>
      <trkpt lat="43.69438" lon="6.7197">
        <ele>838</ele>
        <time>2019-03-20T09:24:21Z</time>
      </trkpt>
      <trkpt lat="43.69451" lon="6.71985">
        <ele>840</ele>
        <time>2019-03-20T09:24:37Z</time>
      </trkpt>
      <trkpt lat="43.69472" lon="6.72021">
        <ele>843</ele>
        <time>2019-03-20T09:25:09Z</time>
      </trkpt>
      <trkpt lat="43.69476" lon="6.72031">
        <ele>843</ele>
        <time>2019-03-20T09:25:17Z</time>
      </trkpt>
      <trkpt lat="43.69481" lon="6.72039">
        <ele>845</ele>
        <time>2019-03-20T09:25:24Z</time>
      </trkpt>
      <trkpt lat="43.69483" lon="6.72052">
        <ele>846</ele>
        <time>2019-03-20T09:25:31Z</time>
      </trkpt>
      <trkpt lat="43.69497" lon="6.7208">
        <ele>848</ele>
        <time>2019-03-20T09:25:52Z</time>
      </trkpt>
      <trkpt lat="43.69507" lon="6.72097">
        <ele>849</ele>
        <time>2019-03-20T09:26:08Z</time>
      </trkpt>
      <trkpt lat="43.69515" lon="6.72125">
        <ele>848</ele>
        <time>2019-03-20T09:26:30Z</time>
      </trkpt>
      <trkpt lat="43.69517" lon="6.72135">
        <ele>848</ele>
        <time>2019-03-20T09:26:37Z</time>
      </trkpt>
      <trkpt lat="43.6952" lon="6.72147">
        <ele>849</ele>
        <time>2019-03-20T09:26:43Z</time>
      </trkpt>
      <trkpt lat="43.69528" lon="6.72179">
        <ele>849</ele>
        <time>2019-03-20T09:27:02Z</time>
      </trkpt>
      <trkpt lat="43.6953" lon="6.72186">
        <ele>850</ele>
        <time>2019-03-20T09:27:09Z</time>
      </trkpt>
      <trkpt lat="43.69535" lon="6.72193">
        <ele>849</ele>
        <time>2019-03-20T09:27:32Z</time>
      </trkpt>
      <trkpt lat="43.69544" lon="6.72233">
        <ele>848</ele>
        <time>2019-03-20T09:28:06Z</time>
      </trkpt>
      <trkpt lat="43.69546" lon="6.7225">
        <ele>849</ele>
        <time>2019-03-20T09:28:17Z</time>
      </trkpt>
      <trkpt lat="43.69551" lon="6.72266">
        <ele>849</ele>
        <time>2019-03-20T09:28:27Z</time>
      </trkpt>
      <trkpt lat="43.69557" lon="6.72284">
        <ele>850</ele>
        <time>2019-03-20T09:28:40Z</time>
      </trkpt>
      <trkpt lat="43.69577" lon="6.72328">
        <ele>850</ele>
        <time>2019-03-20T09:29:11Z</time>
      </trkpt>
      <trkpt lat="43.69591" lon="6.72355">
        <ele>850</ele>
        <time>2019-03-20T09:29:30Z</time>
      </trkpt>
      <trkpt lat="43.69611" lon="6.72375">
        <ele>852</ele>
        <time>2019-03-20T09:29:49Z</time>
      </trkpt>
      <trkpt lat="43.69617" lon="6.72382">
        <ele>851</ele>
        <time>2019-03-20T09:29:57Z</time>
      </trkpt>
      <trkpt lat="43.69623" lon="6.72389">
        <ele>850</ele>
        <time>2019-03-20T09:30:03Z</time>
      </trkpt>
      <trkpt lat="43.69644" lon="6.72425">
        <ele>849</ele>
        <time>2019-03-20T09:30:31Z</time>
      </trkpt>
      <trkpt lat="43.6965" lon="6.7243">
        <ele>850</ele>
        <time>2019-03-20T09:30:43Z</time>
      </trkpt>
      <trkpt lat="43.69651" lon="6.72439">
        <ele>850</ele>
        <time>2019-03-20T09:33:07Z</time>
      </trkpt>
      <trkpt lat="43.69661" lon="6.72452">
        <ele>852</ele>
        <time>2019-03-20T09:33:24Z</time>
      </trkpt>
      <trkpt lat="43.69668" lon="6.72459">
        <ele>853</ele>
        <time>2019-03-20T09:33:35Z</time>
      </trkpt>
      <trkpt lat="43.69675" lon="6.72464">
        <ele>853</ele>
        <time>2019-03-20T09:33:44Z</time>
      </trkpt>
      <trkpt lat="43.69686" lon="6.72477">
        <ele>854</ele>
        <time>2019-03-20T09:34:14Z</time>
      </trkpt>
      <trkpt lat="43.69693" lon="6.72481">
        <ele>855</ele>
        <time>2019-03-20T09:34:29Z</time>
      </trkpt>
      <trkpt lat="43.697" lon="6.72481">
        <ele>856</ele>
        <time>2019-03-20T09:34:39Z</time>
      </trkpt>
      <trkpt lat="43.69715" lon="6.72488">
        <ele>858</ele>
        <time>2019-03-20T09:34:58Z</time>
      </trkpt>
      <trkpt lat="43.69721" lon="6.72491">
        <ele>857</ele>
        <time>2019-03-20T09:35:08Z</time>
      </trkpt>
      <trkpt lat="43.69739" lon="6.72506">
        <ele>857</ele>
        <time>2019-03-20T09:35:29Z</time>
      </trkpt>
      <trkpt lat="43.69759" lon="6.72527">
        <ele>858</ele>
        <time>2019-03-20T09:35:55Z</time>
      </trkpt>
      <trkpt lat="43.69766" lon="6.72527">
        <ele>859</ele>
        <time>2019-03-20T09:36:02Z</time>
      </trkpt>
      <trkpt lat="43.69774" lon="6.72529">
        <ele>861</ele>
        <time>2019-03-20T09:36:14Z</time>
      </trkpt>
      <trkpt lat="43.69792" lon="6.72547">
        <ele>862</ele>
        <time>2019-03-20T09:36:37Z</time>
      </trkpt>
      <trkpt lat="43.69798" lon="6.72553">
        <ele>866</ele>
        <time>2019-03-20T09:36:52Z</time>
      </trkpt>
      <trkpt lat="43.69804" lon="6.72575">
        <ele>868</ele>
        <time>2019-03-20T09:37:16Z</time>
      </trkpt>
      <trkpt lat="43.69799" lon="6.72607">
        <ele>867</ele>
        <time>2019-03-20T09:37:37Z</time>
      </trkpt>
      <trkpt lat="43.69799" lon="6.72637">
        <ele>868</ele>
        <time>2019-03-20T09:37:55Z</time>
      </trkpt>
      <trkpt lat="43.698" lon="6.72644">
        <ele>870</ele>
        <time>2019-03-20T09:40:05Z</time>
      </trkpt>
      <trkpt lat="43.69802" lon="6.72645">
        <ele>875</ele>
        <time>2019-03-20T09:44:55Z</time>
      </trkpt>
      <trkpt lat="43.69799" lon="6.72635">
        <ele>870</ele>
        <time>2019-03-20T09:45:03Z</time>
      </trkpt>
      <trkpt lat="43.69799" lon="6.72625">
        <ele>865</ele>
        <time>2019-03-20T09:45:23Z</time>
      </trkpt>
      <trkpt lat="43.69797" lon="6.72616">
        <ele>866</ele>
        <time>2019-03-20T09:45:31Z</time>
      </trkpt>
      <trkpt lat="43.69799" lon="6.72595">
        <ele>867</ele>
        <time>2019-03-20T09:45:47Z</time>
      </trkpt>
      <trkpt lat="43.698" lon="6.72585">
        <ele>867</ele>
        <time>2019-03-20T09:45:55Z</time>
      </trkpt>
      <trkpt lat="43.69799" lon="6.72556">
        <ele>867</ele>
        <time>2019-03-20T09:46:28Z</time>
      </trkpt>
      <trkpt lat="43.69793" lon="6.7255">
        <ele>866</ele>
        <time>2019-03-20T09:46:41Z</time>
      </trkpt>
      <trkpt lat="43.6978" lon="6.72538">
        <ele>866</ele>
        <time>2019-03-20T09:46:59Z</time>
      </trkpt>
      <trkpt lat="43.69772" lon="6.72536">
        <ele>865</ele>
        <time>2019-03-20T09:47:07Z</time>
      </trkpt>
      <trkpt lat="43.69765" lon="6.72535">
        <ele>864</ele>
        <time>2019-03-20T09:47:14Z</time>
      </trkpt>
      <trkpt lat="43.69759" lon="6.72532">
        <ele>863</ele>
        <time>2019-03-20T09:47:22Z</time>
      </trkpt>
      <trkpt lat="43.69754" lon="6.72531">
        <ele>860</ele>
        <time>2019-03-20T09:47:29Z</time>
      </trkpt>
      <trkpt lat="43.6975" lon="6.72533">
        <ele>859</ele>
        <time>2019-03-20T09:48:01Z</time>
      </trkpt>
      <trkpt lat="43.69748" lon="6.72537">
        <ele>859</ele>
        <time>2019-03-20T09:48:08Z</time>
      </trkpt>
      <trkpt lat="43.69734" lon="6.72549">
        <ele>859</ele>
        <time>2019-03-20T09:48:28Z</time>
      </trkpt>
      <trkpt lat="43.69731" lon="6.72551">
        <ele>859</ele>
        <time>2019-03-20T09:48:32Z</time>
      </trkpt>
      <trkpt lat="43.69725" lon="6.72555">
        <ele>859</ele>
        <time>2019-03-20T09:48:40Z</time>
      </trkpt>
      <trkpt lat="43.69711" lon="6.72571">
        <ele>858</ele>
        <time>2019-03-20T09:49:05Z</time>
      </trkpt>
      <trkpt lat="43.69707" lon="6.72582">
        <ele>857</ele>
        <time>2019-03-20T09:49:12Z</time>
      </trkpt>
      <trkpt lat="43.69706" lon="6.72588">
        <ele>856</ele>
        <time>2019-03-20T09:49:17Z</time>
      </trkpt>
      <trkpt lat="43.69709" lon="6.72598">
        <ele>853</ele>
        <time>2019-03-20T09:49:25Z</time>
      </trkpt>
      <trkpt lat="43.69709" lon="6.72607">
        <ele>853</ele>
        <time>2019-03-20T09:49:32Z</time>
      </trkpt>
      <trkpt lat="43.69707" lon="6.72612">
        <ele>851</ele>
        <time>2019-03-20T09:49:51Z</time>
      </trkpt>
      <trkpt lat="43.697" lon="6.72631">
        <ele>853</ele>
        <time>2019-03-20T09:50:20Z</time>
      </trkpt>
      <trkpt lat="43.69696" lon="6.72649">
        <ele>853</ele>
        <time>2019-03-20T09:50:34Z</time>
      </trkpt>
      <trkpt lat="43.69691" lon="6.72656">
        <ele>853</ele>
        <time>2019-03-20T09:50:42Z</time>
      </trkpt>
      <trkpt lat="43.69683" lon="6.72661">
        <ele>853</ele>
        <time>2019-03-20T09:50:54Z</time>
      </trkpt>
      <trkpt lat="43.69676" lon="6.72663">
        <ele>853</ele>
        <time>2019-03-20T09:51:01Z</time>
      </trkpt>
      <trkpt lat="43.69672" lon="6.72669">
        <ele>851</ele>
        <time>2019-03-20T09:51:07Z</time>
      </trkpt>
      <trkpt lat="43.69672" lon="6.72679">
        <ele>850</ele>
        <time>2019-03-20T09:51:14Z</time>
      </trkpt>
      <trkpt lat="43.69674" lon="6.72688">
        <ele>848</ele>
        <time>2019-03-20T09:51:21Z</time>
      </trkpt>
      <trkpt lat="43.69675" lon="6.72697">
        <ele>846</ele>
        <time>2019-03-20T09:51:29Z</time>
      </trkpt>
      <trkpt lat="43.69675" lon="6.72705">
        <ele>844</ele>
        <time>2019-03-20T09:51:34Z</time>
      </trkpt>
      <trkpt lat="43.69672" lon="6.72714">
        <ele>843</ele>
        <time>2019-03-20T09:51:41Z</time>
      </trkpt>
      <trkpt lat="43.69668" lon="6.72732">
        <ele>843</ele>
        <time>2019-03-20T09:51:57Z</time>
      </trkpt>
      <trkpt lat="43.69669" lon="6.72747">
        <ele>841</ele>
        <time>2019-03-20T09:52:09Z</time>
      </trkpt>
      <trkpt lat="43.69669" lon="6.72756">
        <ele>840</ele>
        <time>2019-03-20T09:52:15Z</time>
      </trkpt>
      <trkpt lat="43.69669" lon="6.72764">
        <ele>837</ele>
        <time>2019-03-20T09:52:20Z</time>
      </trkpt>
      <trkpt lat="43.69665" lon="6.7277">
        <ele>838</ele>
        <time>2019-03-20T09:52:28Z</time>
      </trkpt>
      <trkpt lat="43.69657" lon="6.72768">
        <ele>839</ele>
        <time>2019-03-20T09:52:35Z</time>
      </trkpt>
      <trkpt lat="43.69646" lon="6.72765">
        <ele>840</ele>
        <time>2019-03-20T09:52:45Z</time>
      </trkpt>
      <trkpt lat="43.69641" lon="6.72763">
        <ele>840</ele>
        <time>2019-03-20T09:52:49Z</time>
      </trkpt>
      <trkpt lat="43.69635" lon="6.72761">
        <ele>840</ele>
        <time>2019-03-20T09:52:55Z</time>
      </trkpt>
      <trkpt lat="43.69632" lon="6.72766">
        <ele>838</ele>
        <time>2019-03-20T09:53:07Z</time>
      </trkpt>
      <trkpt lat="43.69633" lon="6.72773">
        <ele>838</ele>
        <time>2019-03-20T09:53:11Z</time>
      </trkpt>
      <trkpt lat="43.69641" lon="6.72791">
        <ele>836</ele>
        <time>2019-03-20T09:53:25Z</time>
      </trkpt>
      <trkpt lat="43.69644" lon="6.72798">
        <ele>836</ele>
        <time>2019-03-20T09:53:30Z</time>
      </trkpt>
      <trkpt lat="43.69658" lon="6.72823">
        <ele>836</ele>
        <time>2019-03-20T09:53:50Z</time>
      </trkpt>
      <trkpt lat="43.69663" lon="6.72831">
        <ele>836</ele>
        <time>2019-03-20T09:53:57Z</time>
      </trkpt>
      <trkpt lat="43.69668" lon="6.72842">
        <ele>836</ele>
        <time>2019-03-20T09:54:07Z</time>
      </trkpt>
      <trkpt lat="43.6968" lon="6.72859">
        <ele>834</ele>
        <time>2019-03-20T09:54:22Z</time>
      </trkpt>
      <trkpt lat="43.6969" lon="6.72879">
        <ele>833</ele>
        <time>2019-03-20T09:54:35Z</time>
      </trkpt>
      <trkpt lat="43.69694" lon="6.72888">
        <ele>832</ele>
        <time>2019-03-20T09:54:46Z</time>
      </trkpt>
      <trkpt lat="43.69693" lon="6.72898">
        <ele>831</ele>
        <time>2019-03-20T09:54:56Z</time>
      </trkpt>
      <trkpt lat="43.69684" lon="6.72918">
        <ele>830</ele>
        <time>2019-03-20T09:55:09Z</time>
      </trkpt>
      <trkpt lat="43.69678" lon="6.72928">
        <ele>829</ele>
        <time>2019-03-20T09:55:18Z</time>
      </trkpt>
      <trkpt lat="43.69664" lon="6.72954">
        <ele>829</ele>
        <time>2019-03-20T09:55:37Z</time>
      </trkpt>
      <trkpt lat="43.6964" lon="6.72967">
        <ele>828</ele>
        <time>2019-03-20T09:55:57Z</time>
      </trkpt>
      <trkpt lat="43.69634" lon="6.72969">
        <ele>828</ele>
        <time>2019-03-20T09:56:02Z</time>
      </trkpt>
      <trkpt lat="43.69617" lon="6.72976">
        <ele>829</ele>
        <time>2019-03-20T09:56:17Z</time>
      </trkpt>
      <trkpt lat="43.69593" lon="6.72981">
        <ele>828</ele>
        <time>2019-03-20T09:56:35Z</time>
      </trkpt>
      <trkpt lat="43.69586" lon="6.72985">
        <ele>827</ele>
        <time>2019-03-20T09:56:41Z</time>
      </trkpt>
      <trkpt lat="43.69577" lon="6.72987">
        <ele>825</ele>
        <time>2019-03-20T09:56:48Z</time>
      </trkpt>
      <trkpt lat="43.69568" lon="6.72991">
        <ele>826</ele>
        <time>2019-03-20T09:56:55Z</time>
      </trkpt>
      <trkpt lat="43.69561" lon="6.72997">
        <ele>827</ele>
        <time>2019-03-20T09:57:02Z</time>
      </trkpt>
      <trkpt lat="43.69541" lon="6.73016">
        <ele>826</ele>
        <time>2019-03-20T09:57:28Z</time>
      </trkpt>
      <trkpt lat="43.69527" lon="6.73032">
        <ele>826</ele>
        <time>2019-03-20T09:57:43Z</time>
      </trkpt>
      <trkpt lat="43.69511" lon="6.73044">
        <ele>826</ele>
        <time>2019-03-20T09:57:56Z</time>
      </trkpt>
      <trkpt lat="43.69506" lon="6.73051">
        <ele>825</ele>
        <time>2019-03-20T09:58:02Z</time>
      </trkpt>
      <trkpt lat="43.69499" lon="6.73057">
        <ele>825</ele>
        <time>2019-03-20T09:58:08Z</time>
      </trkpt>
      <trkpt lat="43.69464" lon="6.73095">
        <ele>826</ele>
        <time>2019-03-20T09:58:42Z</time>
      </trkpt>
      <trkpt lat="43.69459" lon="6.73102">
        <ele>825</ele>
        <time>2019-03-20T09:58:48Z</time>
      </trkpt>
      <trkpt lat="43.69442" lon="6.73123">
        <ele>825</ele>
        <time>2019-03-20T09:59:06Z</time>
      </trkpt>
      <trkpt lat="43.69428" lon="6.73135">
        <ele>824</ele>
        <time>2019-03-20T09:59:18Z</time>
      </trkpt>
      <trkpt lat="43.69422" lon="6.73142">
        <ele>823</ele>
        <time>2019-03-20T09:59:25Z</time>
      </trkpt>
      <trkpt lat="43.69403" lon="6.73158">
        <ele>821</ele>
        <time>2019-03-20T09:59:44Z</time>
      </trkpt>
      <trkpt lat="43.69395" lon="6.7316">
        <ele>820</ele>
        <time>2019-03-20T09:59:51Z</time>
      </trkpt>
      <trkpt lat="43.69387" lon="6.73159">
        <ele>820</ele>
        <time>2019-03-20T09:59:58Z</time>
      </trkpt>
      <trkpt lat="43.69361" lon="6.7316">
        <ele>816</ele>
        <time>2019-03-20T10:00:17Z</time>
      </trkpt>
      <trkpt lat="43.69347" lon="6.73167">
        <ele>816</ele>
        <time>2019-03-20T10:00:28Z</time>
      </trkpt>
      <trkpt lat="43.69341" lon="6.73174">
        <ele>818</ele>
        <time>2019-03-20T10:00:34Z</time>
      </trkpt>
      <trkpt lat="43.69337" lon="6.73184">
        <ele>817</ele>
        <time>2019-03-20T10:00:42Z</time>
      </trkpt>
      <trkpt lat="43.69333" lon="6.73202">
        <ele>812</ele>
        <time>2019-03-20T10:00:55Z</time>
      </trkpt>
      <trkpt lat="43.6933" lon="6.73211">
        <ele>807</ele>
        <time>2019-03-20T10:01:01Z</time>
      </trkpt>
      <trkpt lat="43.69322" lon="6.7323">
        <ele>804</ele>
        <time>2019-03-20T10:01:14Z</time>
      </trkpt>
      <trkpt lat="43.69313" lon="6.73246">
        <ele>803</ele>
        <time>2019-03-20T10:01:26Z</time>
      </trkpt>
      <trkpt lat="43.69306" lon="6.73251">
        <ele>802</ele>
        <time>2019-03-20T10:01:32Z</time>
      </trkpt>
      <trkpt lat="43.69297" lon="6.73268">
        <ele>800</ele>
        <time>2019-03-20T10:01:44Z</time>
      </trkpt>
      <trkpt lat="43.69292" lon="6.73276">
        <ele>800</ele>
        <time>2019-03-20T10:01:51Z</time>
      </trkpt>
      <trkpt lat="43.69264" lon="6.73317">
        <ele>797</ele>
        <time>2019-03-20T10:02:23Z</time>
      </trkpt>
      <trkpt lat="43.69248" lon="6.73343">
        <ele>795</ele>
        <time>2019-03-20T10:02:45Z</time>
      </trkpt>
      <trkpt lat="43.69231" lon="6.73366">
        <ele>791</ele>
        <time>2019-03-20T10:03:04Z</time>
      </trkpt>
      <trkpt lat="43.69226" lon="6.73371">
        <ele>791</ele>
        <time>2019-03-20T10:03:09Z</time>
      </trkpt>
      <trkpt lat="43.69219" lon="6.73377">
        <ele>791</ele>
        <time>2019-03-20T10:03:15Z</time>
      </trkpt>
      <trkpt lat="43.69215" lon="6.73385">
        <ele>789</ele>
        <time>2019-03-20T10:03:28Z</time>
      </trkpt>
      <trkpt lat="43.69186" lon="6.73387">
        <ele>791</ele>
        <time>2019-03-20T10:03:52Z</time>
      </trkpt>
      <trkpt lat="43.69178" lon="6.73386">
        <ele>791</ele>
        <time>2019-03-20T10:03:59Z</time>
      </trkpt>
      <trkpt lat="43.69169" lon="6.73383">
        <ele>792</ele>
        <time>2019-03-20T10:04:06Z</time>
      </trkpt>
      <trkpt lat="43.69156" lon="6.73373">
        <ele>791</ele>
        <time>2019-03-20T10:04:18Z</time>
      </trkpt>
      <trkpt lat="43.69139" lon="6.73349">
        <ele>788</ele>
        <time>2019-03-20T10:04:37Z</time>
      </trkpt>
      <trkpt lat="43.69136" lon="6.73341">
        <ele>787</ele>
        <time>2019-03-20T10:04:42Z</time>
      </trkpt>
      <trkpt lat="43.69131" lon="6.73303">
        <ele>786</ele>
        <time>2019-03-20T10:05:07Z</time>
      </trkpt>
      <trkpt lat="43.69132" lon="6.73274">
        <ele>786</ele>
        <time>2019-03-20T10:05:25Z</time>
      </trkpt>
      <trkpt lat="43.69131" lon="6.73262">
        <ele>786</ele>
        <time>2019-03-20T10:05:33Z</time>
      </trkpt>
      <trkpt lat="43.69128" lon="6.7325">
        <ele>786</ele>
        <time>2019-03-20T10:05:41Z</time>
      </trkpt>
      <trkpt lat="43.69122" lon="6.73229">
        <ele>786</ele>
        <time>2019-03-20T10:05:55Z</time>
      </trkpt>
      <trkpt lat="43.69119" lon="6.73217">
        <ele>788</ele>
        <time>2019-03-20T10:06:08Z</time>
      </trkpt>
      <trkpt lat="43.69113" lon="6.73208">
        <ele>788</ele>
        <time>2019-03-20T10:06:24Z</time>
      </trkpt>
      <trkpt lat="43.69104" lon="6.73214">
        <ele>788</ele>
        <time>2019-03-20T10:06:33Z</time>
      </trkpt>
      <trkpt lat="43.69103" lon="6.73224">
        <ele>787</ele>
        <time>2019-03-20T10:06:45Z</time>
      </trkpt>
      <trkpt lat="43.69103" lon="6.73235">
        <ele>786</ele>
        <time>2019-03-20T10:06:53Z</time>
      </trkpt>
      <trkpt lat="43.691" lon="6.73246">
        <ele>785</ele>
        <time>2019-03-20T10:07:02Z</time>
      </trkpt>
      <trkpt lat="43.69099" lon="6.73256">
        <ele>784</ele>
        <time>2019-03-20T10:07:10Z</time>
      </trkpt>
      <trkpt lat="43.69097" lon="6.73266">
        <ele>783</ele>
        <time>2019-03-20T10:07:17Z</time>
      </trkpt>
      <trkpt lat="43.69095" lon="6.73278">
        <ele>782</ele>
        <time>2019-03-20T10:07:24Z</time>
      </trkpt>
      <trkpt lat="43.69098" lon="6.73301">
        <ele>780</ele>
        <time>2019-03-20T10:07:41Z</time>
      </trkpt>
      <trkpt lat="43.69094" lon="6.7331">
        <ele>779</ele>
        <time>2019-03-20T10:07:48Z</time>
      </trkpt>
      <trkpt lat="43.69092" lon="6.73324">
        <ele>778</ele>
        <time>2019-03-20T10:07:57Z</time>
      </trkpt>
      <trkpt lat="43.69085" lon="6.73357">
        <ele>774</ele>
        <time>2019-03-20T10:08:20Z</time>
      </trkpt>
      <trkpt lat="43.69083" lon="6.73369">
        <ele>774</ele>
        <time>2019-03-20T10:08:28Z</time>
      </trkpt>
      <trkpt lat="43.69082" lon="6.73381">
        <ele>774</ele>
        <time>2019-03-20T10:08:36Z</time>
      </trkpt>
      <trkpt lat="43.69074" lon="6.73397">
        <ele>773</ele>
        <time>2019-03-20T10:08:51Z</time>
      </trkpt>
      <trkpt lat="43.69067" lon="6.73403">
        <ele>772</ele>
        <time>2019-03-20T10:08:59Z</time>
      </trkpt>
      <trkpt lat="43.69065" lon="6.73411">
        <ele>772</ele>
        <time>2019-03-20T10:10:24Z</time>
      </trkpt>
      <trkpt lat="43.69064" lon="6.73411">
        <ele>772</ele>
        <time>2019-03-20T10:13:52Z</time>
      </trkpt>
      <trkpt lat="43.69057" lon="6.73409">
        <ele>771</ele>
        <time>2019-03-20T10:15:26Z</time>
      </trkpt>
      <trkpt lat="43.69051" lon="6.73409">
        <ele>771</ele>
        <time>2019-03-20T10:15:51Z</time>
      </trkpt>
      <trkpt lat="43.69049" lon="6.73418">
        <ele>771</ele>
        <time>2019-03-20T10:15:59Z</time>
      </trkpt>
      <trkpt lat="43.69056" lon="6.73436">
        <ele>770</ele>
        <time>2019-03-20T10:16:46Z</time>
      </trkpt>
      <trkpt lat="43.69044" lon="6.73431">
        <ele>769</ele>
        <time>2019-03-20T10:17:26Z</time>
      </trkpt>
      <trkpt lat="43.69035" lon="6.73429">
        <ele>770</ele>
        <time>2019-03-20T10:17:50Z</time>
      </trkpt>
      <trkpt lat="43.69022" lon="6.73422">
        <ele>772</ele>
        <time>2019-03-20T10:18:13Z</time>
      </trkpt>
      <trkpt lat="43.68999" lon="6.73404">
        <ele>775</ele>
        <time>2019-03-20T10:18:41Z</time>
      </trkpt>
      <trkpt lat="43.68987" lon="6.73394">
        <ele>774</ele>
        <time>2019-03-20T10:18:52Z</time>
      </trkpt>
      <trkpt lat="43.68983" lon="6.73377">
        <ele>774</ele>
        <time>2019-03-20T10:19:02Z</time>
      </trkpt>
      <trkpt lat="43.68982" lon="6.73362">
        <ele>772</ele>
        <time>2019-03-20T10:19:13Z</time>
      </trkpt>
      <trkpt lat="43.68976" lon="6.73346">
        <ele>770</ele>
        <time>2019-03-20T10:19:25Z</time>
      </trkpt>
      <trkpt lat="43.68969" lon="6.73336">
        <ele>771</ele>
        <time>2019-03-20T10:19:35Z</time>
      </trkpt>
      <trkpt lat="43.68962" lon="6.73323">
        <ele>771</ele>
        <time>2019-03-20T10:19:46Z</time>
      </trkpt>
      <trkpt lat="43.68971" lon="6.73276">
        <ele>768</ele>
        <time>2019-03-20T10:20:16Z</time>
      </trkpt>
      <trkpt lat="43.68976" lon="6.73262">
        <ele>767</ele>
        <time>2019-03-20T10:20:25Z</time>
      </trkpt>
      <trkpt lat="43.68977" lon="6.73248">
        <ele>765</ele>
        <time>2019-03-20T10:20:34Z</time>
      </trkpt>
      <trkpt lat="43.68968" lon="6.73237">
        <ele>766</ele>
        <time>2019-03-20T10:20:46Z</time>
      </trkpt>
      <trkpt lat="43.68958" lon="6.73229">
        <ele>770</ele>
        <time>2019-03-20T10:20:55Z</time>
      </trkpt>
      <trkpt lat="43.6895" lon="6.73219">
        <ele>770</ele>
        <time>2019-03-20T10:21:04Z</time>
      </trkpt>
      <trkpt lat="43.68943" lon="6.73208">
        <ele>769</ele>
        <time>2019-03-20T10:21:14Z</time>
      </trkpt>
      <trkpt lat="43.68936" lon="6.73199">
        <ele>770</ele>
        <time>2019-03-20T10:21:26Z</time>
      </trkpt>
      <trkpt lat="43.68929" lon="6.73187">
        <ele>772</ele>
        <time>2019-03-20T10:21:41Z</time>
      </trkpt>
      <trkpt lat="43.68918" lon="6.7318">
        <ele>772</ele>
        <time>2019-03-20T10:21:51Z</time>
      </trkpt>
      <trkpt lat="43.68908" lon="6.73178">
        <ele>773</ele>
        <time>2019-03-20T10:22:08Z</time>
      </trkpt>
      <trkpt lat="43.68898" lon="6.73178">
        <ele>772</ele>
        <time>2019-03-20T10:22:18Z</time>
      </trkpt>
      <trkpt lat="43.68886" lon="6.73178">
        <ele>771</ele>
        <time>2019-03-20T10:22:31Z</time>
      </trkpt>
      <trkpt lat="43.68875" lon="6.73186">
        <ele>767</ele>
        <time>2019-03-20T10:22:46Z</time>
      </trkpt>
      <trkpt lat="43.68863" lon="6.73191">
        <ele>766</ele>
        <time>2019-03-20T10:22:57Z</time>
      </trkpt>
      <trkpt lat="43.68847" lon="6.73204">
        <ele>762</ele>
        <time>2019-03-20T10:23:12Z</time>
      </trkpt>
      <trkpt lat="43.68841" lon="6.73211">
        <ele>760</ele>
        <time>2019-03-20T10:23:21Z</time>
      </trkpt>
      <trkpt lat="43.68833" lon="6.73214">
        <ele>760</ele>
        <time>2019-03-20T10:23:31Z</time>
      </trkpt>
      <trkpt lat="43.68831" lon="6.73224">
        <ele>758</ele>
        <time>2019-03-20T10:23:40Z</time>
      </trkpt>
      <trkpt lat="43.68829" lon="6.73237">
        <ele>757</ele>
        <time>2019-03-20T10:23:53Z</time>
      </trkpt>
      <trkpt lat="43.6882" lon="6.73243">
        <ele>754</ele>
        <time>2019-03-20T10:24:10Z</time>
      </trkpt>
      <trkpt lat="43.68811" lon="6.73245">
        <ele>753</ele>
        <time>2019-03-20T10:24:24Z</time>
      </trkpt>
      <trkpt lat="43.68805" lon="6.73252">
        <ele>750</ele>
        <time>2019-03-20T10:26:07Z</time>
      </trkpt>
      <trkpt lat="43.68797" lon="6.73257">
        <ele>749</ele>
        <time>2019-03-20T10:26:24Z</time>
      </trkpt>
      <trkpt lat="43.6879" lon="6.73263">
        <ele>745</ele>
        <time>2019-03-20T10:26:35Z</time>
      </trkpt>
      <trkpt lat="43.68782" lon="6.73268">
        <ele>744</ele>
        <time>2019-03-20T10:26:44Z</time>
      </trkpt>
      <trkpt lat="43.68775" lon="6.73274">
        <ele>741</ele>
        <time>2019-03-20T10:26:57Z</time>
      </trkpt>
      <trkpt lat="43.68767" lon="6.73282">
        <ele>740</ele>
        <time>2019-03-20T10:27:09Z</time>
      </trkpt>
      <trkpt lat="43.68752" lon="6.73294">
        <ele>738</ele>
        <time>2019-03-20T10:27:25Z</time>
      </trkpt>
      <trkpt lat="43.68746" lon="6.73301">
        <ele>736</ele>
        <time>2019-03-20T10:27:36Z</time>
      </trkpt>
      <trkpt lat="43.68742" lon="6.73312">
        <ele>733</ele>
        <time>2019-03-20T10:27:47Z</time>
      </trkpt>
      <trkpt lat="43.68736" lon="6.73333">
        <ele>731</ele>
        <time>2019-03-20T10:28:02Z</time>
      </trkpt>
      <trkpt lat="43.68732" lon="6.73343">
        <ele>730</ele>
        <time>2019-03-20T10:28:10Z</time>
      </trkpt>
      <trkpt lat="43.6873" lon="6.73352">
        <ele>728</ele>
        <time>2019-03-20T10:28:19Z</time>
      </trkpt>
      <trkpt lat="43.6873" lon="6.73374">
        <ele>727</ele>
        <time>2019-03-20T10:28:37Z</time>
      </trkpt>
      <trkpt lat="43.68725" lon="6.73382">
        <ele>726</ele>
        <time>2019-03-20T10:28:44Z</time>
      </trkpt>
      <trkpt lat="43.68707" lon="6.73414">
        <ele>721</ele>
        <time>2019-03-20T10:29:25Z</time>
      </trkpt>
      <trkpt lat="43.68704" lon="6.73422">
        <ele>718</ele>
        <time>2019-03-20T10:29:32Z</time>
      </trkpt>
      <trkpt lat="43.68688" lon="6.73445">
        <ele>716</ele>
        <time>2019-03-20T10:29:57Z</time>
      </trkpt>
      <trkpt lat="43.68675" lon="6.73473">
        <ele>712</ele>
        <time>2019-03-20T10:30:27Z</time>
      </trkpt>
      <trkpt lat="43.68665" lon="6.73498">
        <ele>709</ele>
        <time>2019-03-20T10:30:49Z</time>
      </trkpt>
      <trkpt lat="43.68662" lon="6.73506">
        <ele>709</ele>
        <time>2019-03-20T10:30:57Z</time>
      </trkpt>
      <trkpt lat="43.6866" lon="6.73515">
        <ele>708</ele>
        <time>2019-03-20T10:31:09Z</time>
      </trkpt>
      <trkpt lat="43.68656" lon="6.73522">
        <ele>707</ele>
        <time>2019-03-20T10:31:16Z</time>
      </trkpt>
      <trkpt lat="43.6865" lon="6.73528">
        <ele>704</ele>
        <time>2019-03-20T10:31:24Z</time>
      </trkpt>
      <trkpt lat="43.6865" lon="6.73538">
        <ele>704</ele>
        <time>2019-03-20T10:31:34Z</time>
      </trkpt>
      <trkpt lat="43.68643" lon="6.73552">
        <ele>702</ele>
        <time>2019-03-20T10:31:48Z</time>
      </trkpt>
      <trkpt lat="43.68639" lon="6.73559">
        <ele>699</ele>
        <time>2019-03-20T10:31:57Z</time>
      </trkpt>
      <trkpt lat="43.68639" lon="6.73567">
        <ele>699</ele>
        <time>2019-03-20T10:32:05Z</time>
      </trkpt>
      <trkpt lat="43.68637" lon="6.73576">
        <ele>698</ele>
        <time>2019-03-20T10:32:14Z</time>
      </trkpt>
      <trkpt lat="43.68633" lon="6.73582">
        <ele>698</ele>
        <time>2019-03-20T10:32:22Z</time>
      </trkpt>
      <trkpt lat="43.6863" lon="6.73589">
        <ele>696</ele>
        <time>2019-03-20T10:32:29Z</time>
      </trkpt>
      <trkpt lat="43.68628" lon="6.73598">
        <ele>696</ele>
        <time>2019-03-20T10:32:39Z</time>
      </trkpt>
      <trkpt lat="43.68622" lon="6.73599">
        <ele>694</ele>
        <time>2019-03-20T10:32:48Z</time>
      </trkpt>
      <trkpt lat="43.68624" lon="6.73605">
        <ele>694</ele>
        <time>2019-03-20T10:32:55Z</time>
      </trkpt>
      <trkpt lat="43.68618" lon="6.73618">
        <ele>691</ele>
        <time>2019-03-20T10:33:16Z</time>
      </trkpt>
      <trkpt lat="43.68615" lon="6.73625">
        <ele>689</ele>
        <time>2019-03-20T10:33:29Z</time>
      </trkpt>
      <trkpt lat="43.68611" lon="6.7363">
        <ele>687</ele>
        <time>2019-03-20T10:33:37Z</time>
      </trkpt>
      <trkpt lat="43.68605" lon="6.73631">
        <ele>686</ele>
        <time>2019-03-20T10:33:44Z</time>
      </trkpt>
      <trkpt lat="43.68599" lon="6.73629">
        <ele>686</ele>
        <time>2019-03-20T10:33:53Z</time>
      </trkpt>
      <trkpt lat="43.68594" lon="6.73636">
        <ele>683</ele>
        <time>2019-03-20T10:34:13Z</time>
      </trkpt>
      <trkpt lat="43.68577" lon="6.73652">
        <ele>679</ele>
        <time>2019-03-20T10:34:57Z</time>
      </trkpt>
      <trkpt lat="43.68572" lon="6.73656">
        <ele>677</ele>
        <time>2019-03-20T10:35:10Z</time>
      </trkpt>
      <trkpt lat="43.68568" lon="6.73662">
        <ele>676</ele>
        <time>2019-03-20T10:35:24Z</time>
      </trkpt>
      <trkpt lat="43.68561" lon="6.73666">
        <ele>673</ele>
        <time>2019-03-20T10:35:39Z</time>
      </trkpt>
      <trkpt lat="43.68557" lon="6.73672">
        <ele>671</ele>
        <time>2019-03-20T10:35:57Z</time>
      </trkpt>
      <trkpt lat="43.68543" lon="6.73683">
        <ele>666</ele>
        <time>2019-03-20T10:36:26Z</time>
      </trkpt>
      <trkpt lat="43.68537" lon="6.73691">
        <ele>664</ele>
        <time>2019-03-20T10:36:36Z</time>
      </trkpt>
      <trkpt lat="43.68531" lon="6.73695">
        <ele>663</ele>
        <time>2019-03-20T10:36:51Z</time>
      </trkpt>
      <trkpt lat="43.68525" lon="6.73696">
        <ele>661</ele>
        <time>2019-03-20T10:36:58Z</time>
      </trkpt>
      <trkpt lat="43.68523" lon="6.73705">
        <ele>660</ele>
        <time>2019-03-20T10:37:16Z</time>
      </trkpt>
      <trkpt lat="43.68517" lon="6.73711">
        <ele>658</ele>
        <time>2019-03-20T10:37:26Z</time>
      </trkpt>
      <trkpt lat="43.68505" lon="6.73721">
        <ele>653</ele>
        <time>2019-03-20T10:37:54Z</time>
      </trkpt>
      <trkpt lat="43.68502" lon="6.73728">
        <ele>651</ele>
        <time>2019-03-20T10:38:06Z</time>
      </trkpt>
      <trkpt lat="43.68495" lon="6.7373">
        <ele>650</ele>
        <time>2019-03-20T10:38:13Z</time>
      </trkpt>
      <trkpt lat="43.68488" lon="6.73737">
        <ele>648</ele>
        <time>2019-03-20T10:38:34Z</time>
      </trkpt>
      <trkpt lat="43.68483" lon="6.73744">
        <ele>647</ele>
        <time>2019-03-20T10:38:47Z</time>
      </trkpt>
      <trkpt lat="43.68466" lon="6.73752">
        <ele>644</ele>
        <time>2019-03-20T10:39:17Z</time>
      </trkpt>
      <trkpt lat="43.68454" lon="6.73762">
        <ele>641</ele>
        <time>2019-03-20T10:39:40Z</time>
      </trkpt>
      <trkpt lat="43.68448" lon="6.73769">
        <ele>639</ele>
        <time>2019-03-20T10:39:52Z</time>
      </trkpt>
      <trkpt lat="43.68442" lon="6.73777">
        <ele>638</ele>
        <time>2019-03-20T10:40:00Z</time>
      </trkpt>
      <trkpt lat="43.68438" lon="6.73784">
        <ele>635</ele>
        <time>2019-03-20T10:40:09Z</time>
      </trkpt>
      <trkpt lat="43.68432" lon="6.73789">
        <ele>634</ele>
        <time>2019-03-20T10:40:15Z</time>
      </trkpt>
      <trkpt lat="43.6843" lon="6.73796">
        <ele>630</ele>
        <time>2019-03-20T10:41:54Z</time>
      </trkpt>
      <trkpt lat="43.68425" lon="6.73802">
        <ele>626</ele>
        <time>2019-03-20T10:43:18Z</time>
      </trkpt>
      <trkpt lat="43.68421" lon="6.73807">
        <ele>625</ele>
        <time>2019-03-20T10:43:23Z</time>
      </trkpt>
      <trkpt lat="43.68416" lon="6.73811">
        <ele>625</ele>
        <time>2019-03-20T10:43:28Z</time>
      </trkpt>
      <trkpt lat="43.68411" lon="6.73815">
        <ele>625</ele>
        <time>2019-03-20T10:43:33Z</time>
      </trkpt>
      <trkpt lat="43.68409" lon="6.73821">
        <ele>624</ele>
        <time>2019-03-20T10:43:43Z</time>
      </trkpt>
      <trkpt lat="43.68397" lon="6.7383">
        <ele>624</ele>
        <time>2019-03-20T10:43:54Z</time>
      </trkpt>
      <trkpt lat="43.68389" lon="6.73844">
        <ele>623</ele>
        <time>2019-03-20T10:44:05Z</time>
      </trkpt>
      <trkpt lat="43.68386" lon="6.7385">
        <ele>623</ele>
        <time>2019-03-20T10:44:10Z</time>
      </trkpt>
      <trkpt lat="43.68383" lon="6.73857">
        <ele>623</ele>
        <time>2019-03-20T10:44:16Z</time>
      </trkpt>
      <trkpt lat="43.68378" lon="6.73869">
        <ele>624</ele>
        <time>2019-03-20T10:44:24Z</time>
      </trkpt>
      <trkpt lat="43.68376" lon="6.73874">
        <ele>624</ele>
        <time>2019-03-20T10:44:28Z</time>
      </trkpt>
      <trkpt lat="43.6837" lon="6.73898">
        <ele>621</ele>
        <time>2019-03-20T10:44:43Z</time>
      </trkpt>
      <trkpt lat="43.68368" lon="6.73902">
        <ele>620</ele>
        <time>2019-03-20T10:44:49Z</time>
      </trkpt>
      <trkpt lat="43.68366" lon="6.73907">
        <ele>620</ele>
        <time>2019-03-20T10:44:53Z</time>
      </trkpt>
      <trkpt lat="43.68354" lon="6.7392">
        <ele>617</ele>
        <time>2019-03-20T10:45:06Z</time>
      </trkpt>
      <trkpt lat="43.6835" lon="6.73927">
        <ele>617</ele>
        <time>2019-03-20T10:45:12Z</time>
      </trkpt>
      <trkpt lat="43.68338" lon="6.73935">
        <ele>617</ele>
        <time>2019-03-20T10:45:22Z</time>
      </trkpt>
      <trkpt lat="43.68329" lon="6.73947">
        <ele>615</ele>
        <time>2019-03-20T10:45:34Z</time>
      </trkpt>
      <trkpt lat="43.68326" lon="6.73955">
        <ele>613</ele>
        <time>2019-03-20T10:45:39Z</time>
      </trkpt>
      <trkpt lat="43.68325" lon="6.73962">
        <ele>612</ele>
        <time>2019-03-20T10:45:43Z</time>
      </trkpt>
      <trkpt lat="43.68324" lon="6.73972">
        <ele>610</ele>
        <time>2019-03-20T10:45:49Z</time>
      </trkpt>
      <trkpt lat="43.68319" lon="6.73997">
        <ele>608</ele>
        <time>2019-03-20T10:46:10Z</time>
      </trkpt>
      <trkpt lat="43.68313" lon="6.74004">
        <ele>608</ele>
        <time>2019-03-20T10:46:18Z</time>
      </trkpt>
      <trkpt lat="43.68302" lon="6.74018">
        <ele>606</ele>
        <time>2019-03-20T10:46:30Z</time>
      </trkpt>
      <trkpt lat="43.68291" lon="6.74046">
        <ele>597</ele>
        <time>2019-03-20T10:46:53Z</time>
      </trkpt>
      <trkpt lat="43.68288" lon="6.74052">
        <ele>597</ele>
        <time>2019-03-20T10:46:58Z</time>
      </trkpt>
      <trkpt lat="43.68284" lon="6.74056">
        <ele>597</ele>
        <time>2019-03-20T10:47:03Z</time>
      </trkpt>
      <trkpt lat="43.68281" lon="6.74058">
        <ele>596</ele>
        <time>2019-03-20T10:47:28Z</time>
      </trkpt>
      <trkpt lat="43.68277" lon="6.74059">
        <ele>594</ele>
        <time>2019-03-20T10:48:17Z</time>
      </trkpt>
      <trkpt lat="43.68275" lon="6.74064">
        <ele>593</ele>
        <time>2019-03-20T10:48:53Z</time>
      </trkpt>
      <trkpt lat="43.68272" lon="6.7407">
        <ele>593</ele>
        <time>2019-03-20T10:53:20Z</time>
      </trkpt>
      <trkpt lat="43.68264" lon="6.7408">
        <ele>589</ele>
        <time>2019-03-20T10:53:32Z</time>
      </trkpt>
      <trkpt lat="43.68256" lon="6.74085">
        <ele>587</ele>
        <time>2019-03-20T10:54:05Z</time>
      </trkpt>
      <trkpt lat="43.68252" lon="6.74084">
        <ele>587</ele>
        <time>2019-03-20T10:54:36Z</time>
      </trkpt>
      <trkpt lat="43.68249" lon="6.74077">
        <ele>587</ele>
        <time>2019-03-20T10:54:41Z</time>
      </trkpt>
      <trkpt lat="43.68237" lon="6.74057">
        <ele>587</ele>
        <time>2019-03-20T10:54:57Z</time>
      </trkpt>
      <trkpt lat="43.68234" lon="6.74042">
        <ele>587</ele>
        <time>2019-03-20T10:55:08Z</time>
      </trkpt>
      <trkpt lat="43.68222" lon="6.74021">
        <ele>587</ele>
        <time>2019-03-20T10:55:24Z</time>
      </trkpt>
      <trkpt lat="43.68214" lon="6.74005">
        <ele>587</ele>
        <time>2019-03-20T10:55:33Z</time>
      </trkpt>
      <trkpt lat="43.68209" lon="6.73991">
        <ele>586</ele>
        <time>2019-03-20T10:55:41Z</time>
      </trkpt>
      <trkpt lat="43.68208" lon="6.73984">
        <ele>586</ele>
        <time>2019-03-20T10:55:45Z</time>
      </trkpt>
      <trkpt lat="43.68206" lon="6.73974">
        <ele>586</ele>
        <time>2019-03-20T10:55:51Z</time>
      </trkpt>
      <trkpt lat="43.68203" lon="6.73965">
        <ele>586</ele>
        <time>2019-03-20T10:55:56Z</time>
      </trkpt>
      <trkpt lat="43.68204" lon="6.73948">
        <ele>584</ele>
        <time>2019-03-20T10:56:05Z</time>
      </trkpt>
      <trkpt lat="43.682" lon="6.73936">
        <ele>584</ele>
        <time>2019-03-20T10:56:13Z</time>
      </trkpt>
      <trkpt lat="43.68203" lon="6.73924">
        <ele>584</ele>
        <time>2019-03-20T10:56:20Z</time>
      </trkpt>
      <trkpt lat="43.68203" lon="6.73916">
        <ele>584</ele>
        <time>2019-03-20T10:56:24Z</time>
      </trkpt>
      <trkpt lat="43.68206" lon="6.73897">
        <ele>585</ele>
        <time>2019-03-20T10:56:36Z</time>
      </trkpt>
      <trkpt lat="43.68206" lon="6.73856">
        <ele>586</ele>
        <time>2019-03-20T10:57:13Z</time>
      </trkpt>
      <trkpt lat="43.68205" lon="6.73844">
        <ele>586</ele>
        <time>2019-03-20T10:57:20Z</time>
      </trkpt>
      <trkpt lat="43.68204" lon="6.7383">
        <ele>587</ele>
        <time>2019-03-20T10:57:28Z</time>
      </trkpt>
      <trkpt lat="43.68199" lon="6.73811">
        <ele>587</ele>
        <time>2019-03-20T10:57:40Z</time>
      </trkpt>
      <trkpt lat="43.68171" lon="6.73776">
        <ele>588</ele>
        <time>2019-03-20T10:58:11Z</time>
      </trkpt>
      <trkpt lat="43.68162" lon="6.73759">
        <ele>589</ele>
        <time>2019-03-20T10:58:23Z</time>
      </trkpt>
      <trkpt lat="43.68161" lon="6.73752">
        <ele>590</ele>
        <time>2019-03-20T10:58:28Z</time>
      </trkpt>
      <trkpt lat="43.68154" lon="6.7374">
        <ele>591</ele>
        <time>2019-03-20T10:58:37Z</time>
      </trkpt>
      <trkpt lat="43.68147" lon="6.7372">
        <ele>592</ele>
        <time>2019-03-20T10:58:51Z</time>
      </trkpt>
      <trkpt lat="43.68145" lon="6.73714">
        <ele>592</ele>
        <time>2019-03-20T10:58:56Z</time>
      </trkpt>
      <trkpt lat="43.68143" lon="6.73709">
        <ele>592</ele>
        <time>2019-03-20T10:59:00Z</time>
      </trkpt>
      <trkpt lat="43.68139" lon="6.73697">
        <ele>593</ele>
        <time>2019-03-20T10:59:09Z</time>
      </trkpt>
      <trkpt lat="43.68141" lon="6.73684">
        <ele>594</ele>
        <time>2019-03-20T10:59:20Z</time>
      </trkpt>
      <trkpt lat="43.68141" lon="6.73678">
        <ele>594</ele>
        <time>2019-03-20T10:59:24Z</time>
      </trkpt>
      <trkpt lat="43.68143" lon="6.73673">
        <ele>595</ele>
        <time>2019-03-20T10:59:28Z</time>
      </trkpt>
      <trkpt lat="43.68148" lon="6.73641">
        <ele>600</ele>
        <time>2019-03-20T11:00:00Z</time>
      </trkpt>
      <trkpt lat="43.68149" lon="6.73636">
        <ele>600</ele>
        <time>2019-03-20T11:00:05Z</time>
      </trkpt>
      <trkpt lat="43.68149" lon="6.73631">
        <ele>600</ele>
        <time>2019-03-20T11:00:10Z</time>
      </trkpt>
      <trkpt lat="43.68147" lon="6.73624">
        <ele>601</ele>
        <time>2019-03-20T11:00:21Z</time>
      </trkpt>
      <trkpt lat="43.68142" lon="6.73603">
        <ele>604</ele>
        <time>2019-03-20T11:00:36Z</time>
      </trkpt>
      <trkpt lat="43.68134" lon="6.73581">
        <ele>604</ele>
        <time>2019-03-20T11:00:52Z</time>
      </trkpt>
      <trkpt lat="43.68129" lon="6.7356">
        <ele>604</ele>
        <time>2019-03-20T11:01:06Z</time>
      </trkpt>
      <trkpt lat="43.68128" lon="6.73552">
        <ele>605</ele>
        <time>2019-03-20T11:01:12Z</time>
      </trkpt>
      <trkpt lat="43.68121" lon="6.73508">
        <ele>609</ele>
        <time>2019-03-20T11:01:40Z</time>
      </trkpt>
      <trkpt lat="43.68119" lon="6.73501">
        <ele>610</ele>
        <time>2019-03-20T11:01:45Z</time>
      </trkpt>
      <trkpt lat="43.68115" lon="6.73484">
        <ele>611</ele>
        <time>2019-03-20T11:01:59Z</time>
      </trkpt>
      <trkpt lat="43.68104" lon="6.73462">
        <ele>613</ele>
        <time>2019-03-20T11:02:18Z</time>
      </trkpt>
      <trkpt lat="43.68098" lon="6.73453">
        <ele>614</ele>
        <time>2019-03-20T11:02:25Z</time>
      </trkpt>
      <trkpt lat="43.68095" lon="6.73446">
        <ele>614</ele>
        <time>2019-03-20T11:02:29Z</time>
      </trkpt>
      <trkpt lat="43.68082" lon="6.73425">
        <ele>617</ele>
        <time>2019-03-20T11:02:46Z</time>
      </trkpt>
      <trkpt lat="43.68076" lon="6.73411">
        <ele>617</ele>
        <time>2019-03-20T11:02:56Z</time>
      </trkpt>
      <trkpt lat="43.68073" lon="6.73395">
        <ele>619</ele>
        <time>2019-03-20T11:03:09Z</time>
      </trkpt>
      <trkpt lat="43.68075" lon="6.73377">
        <ele>620</ele>
        <time>2019-03-20T11:03:21Z</time>
      </trkpt>
      <trkpt lat="43.68076" lon="6.73372">
        <ele>621</ele>
        <time>2019-03-20T11:03:25Z</time>
      </trkpt>
      <trkpt lat="43.68078" lon="6.73359">
        <ele>622</ele>
        <time>2019-03-20T11:03:33Z</time>
      </trkpt>
      <trkpt lat="43.6808" lon="6.73347">
        <ele>623</ele>
        <time>2019-03-20T11:03:41Z</time>
      </trkpt>
      <trkpt lat="43.68078" lon="6.7334">
        <ele>623</ele>
        <time>2019-03-20T11:03:45Z</time>
      </trkpt>
      <trkpt lat="43.6808" lon="6.733">
        <ele>626</ele>
        <time>2019-03-20T11:04:13Z</time>
      </trkpt>
      <trkpt lat="43.6809" lon="6.73275">
        <ele>627</ele>
        <time>2019-03-20T11:04:37Z</time>
      </trkpt>
      <trkpt lat="43.68091" lon="6.73269">
        <ele>628</ele>
        <time>2019-03-20T11:04:41Z</time>
      </trkpt>
      <trkpt lat="43.68092" lon="6.73263">
        <ele>628</ele>
        <time>2019-03-20T11:04:45Z</time>
      </trkpt>
      <trkpt lat="43.68092" lon="6.73253">
        <ele>630</ele>
        <time>2019-03-20T11:04:53Z</time>
      </trkpt>
      <trkpt lat="43.68105" lon="6.73212">
        <ele>633</ele>
        <time>2019-03-20T11:05:23Z</time>
      </trkpt>
      <trkpt lat="43.6811" lon="6.73203">
        <ele>633</ele>
        <time>2019-03-20T11:05:32Z</time>
      </trkpt>
      <trkpt lat="43.68113" lon="6.73199">
        <ele>634</ele>
        <time>2019-03-20T11:05:36Z</time>
      </trkpt>
      <trkpt lat="43.68135" lon="6.73176">
        <ele>638</ele>
        <time>2019-03-20T11:06:04Z</time>
      </trkpt>
      <trkpt lat="43.68138" lon="6.73171">
        <ele>638</ele>
        <time>2019-03-20T11:06:08Z</time>
      </trkpt>
      <trkpt lat="43.68139" lon="6.73166">
        <ele>639</ele>
        <time>2019-03-20T11:06:12Z</time>
      </trkpt>
      <trkpt lat="43.68137" lon="6.73153">
        <ele>639</ele>
        <time>2019-03-20T11:06:20Z</time>
      </trkpt>
      <trkpt lat="43.68134" lon="6.73148">
        <ele>639</ele>
        <time>2019-03-20T11:06:25Z</time>
      </trkpt>
      <trkpt lat="43.68134" lon="6.73145">
        <ele>639</ele>
        <time>2019-03-20T11:08:00Z</time>
      </trkpt>
      <trkpt lat="43.68131" lon="6.73134">
        <ele>640</ele>
        <time>2019-03-20T11:08:21Z</time>
      </trkpt>
      <trkpt lat="43.68127" lon="6.73118">
        <ele>641</ele>
        <time>2019-03-20T11:08:39Z</time>
      </trkpt>
      <trkpt lat="43.68126" lon="6.73112">
        <ele>640</ele>
        <time>2019-03-20T11:08:43Z</time>
      </trkpt>
      <trkpt lat="43.68124" lon="6.73107">
        <ele>640</ele>
        <time>2019-03-20T11:08:46Z</time>
      </trkpt>
      <trkpt lat="43.6812" lon="6.73092">
        <ele>638</ele>
        <time>2019-03-20T11:08:56Z</time>
      </trkpt>
      <trkpt lat="43.68117" lon="6.73088">
        <ele>639</ele>
        <time>2019-03-20T11:08:59Z</time>
      </trkpt>
      <trkpt lat="43.68106" lon="6.73052">
        <ele>639</ele>
        <time>2019-03-20T11:09:22Z</time>
      </trkpt>
      <trkpt lat="43.68102" lon="6.7304">
        <ele>640</ele>
        <time>2019-03-20T11:09:31Z</time>
      </trkpt>
      <trkpt lat="43.68084" lon="6.72991">
        <ele>639</ele>
        <time>2019-03-20T11:10:01Z</time>
      </trkpt>
      <trkpt lat="43.68083" lon="6.72985">
        <ele>639</ele>
        <time>2019-03-20T11:10:05Z</time>
      </trkpt>
      <trkpt lat="43.6808" lon="6.72963">
        <ele>638</ele>
        <time>2019-03-20T11:10:18Z</time>
      </trkpt>
      <trkpt lat="43.68077" lon="6.72954">
        <ele>638</ele>
        <time>2019-03-20T11:10:24Z</time>
      </trkpt>
      <trkpt lat="43.68074" lon="6.72897">
        <ele>639</ele>
        <time>2019-03-20T11:10:55Z</time>
      </trkpt>
      <trkpt lat="43.68076" lon="6.72875">
        <ele>639</ele>
        <time>2019-03-20T11:11:08Z</time>
      </trkpt>
      <trkpt lat="43.68078" lon="6.7287">
        <ele>639</ele>
        <time>2019-03-20T11:11:11Z</time>
      </trkpt>
      <trkpt lat="43.68078" lon="6.72864">
        <ele>640</ele>
        <time>2019-03-20T11:11:15Z</time>
      </trkpt>
      <trkpt lat="43.68083" lon="6.72835">
        <ele>640</ele>
        <time>2019-03-20T11:11:32Z</time>
      </trkpt>
      <trkpt lat="43.68083" lon="6.72824">
        <ele>640</ele>
        <time>2019-03-20T11:11:39Z</time>
      </trkpt>
      <trkpt lat="43.68086" lon="6.72813">
        <ele>640</ele>
        <time>2019-03-20T11:11:46Z</time>
      </trkpt>
      <trkpt lat="43.68086" lon="6.72795">
        <ele>640</ele>
        <time>2019-03-20T11:11:57Z</time>
      </trkpt>
      <trkpt lat="43.68087" lon="6.7279">
        <ele>640</ele>
        <time>2019-03-20T11:12:00Z</time>
      </trkpt>
      <trkpt lat="43.68088" lon="6.72785">
        <ele>640</ele>
        <time>2019-03-20T11:12:03Z</time>
      </trkpt>
      <trkpt lat="43.6809" lon="6.72779">
        <ele>641</ele>
        <time>2019-03-20T11:12:07Z</time>
      </trkpt>
      <trkpt lat="43.68092" lon="6.72754">
        <ele>641</ele>
        <time>2019-03-20T11:12:26Z</time>
      </trkpt>
      <trkpt lat="43.68094" lon="6.72748">
        <ele>641</ele>
        <time>2019-03-20T11:12:30Z</time>
      </trkpt>
      <trkpt lat="43.68096" lon="6.72741">
        <ele>640</ele>
        <time>2019-03-20T11:12:34Z</time>
      </trkpt>
      <trkpt lat="43.68097" lon="6.72735">
        <ele>641</ele>
        <time>2019-03-20T11:12:38Z</time>
      </trkpt>
      <trkpt lat="43.68099" lon="6.72722">
        <ele>640</ele>
        <time>2019-03-20T11:12:46Z</time>
      </trkpt>
      <trkpt lat="43.68107" lon="6.72702">
        <ele>642</ele>
        <time>2019-03-20T11:13:03Z</time>
      </trkpt>
      <trkpt lat="43.68108" lon="6.72696">
        <ele>642</ele>
        <time>2019-03-20T11:13:07Z</time>
      </trkpt>
      <trkpt lat="43.68107" lon="6.7269">
        <ele>642</ele>
        <time>2019-03-20T11:13:11Z</time>
      </trkpt>
      <trkpt lat="43.68106" lon="6.72685">
        <ele>642</ele>
        <time>2019-03-20T11:13:14Z</time>
      </trkpt>
      <trkpt lat="43.68104" lon="6.7268">
        <ele>641</ele>
        <time>2019-03-20T11:13:18Z</time>
      </trkpt>
      <trkpt lat="43.68105" lon="6.72674">
        <ele>641</ele>
        <time>2019-03-20T11:13:22Z</time>
      </trkpt>
      <trkpt lat="43.68107" lon="6.72667">
        <ele>640</ele>
        <time>2019-03-20T11:13:27Z</time>
      </trkpt>
      <trkpt lat="43.68112" lon="6.72657">
        <ele>641</ele>
        <time>2019-03-20T11:13:37Z</time>
      </trkpt>
      <trkpt lat="43.68117" lon="6.72649">
        <ele>641</ele>
        <time>2019-03-20T11:13:44Z</time>
      </trkpt>
      <trkpt lat="43.68124" lon="6.72628">
        <ele>642</ele>
        <time>2019-03-20T11:13:58Z</time>
      </trkpt>
      <trkpt lat="43.68127" lon="6.72623">
        <ele>641</ele>
        <time>2019-03-20T11:14:02Z</time>
      </trkpt>
      <trkpt lat="43.68132" lon="6.72614">
        <ele>642</ele>
        <time>2019-03-20T11:14:09Z</time>
      </trkpt>
      <trkpt lat="43.68141" lon="6.726">
        <ele>642</ele>
        <time>2019-03-20T11:14:23Z</time>
      </trkpt>
      <trkpt lat="43.68148" lon="6.72586">
        <ele>642</ele>
        <time>2019-03-20T11:14:33Z</time>
      </trkpt>
      <trkpt lat="43.68151" lon="6.7258">
        <ele>642</ele>
        <time>2019-03-20T11:14:38Z</time>
      </trkpt>
      <trkpt lat="43.68155" lon="6.72576">
        <ele>641</ele>
        <time>2019-03-20T11:14:42Z</time>
      </trkpt>
      <trkpt lat="43.68163" lon="6.72565">
        <ele>642</ele>
        <time>2019-03-20T11:14:52Z</time>
      </trkpt>
      <trkpt lat="43.68169" lon="6.72559">
        <ele>642</ele>
        <time>2019-03-20T11:15:01Z</time>
      </trkpt>
      <trkpt lat="43.68172" lon="6.7255">
        <ele>642</ele>
        <time>2019-03-20T11:15:09Z</time>
      </trkpt>
      <trkpt lat="43.68178" lon="6.72553">
        <ele>639</ele>
        <time>2019-03-20T11:15:31Z</time>
      </trkpt>
      <trkpt lat="43.68198" lon="6.72522">
        <ele>641</ele>
        <time>2019-03-20T11:16:05Z</time>
      </trkpt>
      <trkpt lat="43.68223" lon="6.72481">
        <ele>641</ele>
        <time>2019-03-20T11:16:38Z</time>
      </trkpt>
      <trkpt lat="43.68227" lon="6.72476">
        <ele>641</ele>
        <time>2019-03-20T11:16:43Z</time>
      </trkpt>
      <trkpt lat="43.68233" lon="6.72471">
        <ele>642</ele>
        <time>2019-03-20T11:16:49Z</time>
      </trkpt>
      <trkpt lat="43.68237" lon="6.72463">
        <ele>642</ele>
        <time>2019-03-20T11:16:59Z</time>
      </trkpt>
      <trkpt lat="43.68242" lon="6.72456">
        <ele>643</ele>
        <time>2019-03-20T11:17:06Z</time>
      </trkpt>
      <trkpt lat="43.68249" lon="6.72448">
        <ele>644</ele>
        <time>2019-03-20T11:17:20Z</time>
      </trkpt>
      <trkpt lat="43.68261" lon="6.72429">
        <ele>645</ele>
        <time>2019-03-20T11:17:37Z</time>
      </trkpt>
      <trkpt lat="43.68273" lon="6.72406">
        <ele>647</ele>
        <time>2019-03-20T11:17:55Z</time>
      </trkpt>
      <trkpt lat="43.68278" lon="6.72393">
        <ele>647</ele>
        <time>2019-03-20T11:18:04Z</time>
      </trkpt>
      <trkpt lat="43.68279" lon="6.72387">
        <ele>647</ele>
        <time>2019-03-20T11:18:08Z</time>
      </trkpt>
      <trkpt lat="43.68283" lon="6.72379">
        <ele>648</ele>
        <time>2019-03-20T11:18:18Z</time>
      </trkpt>
      <trkpt lat="43.68286" lon="6.72371">
        <ele>648</ele>
        <time>2019-03-20T11:18:24Z</time>
      </trkpt>
      <trkpt lat="43.68292" lon="6.72365">
        <ele>647</ele>
        <time>2019-03-20T11:18:31Z</time>
      </trkpt>
      <trkpt lat="43.68297" lon="6.72356">
        <ele>646</ele>
        <time>2019-03-20T11:18:37Z</time>
      </trkpt>
      <trkpt lat="43.68327" lon="6.72319">
        <ele>645</ele>
        <time>2019-03-20T11:19:13Z</time>
      </trkpt>
      <trkpt lat="43.68354" lon="6.723">
        <ele>645</ele>
        <time>2019-03-20T11:19:37Z</time>
      </trkpt>
      <trkpt lat="43.6836" lon="6.72294">
        <ele>646</ele>
        <time>2019-03-20T11:19:43Z</time>
      </trkpt>
      <trkpt lat="43.68372" lon="6.72284">
        <ele>646</ele>
        <time>2019-03-20T11:19:54Z</time>
      </trkpt>
      <trkpt lat="43.68385" lon="6.72274">
        <ele>647</ele>
        <time>2019-03-20T11:20:08Z</time>
      </trkpt>
      <trkpt lat="43.68402" lon="6.72255">
        <ele>644</ele>
        <time>2019-03-20T11:20:28Z</time>
      </trkpt>
      <trkpt lat="43.68424" lon="6.72238">
        <ele>644</ele>
        <time>2019-03-20T11:20:47Z</time>
      </trkpt>
      <trkpt lat="43.68435" lon="6.72226">
        <ele>645</ele>
        <time>2019-03-20T11:21:01Z</time>
      </trkpt>
      <trkpt lat="43.68442" lon="6.72223">
        <ele>646</ele>
        <time>2019-03-20T11:21:07Z</time>
      </trkpt>
      <trkpt lat="43.68462" lon="6.7221">
        <ele>646</ele>
        <time>2019-03-20T11:21:29Z</time>
      </trkpt>
      <trkpt lat="43.68475" lon="6.72201">
        <ele>646</ele>
        <time>2019-03-20T11:21:42Z</time>
      </trkpt>
      <trkpt lat="43.68481" lon="6.72195">
        <ele>646</ele>
        <time>2019-03-20T11:21:50Z</time>
      </trkpt>
      <trkpt lat="43.68497" lon="6.72195">
        <ele>646</ele>
        <time>2019-03-20T11:22:06Z</time>
      </trkpt>
      <trkpt lat="43.68504" lon="6.72198">
        <ele>646</ele>
        <time>2019-03-20T11:22:12Z</time>
      </trkpt>
      <trkpt lat="43.6853" lon="6.72206">
        <ele>643</ele>
        <time>2019-03-20T11:22:44Z</time>
      </trkpt>
      <trkpt lat="43.68539" lon="6.72205">
        <ele>644</ele>
        <time>2019-03-20T11:22:54Z</time>
      </trkpt>
      <trkpt lat="43.68547" lon="6.72206">
        <ele>644</ele>
        <time>2019-03-20T11:23:02Z</time>
      </trkpt>
      <trkpt lat="43.68554" lon="6.72205">
        <ele>644</ele>
        <time>2019-03-20T11:23:10Z</time>
      </trkpt>
      <trkpt lat="43.68562" lon="6.72205">
        <ele>644</ele>
        <time>2019-03-20T11:23:18Z</time>
      </trkpt>
      <trkpt lat="43.6857" lon="6.72207">
        <ele>642</ele>
        <time>2019-03-20T11:23:26Z</time>
      </trkpt>
      <trkpt lat="43.68577" lon="6.72214">
        <ele>642</ele>
        <time>2019-03-20T11:23:34Z</time>
      </trkpt>
      <trkpt lat="43.68583" lon="6.7222">
        <ele>642</ele>
        <time>2019-03-20T11:23:40Z</time>
      </trkpt>
      <trkpt lat="43.68591" lon="6.72224">
        <ele>643</ele>
        <time>2019-03-20T11:23:48Z</time>
      </trkpt>
      <trkpt lat="43.68606" lon="6.72221">
        <ele>645</ele>
        <time>2019-03-20T11:24:10Z</time>
      </trkpt>
      <trkpt lat="43.68622" lon="6.72224">
        <ele>643</ele>
        <time>2019-03-20T11:24:27Z</time>
      </trkpt>
      <trkpt lat="43.68644" lon="6.72243">
        <ele>641</ele>
        <time>2019-03-20T11:24:51Z</time>
      </trkpt>
      <trkpt lat="43.68652" lon="6.72245">
        <ele>642</ele>
        <time>2019-03-20T11:25:04Z</time>
      </trkpt>
      <trkpt lat="43.6866" lon="6.7224">
        <ele>643</ele>
        <time>2019-03-20T11:25:18Z</time>
      </trkpt>
      <trkpt lat="43.68667" lon="6.72233">
        <ele>645</ele>
        <time>2019-03-20T11:25:29Z</time>
      </trkpt>
      <trkpt lat="43.68669" lon="6.72222">
        <ele>646</ele>
        <time>2019-03-20T11:25:45Z</time>
      </trkpt>
      <trkpt lat="43.68672" lon="6.72213">
        <ele>646</ele>
        <time>2019-03-20T11:26:03Z</time>
      </trkpt>
      <trkpt lat="43.68664" lon="6.7218">
        <ele>649</ele>
        <time>2019-03-20T11:26:35Z</time>
      </trkpt>
      <trkpt lat="43.68661" lon="6.7217">
        <ele>650</ele>
        <time>2019-03-20T11:26:50Z</time>
      </trkpt>
      <trkpt lat="43.68662" lon="6.7216">
        <ele>651</ele>
        <time>2019-03-20T11:27:00Z</time>
      </trkpt>
      <trkpt lat="43.68662" lon="6.72147">
        <ele>653</ele>
        <time>2019-03-20T11:27:12Z</time>
      </trkpt>
      <trkpt lat="43.68658" lon="6.72135">
        <ele>654</ele>
        <time>2019-03-20T11:27:36Z</time>
      </trkpt>
      <trkpt lat="43.68653" lon="6.72112">
        <ele>657</ele>
        <time>2019-03-20T11:28:06Z</time>
      </trkpt>
      <trkpt lat="43.68648" lon="6.72091">
        <ele>657</ele>
        <time>2019-03-20T11:28:28Z</time>
      </trkpt>
      <trkpt lat="43.68645" lon="6.72078">
        <ele>658</ele>
        <time>2019-03-20T11:28:41Z</time>
      </trkpt>
      <trkpt lat="43.68642" lon="6.72066">
        <ele>660</ele>
        <time>2019-03-20T11:28:54Z</time>
      </trkpt>
      <trkpt lat="43.68642" lon="6.72055">
        <ele>662</ele>
        <time>2019-03-20T11:29:06Z</time>
      </trkpt>
      <trkpt lat="43.6864" lon="6.72048">
        <ele>663</ele>
        <time>2019-03-20T11:29:13Z</time>
      </trkpt>
      <trkpt lat="43.68642" lon="6.7204">
        <ele>665</ele>
        <time>2019-03-20T11:29:40Z</time>
      </trkpt>
      <trkpt lat="43.68641" lon="6.72031">
        <ele>668</ele>
        <time>2019-03-20T11:29:46Z</time>
      </trkpt>
      <trkpt lat="43.6864" lon="6.7202">
        <ele>668</ele>
        <time>2019-03-20T11:29:56Z</time>
      </trkpt>
      <trkpt lat="43.68642" lon="6.72009">
        <ele>668</ele>
        <time>2019-03-20T11:30:05Z</time>
      </trkpt>
      <trkpt lat="43.68644" lon="6.71998">
        <ele>669</ele>
        <time>2019-03-20T11:30:19Z</time>
      </trkpt>
      <trkpt lat="43.68648" lon="6.71984">
        <ele>673</ele>
        <time>2019-03-20T11:30:33Z</time>
      </trkpt>
      <trkpt lat="43.68652" lon="6.71973">
        <ele>673</ele>
        <time>2019-03-20T11:30:44Z</time>
      </trkpt>
      <trkpt lat="43.6865" lon="6.71962">
        <ele>673</ele>
        <time>2019-03-20T11:30:53Z</time>
      </trkpt>
      <trkpt lat="43.68651" lon="6.71951">
        <ele>674</ele>
        <time>2019-03-20T11:31:04Z</time>
      </trkpt>
      <trkpt lat="43.68653" lon="6.71943">
        <ele>676</ele>
        <time>2019-03-20T11:31:13Z</time>
      </trkpt>
      <trkpt lat="43.68654" lon="6.71937">
        <ele>678</ele>
        <time>2019-03-20T11:34:26Z</time>
      </trkpt>
      <trkpt lat="43.68657" lon="6.71923">
        <ele>677</ele>
        <time>2019-03-20T11:34:47Z</time>
      </trkpt>
      <trkpt lat="43.68662" lon="6.7191">
        <ele>677</ele>
        <time>2019-03-20T11:35:05Z</time>
      </trkpt>
      <trkpt lat="43.68658" lon="6.71906">
        <ele>676</ele>
        <time>2019-03-20T11:35:15Z</time>
      </trkpt>
      <trkpt lat="43.68651" lon="6.71908">
        <ele>676</ele>
        <time>2019-03-20T11:35:24Z</time>
      </trkpt>
      <trkpt lat="43.68639" lon="6.71912">
        <ele>675</ele>
        <time>2019-03-20T11:35:39Z</time>
      </trkpt>
      <trkpt lat="43.68633" lon="6.71914">
        <ele>674</ele>
        <time>2019-03-20T11:35:48Z</time>
      </trkpt>
      <trkpt lat="43.68627" lon="6.71918">
        <ele>673</ele>
        <time>2019-03-20T11:35:58Z</time>
      </trkpt>
      <trkpt lat="43.68621" lon="6.71923">
        <ele>671</ele>
        <time>2019-03-20T11:36:06Z</time>
      </trkpt>
      <trkpt lat="43.68615" lon="6.71925">
        <ele>669</ele>
        <time>2019-03-20T11:36:17Z</time>
      </trkpt>
      <trkpt lat="43.68608" lon="6.71928">
        <ele>668</ele>
        <time>2019-03-20T11:36:27Z</time>
      </trkpt>
      <trkpt lat="43.68596" lon="6.71927">
        <ele>668</ele>
        <time>2019-03-20T11:36:44Z</time>
      </trkpt>
      <trkpt lat="43.68583" lon="6.71926">
        <ele>666</ele>
        <time>2019-03-20T11:37:03Z</time>
      </trkpt>
      <trkpt lat="43.68569" lon="6.7193">
        <ele>664</ele>
        <time>2019-03-20T11:37:20Z</time>
      </trkpt>
      <trkpt lat="43.68563" lon="6.71928">
        <ele>664</ele>
        <time>2019-03-20T11:37:27Z</time>
      </trkpt>
      <trkpt lat="43.68556" lon="6.71927">
        <ele>664</ele>
        <time>2019-03-20T11:37:36Z</time>
      </trkpt>
      <trkpt lat="43.6855" lon="6.71923">
        <ele>663</ele>
        <time>2019-03-20T11:37:43Z</time>
      </trkpt>
      <trkpt lat="43.68518" lon="6.71917">
        <ele>658</ele>
        <time>2019-03-20T11:38:16Z</time>
      </trkpt>
      <trkpt lat="43.68513" lon="6.71915">
        <ele>658</ele>
        <time>2019-03-20T11:38:23Z</time>
      </trkpt>
      <trkpt lat="43.68507" lon="6.71914">
        <ele>658</ele>
        <time>2019-03-20T11:38:29Z</time>
      </trkpt>
      <trkpt lat="43.68503" lon="6.71912">
        <ele>657</ele>
        <time>2019-03-20T11:38:34Z</time>
      </trkpt>
      <trkpt lat="43.68496" lon="6.71911">
        <ele>656</ele>
        <time>2019-03-20T11:38:42Z</time>
      </trkpt>
      <trkpt lat="43.68488" lon="6.71908">
        <ele>655</ele>
        <time>2019-03-20T11:38:49Z</time>
      </trkpt>
      <trkpt lat="43.6846" lon="6.71901">
        <ele>654</ele>
        <time>2019-03-20T11:39:21Z</time>
      </trkpt>
      <trkpt lat="43.68453" lon="6.71901">
        <ele>654</ele>
        <time>2019-03-20T11:39:27Z</time>
      </trkpt>
      <trkpt lat="43.68446" lon="6.71899">
        <ele>654</ele>
        <time>2019-03-20T11:39:33Z</time>
      </trkpt>
      <trkpt lat="43.68439" lon="6.71898">
        <ele>653</ele>
        <time>2019-03-20T11:39:40Z</time>
      </trkpt>
      <trkpt lat="43.68422" lon="6.71895">
        <ele>651</ele>
        <time>2019-03-20T11:39:58Z</time>
      </trkpt>
      <trkpt lat="43.68407" lon="6.71899">
        <ele>648</ele>
        <time>2019-03-20T11:40:13Z</time>
      </trkpt>
      <trkpt lat="43.68396" lon="6.71903">
        <ele>644</ele>
        <time>2019-03-20T11:40:25Z</time>
      </trkpt>
      <trkpt lat="43.68373" lon="6.71914">
        <ele>640</ele>
        <time>2019-03-20T11:40:54Z</time>
      </trkpt>
      <trkpt lat="43.68361" lon="6.71918">
        <ele>639</ele>
        <time>2019-03-20T11:41:06Z</time>
      </trkpt>
      <trkpt lat="43.68355" lon="6.71918">
        <ele>638</ele>
        <time>2019-03-20T11:41:15Z</time>
      </trkpt>
      <trkpt lat="43.6835" lon="6.71921">
        <ele>636</ele>
        <time>2019-03-20T11:41:26Z</time>
      </trkpt>
      <trkpt lat="43.68351" lon="6.71928">
        <ele>634</ele>
        <time>2019-03-20T11:41:32Z</time>
      </trkpt>
      <trkpt lat="43.68367" lon="6.71935">
        <ele>633</ele>
        <time>2019-03-20T11:41:53Z</time>
      </trkpt>
      <trkpt lat="43.68387" lon="6.71943">
        <ele>630</ele>
        <time>2019-03-20T11:42:16Z</time>
      </trkpt>
      <trkpt lat="43.68391" lon="6.71948">
        <ele>630</ele>
        <time>2019-03-20T11:42:21Z</time>
      </trkpt>
      <trkpt lat="43.68393" lon="6.71954">
        <ele>630</ele>
        <time>2019-03-20T11:42:27Z</time>
      </trkpt>
      <trkpt lat="43.68388" lon="6.71957">
        <ele>629</ele>
        <time>2019-03-20T11:42:34Z</time>
      </trkpt>
      <trkpt lat="43.68383" lon="6.71958">
        <ele>628</ele>
        <time>2019-03-20T11:42:41Z</time>
      </trkpt>
      <trkpt lat="43.68377" lon="6.71958">
        <ele>627</ele>
        <time>2019-03-20T11:42:47Z</time>
      </trkpt>
      <trkpt lat="43.68371" lon="6.71961">
        <ele>626</ele>
        <time>2019-03-20T11:42:53Z</time>
      </trkpt>
      <trkpt lat="43.68366" lon="6.71962">
        <ele>625</ele>
        <time>2019-03-20T11:42:59Z</time>
      </trkpt>
      <trkpt lat="43.6836" lon="6.71963">
        <ele>625</ele>
        <time>2019-03-20T11:43:04Z</time>
      </trkpt>
      <trkpt lat="43.68344" lon="6.71962">
        <ele>623</ele>
        <time>2019-03-20T11:43:20Z</time>
      </trkpt>
      <trkpt lat="43.68333" lon="6.71965">
        <ele>623</ele>
        <time>2019-03-20T11:43:30Z</time>
      </trkpt>
      <trkpt lat="43.68298" lon="6.71965">
        <ele>621</ele>
        <time>2019-03-20T11:44:04Z</time>
      </trkpt>
      <trkpt lat="43.68291" lon="6.71965">
        <ele>620</ele>
        <time>2019-03-20T11:44:11Z</time>
      </trkpt>
      <trkpt lat="43.68283" lon="6.71965">
        <ele>618</ele>
        <time>2019-03-20T11:44:17Z</time>
      </trkpt>
      <trkpt lat="43.68267" lon="6.71963">
        <ele>615</ele>
        <time>2019-03-20T11:44:32Z</time>
      </trkpt>
      <trkpt lat="43.68256" lon="6.71966">
        <ele>614</ele>
        <time>2019-03-20T11:44:43Z</time>
      </trkpt>
      <trkpt lat="43.68251" lon="6.71966">
        <ele>613</ele>
        <time>2019-03-20T11:44:48Z</time>
      </trkpt>
      <trkpt lat="43.68232" lon="6.7197">
        <ele>609</ele>
        <time>2019-03-20T11:45:07Z</time>
      </trkpt>
      <trkpt lat="43.68226" lon="6.7197">
        <ele>607</ele>
        <time>2019-03-20T11:45:12Z</time>
      </trkpt>
      <trkpt lat="43.68214" lon="6.71973">
        <ele>606</ele>
        <time>2019-03-20T11:45:23Z</time>
      </trkpt>
      <trkpt lat="43.68209" lon="6.71972">
        <ele>606</ele>
        <time>2019-03-20T11:45:27Z</time>
      </trkpt>
      <trkpt lat="43.68202" lon="6.71969">
        <ele>607</ele>
        <time>2019-03-20T11:45:33Z</time>
      </trkpt>
      <trkpt lat="43.68175" lon="6.71964">
        <ele>603</ele>
        <time>2019-03-20T11:45:57Z</time>
      </trkpt>
      <trkpt lat="43.68169" lon="6.71966">
        <ele>602</ele>
        <time>2019-03-20T11:46:02Z</time>
      </trkpt>
      <trkpt lat="43.68163" lon="6.71965">
        <ele>601</ele>
        <time>2019-03-20T11:46:06Z</time>
      </trkpt>
      <trkpt lat="43.68158" lon="6.71964">
        <ele>600</ele>
        <time>2019-03-20T11:46:11Z</time>
      </trkpt>
      <trkpt lat="43.68139" lon="6.71961">
        <ele>598</ele>
        <time>2019-03-20T11:46:31Z</time>
      </trkpt>
      <trkpt lat="43.68133" lon="6.71957">
        <ele>597</ele>
        <time>2019-03-20T11:46:37Z</time>
      </trkpt>
      <trkpt lat="43.68127" lon="6.71956">
        <ele>596</ele>
        <time>2019-03-20T11:46:43Z</time>
      </trkpt>
      <trkpt lat="43.68102" lon="6.71966">
        <ele>588</ele>
        <time>2019-03-20T11:47:10Z</time>
      </trkpt>
      <trkpt lat="43.68096" lon="6.71971">
        <ele>588</ele>
        <time>2019-03-20T11:47:16Z</time>
      </trkpt>
      <trkpt lat="43.68085" lon="6.71973">
        <ele>586</ele>
        <time>2019-03-20T11:47:29Z</time>
      </trkpt>
      <trkpt lat="43.68084" lon="6.71965">
        <ele>585</ele>
        <time>2019-03-20T11:47:39Z</time>
      </trkpt>
      <trkpt lat="43.68081" lon="6.71959">
        <ele>584</ele>
        <time>2019-03-20T11:47:44Z</time>
      </trkpt>
      <trkpt lat="43.68076" lon="6.71953">
        <ele>584</ele>
        <time>2019-03-20T11:47:50Z</time>
      </trkpt>
      <trkpt lat="43.68071" lon="6.71948">
        <ele>584</ele>
        <time>2019-03-20T11:48:01Z</time>
      </trkpt>
      <trkpt lat="43.68066" lon="6.71941">
        <ele>584</ele>
        <time>2019-03-20T11:48:07Z</time>
      </trkpt>
      <trkpt lat="43.68066" lon="6.71935">
        <ele>584</ele>
        <time>2019-03-20T11:48:21Z</time>
      </trkpt>
      <trkpt lat="43.68063" lon="6.71936">
        <ele>583</ele>
        <time>2019-03-20T11:51:14Z</time>
      </trkpt>
      <trkpt lat="43.68064" lon="6.71939">
        <ele>584</ele>
        <time>2019-03-20T11:52:07Z</time>
      </trkpt>
      <trkpt lat="43.68068" lon="6.71942">
        <ele>582</ele>
        <time>2019-03-20T11:52:56Z</time>
      </trkpt>
      <trkpt lat="43.68068" lon="6.71935">
        <ele>582</ele>
        <time>2019-03-20T11:53:23Z</time>
      </trkpt>
      <trkpt lat="43.68065" lon="6.71932">
        <ele>584</ele>
        <time>2019-03-20T11:55:51Z</time>
      </trkpt>
      <trkpt lat="43.68063" lon="6.71936">
        <ele>584</ele>
        <time>2019-03-20T12:35:34Z</time>
      </trkpt>
      <trkpt lat="43.68061" lon="6.71943">
        <ele>578</ele>
        <time>2019-03-20T12:36:16Z</time>
      </trkpt>
      <trkpt lat="43.68066" lon="6.7195">
        <ele>580</ele>
        <time>2019-03-20T12:36:28Z</time>
      </trkpt>
      <trkpt lat="43.6807" lon="6.71957">
        <ele>581</ele>
        <time>2019-03-20T12:36:38Z</time>
      </trkpt>
      <trkpt lat="43.68075" lon="6.71967">
        <ele>583</ele>
        <time>2019-03-20T12:36:55Z</time>
      </trkpt>
      <trkpt lat="43.68069" lon="6.71973">
        <ele>582</ele>
        <time>2019-03-20T12:37:06Z</time>
      </trkpt>
      <trkpt lat="43.68063" lon="6.71973">
        <ele>578</ele>
        <time>2019-03-20T12:37:23Z</time>
      </trkpt>
      <trkpt lat="43.68052" lon="6.71985">
        <ele>576</ele>
        <time>2019-03-20T12:37:45Z</time>
      </trkpt>
      <trkpt lat="43.68045" lon="6.71986">
        <ele>577</ele>
        <time>2019-03-20T12:37:51Z</time>
      </trkpt>
      <trkpt lat="43.68033" lon="6.71994">
        <ele>577</ele>
        <time>2019-03-20T12:38:04Z</time>
      </trkpt>
      <trkpt lat="43.68026" lon="6.71999">
        <ele>578</ele>
        <time>2019-03-20T12:38:11Z</time>
      </trkpt>
      <trkpt lat="43.68009" lon="6.72028">
        <ele>581</ele>
        <time>2019-03-20T12:38:44Z</time>
      </trkpt>
      <trkpt lat="43.67985" lon="6.72048">
        <ele>585</ele>
        <time>2019-03-20T12:39:14Z</time>
      </trkpt>
      <trkpt lat="43.67973" lon="6.72051">
        <ele>587</ele>
        <time>2019-03-20T12:39:34Z</time>
      </trkpt>
      <trkpt lat="43.67964" lon="6.72054">
        <ele>590</ele>
        <time>2019-03-20T12:39:44Z</time>
      </trkpt>
      <trkpt lat="43.67957" lon="6.72057">
        <ele>591</ele>
        <time>2019-03-20T12:39:53Z</time>
      </trkpt>
      <trkpt lat="43.6795" lon="6.72058">
        <ele>592</ele>
        <time>2019-03-20T12:40:03Z</time>
      </trkpt>
      <trkpt lat="43.67942" lon="6.72058">
        <ele>592</ele>
        <time>2019-03-20T12:40:11Z</time>
      </trkpt>
      <trkpt lat="43.67935" lon="6.72057">
        <ele>591</ele>
        <time>2019-03-20T12:40:20Z</time>
      </trkpt>
      <trkpt lat="43.67928" lon="6.72059">
        <ele>592</ele>
        <time>2019-03-20T12:40:30Z</time>
      </trkpt>
      <trkpt lat="43.67914" lon="6.72062">
        <ele>593</ele>
        <time>2019-03-20T12:40:48Z</time>
      </trkpt>
      <trkpt lat="43.67905" lon="6.7206">
        <ele>594</ele>
        <time>2019-03-20T12:40:58Z</time>
      </trkpt>
      <trkpt lat="43.67898" lon="6.72063">
        <ele>595</ele>
        <time>2019-03-20T12:41:09Z</time>
      </trkpt>
      <trkpt lat="43.67891" lon="6.72064">
        <ele>596</ele>
        <time>2019-03-20T12:41:21Z</time>
      </trkpt>
      <trkpt lat="43.67875" lon="6.7206">
        <ele>595</ele>
        <time>2019-03-20T12:41:39Z</time>
      </trkpt>
      <trkpt lat="43.67855" lon="6.72059">
        <ele>598</ele>
        <time>2019-03-20T12:42:09Z</time>
      </trkpt>
      <trkpt lat="43.67848" lon="6.72059">
        <ele>598</ele>
        <time>2019-03-20T12:42:15Z</time>
      </trkpt>
      <trkpt lat="43.6784" lon="6.72061">
        <ele>598</ele>
        <time>2019-03-20T12:42:23Z</time>
      </trkpt>
      <trkpt lat="43.67805" lon="6.72066">
        <ele>597</ele>
        <time>2019-03-20T12:42:53Z</time>
      </trkpt>
      <trkpt lat="43.67792" lon="6.72073">
        <ele>599</ele>
        <time>2019-03-20T12:43:06Z</time>
      </trkpt>
      <trkpt lat="43.67785" lon="6.72079">
        <ele>600</ele>
        <time>2019-03-20T12:43:16Z</time>
      </trkpt>
      <trkpt lat="43.67774" lon="6.72089">
        <ele>599</ele>
        <time>2019-03-20T12:43:39Z</time>
      </trkpt>
      <trkpt lat="43.67749" lon="6.7211">
        <ele>600</ele>
        <time>2019-03-20T12:44:04Z</time>
      </trkpt>
      <trkpt lat="43.67735" lon="6.7212">
        <ele>601</ele>
        <time>2019-03-20T12:44:21Z</time>
      </trkpt>
      <trkpt lat="43.6773" lon="6.72127">
        <ele>599</ele>
        <time>2019-03-20T12:44:28Z</time>
      </trkpt>
      <trkpt lat="43.67716" lon="6.72146">
        <ele>598</ele>
        <time>2019-03-20T12:44:51Z</time>
      </trkpt>
      <trkpt lat="43.67698" lon="6.72162">
        <ele>597</ele>
        <time>2019-03-20T12:45:12Z</time>
      </trkpt>
      <trkpt lat="43.67693" lon="6.7217">
        <ele>597</ele>
        <time>2019-03-20T12:45:22Z</time>
      </trkpt>
      <trkpt lat="43.67689" lon="6.72177">
        <ele>595</ele>
        <time>2019-03-20T12:45:30Z</time>
      </trkpt>
      <trkpt lat="43.67685" lon="6.72185">
        <ele>593</ele>
        <time>2019-03-20T12:45:37Z</time>
      </trkpt>
      <trkpt lat="43.67674" lon="6.72196">
        <ele>592</ele>
        <time>2019-03-20T12:45:54Z</time>
      </trkpt>
      <trkpt lat="43.6767" lon="6.72201">
        <ele>590</ele>
        <time>2019-03-20T12:46:00Z</time>
      </trkpt>
      <trkpt lat="43.67666" lon="6.72205">
        <ele>590</ele>
        <time>2019-03-20T12:46:07Z</time>
      </trkpt>
      <trkpt lat="43.67652" lon="6.72221">
        <ele>586</ele>
        <time>2019-03-20T12:46:29Z</time>
      </trkpt>
      <trkpt lat="43.67648" lon="6.72226">
        <ele>585</ele>
        <time>2019-03-20T12:46:36Z</time>
      </trkpt>
      <trkpt lat="43.67647" lon="6.72234">
        <ele>583</ele>
        <time>2019-03-20T12:46:45Z</time>
      </trkpt>
      <trkpt lat="43.67645" lon="6.72243">
        <ele>582</ele>
        <time>2019-03-20T12:46:52Z</time>
      </trkpt>
      <trkpt lat="43.67646" lon="6.72253">
        <ele>580</ele>
        <time>2019-03-20T12:47:02Z</time>
      </trkpt>
      <trkpt lat="43.67646" lon="6.72275">
        <ele>580</ele>
        <time>2019-03-20T12:47:21Z</time>
      </trkpt>
      <trkpt lat="43.6764" lon="6.72317">
        <ele>579</ele>
        <time>2019-03-20T12:47:59Z</time>
      </trkpt>
      <trkpt lat="43.67633" lon="6.72335">
        <ele>580</ele>
        <time>2019-03-20T12:48:14Z</time>
      </trkpt>
      <trkpt lat="43.67628" lon="6.72343">
        <ele>582</ele>
        <time>2019-03-20T12:48:22Z</time>
      </trkpt>
      <trkpt lat="43.67623" lon="6.7235">
        <ele>582</ele>
        <time>2019-03-20T12:48:30Z</time>
      </trkpt>
      <trkpt lat="43.6762" lon="6.72358">
        <ele>583</ele>
        <time>2019-03-20T12:48:37Z</time>
      </trkpt>
      <trkpt lat="43.67618" lon="6.72362">
        <ele>582</ele>
        <time>2019-03-20T12:49:06Z</time>
      </trkpt>
      <trkpt lat="43.67614" lon="6.7237">
        <ele>581</ele>
        <time>2019-03-20T12:50:28Z</time>
      </trkpt>
      <trkpt lat="43.67608" lon="6.7237">
        <ele>578</ele>
        <time>2019-03-20T12:50:37Z</time>
      </trkpt>
      <trkpt lat="43.67603" lon="6.72372">
        <ele>575</ele>
        <time>2019-03-20T12:50:46Z</time>
      </trkpt>
      <trkpt lat="43.67596" lon="6.72374">
        <ele>574</ele>
        <time>2019-03-20T12:50:54Z</time>
      </trkpt>
      <trkpt lat="43.6757" lon="6.72376">
        <ele>571</ele>
        <time>2019-03-20T12:51:23Z</time>
      </trkpt>
      <trkpt lat="43.67564" lon="6.72376">
        <ele>569</ele>
        <time>2019-03-20T12:51:30Z</time>
      </trkpt>
      <trkpt lat="43.67559" lon="6.72379">
        <ele>567</ele>
        <time>2019-03-20T12:51:38Z</time>
      </trkpt>
      <trkpt lat="43.67551" lon="6.72381">
        <ele>566</ele>
        <time>2019-03-20T12:51:46Z</time>
      </trkpt>
      <trkpt lat="43.67538" lon="6.72391">
        <ele>564</ele>
        <time>2019-03-20T12:51:59Z</time>
      </trkpt>
      <trkpt lat="43.67532" lon="6.72394">
        <ele>562</ele>
        <time>2019-03-20T12:52:07Z</time>
      </trkpt>
      <trkpt lat="43.67526" lon="6.72399">
        <ele>562</ele>
        <time>2019-03-20T12:52:17Z</time>
      </trkpt>
      <trkpt lat="43.67521" lon="6.72403">
        <ele>560</ele>
        <time>2019-03-20T12:52:23Z</time>
      </trkpt>
      <trkpt lat="43.67517" lon="6.72409">
        <ele>559</ele>
        <time>2019-03-20T12:52:28Z</time>
      </trkpt>
      <trkpt lat="43.67513" lon="6.72414">
        <ele>557</ele>
        <time>2019-03-20T12:52:34Z</time>
      </trkpt>
      <trkpt lat="43.67501" lon="6.72417">
        <ele>555</ele>
        <time>2019-03-20T12:52:48Z</time>
      </trkpt>
      <trkpt lat="43.67496" lon="6.72412">
        <ele>553</ele>
        <time>2019-03-20T12:53:22Z</time>
      </trkpt>
      <trkpt lat="43.67483" lon="6.72412">
        <ele>551</ele>
        <time>2019-03-20T12:53:53Z</time>
      </trkpt>
      <trkpt lat="43.67477" lon="6.72411">
        <ele>550</ele>
        <time>2019-03-20T12:54:03Z</time>
      </trkpt>
      <trkpt lat="43.6747" lon="6.72411">
        <ele>549</ele>
        <time>2019-03-20T12:54:15Z</time>
      </trkpt>
      <trkpt lat="43.67463" lon="6.7241">
        <ele>545</ele>
        <time>2019-03-20T12:54:38Z</time>
      </trkpt>
      <trkpt lat="43.67458" lon="6.72406">
        <ele>543</ele>
        <time>2019-03-20T12:54:52Z</time>
      </trkpt>
      <trkpt lat="43.67452" lon="6.72402">
        <ele>539</ele>
        <time>2019-03-20T12:55:03Z</time>
      </trkpt>
      <trkpt lat="43.67445" lon="6.72401">
        <ele>538</ele>
        <time>2019-03-20T12:55:14Z</time>
      </trkpt>
      <trkpt lat="43.6744" lon="6.72398">
        <ele>537</ele>
        <time>2019-03-20T12:55:25Z</time>
      </trkpt>
      <trkpt lat="43.67433" lon="6.72395">
        <ele>536</ele>
        <time>2019-03-20T12:55:41Z</time>
      </trkpt>
      <trkpt lat="43.67427" lon="6.72391">
        <ele>533</ele>
        <time>2019-03-20T12:55:54Z</time>
      </trkpt>
      <trkpt lat="43.67427" lon="6.72381">
        <ele>531</ele>
        <time>2019-03-20T12:56:10Z</time>
      </trkpt>
      <trkpt lat="43.6743" lon="6.72369">
        <ele>530</ele>
        <time>2019-03-20T12:56:21Z</time>
      </trkpt>
      <trkpt lat="43.67435" lon="6.7236">
        <ele>529</ele>
        <time>2019-03-20T12:56:29Z</time>
      </trkpt>
      <trkpt lat="43.67452" lon="6.72324">
        <ele>528</ele>
        <time>2019-03-20T12:57:00Z</time>
      </trkpt>
      <trkpt lat="43.67456" lon="6.72314">
        <ele>528</ele>
        <time>2019-03-20T12:57:06Z</time>
      </trkpt>
      <trkpt lat="43.6746" lon="6.72306">
        <ele>528</ele>
        <time>2019-03-20T12:57:15Z</time>
      </trkpt>
      <trkpt lat="43.67468" lon="6.72301">
        <ele>528</ele>
        <time>2019-03-20T12:57:25Z</time>
      </trkpt>
      <trkpt lat="43.6747" lon="6.72277">
        <ele>530</ele>
        <time>2019-03-20T12:57:44Z</time>
      </trkpt>
      <trkpt lat="43.67473" lon="6.72256">
        <ele>531</ele>
        <time>2019-03-20T12:58:02Z</time>
      </trkpt>
      <trkpt lat="43.6747" lon="6.72238">
        <ele>530</ele>
        <time>2019-03-20T12:58:30Z</time>
      </trkpt>
      <trkpt lat="43.67469" lon="6.72226">
        <ele>528</ele>
        <time>2019-03-20T12:58:40Z</time>
      </trkpt>
      <trkpt lat="43.6747" lon="6.72214">
        <ele>527</ele>
        <time>2019-03-20T12:58:50Z</time>
      </trkpt>
      <trkpt lat="43.67471" lon="6.72205">
        <ele>526</ele>
        <time>2019-03-20T12:58:56Z</time>
      </trkpt>
      <trkpt lat="43.67473" lon="6.72193">
        <ele>526</ele>
        <time>2019-03-20T12:59:05Z</time>
      </trkpt>
      <trkpt lat="43.67477" lon="6.72182">
        <ele>525</ele>
        <time>2019-03-20T12:59:14Z</time>
      </trkpt>
      <trkpt lat="43.67479" lon="6.72172">
        <ele>525</ele>
        <time>2019-03-20T12:59:23Z</time>
      </trkpt>
      <trkpt lat="43.67482" lon="6.72149">
        <ele>525</ele>
        <time>2019-03-20T12:59:45Z</time>
      </trkpt>
      <trkpt lat="43.67486" lon="6.72139">
        <ele>524</ele>
        <time>2019-03-20T12:59:53Z</time>
      </trkpt>
      <trkpt lat="43.67488" lon="6.72129">
        <ele>524</ele>
        <time>2019-03-20T13:00:02Z</time>
      </trkpt>
      <trkpt lat="43.67492" lon="6.7212">
        <ele>520</ele>
        <time>2019-03-20T13:00:08Z</time>
      </trkpt>
      <trkpt lat="43.67494" lon="6.7211">
        <ele>519</ele>
        <time>2019-03-20T13:00:17Z</time>
      </trkpt>
      <trkpt lat="43.67504" lon="6.7209">
        <ele>519</ele>
        <time>2019-03-20T13:00:39Z</time>
      </trkpt>
      <trkpt lat="43.67509" lon="6.72081">
        <ele>518</ele>
        <time>2019-03-20T13:00:49Z</time>
      </trkpt>
      <trkpt lat="43.67513" lon="6.72074">
        <ele>517</ele>
        <time>2019-03-20T13:00:55Z</time>
      </trkpt>
      <trkpt lat="43.67518" lon="6.72065">
        <ele>517</ele>
        <time>2019-03-20T13:01:11Z</time>
      </trkpt>
      <trkpt lat="43.6753" lon="6.72037">
        <ele>513</ele>
        <time>2019-03-20T13:01:48Z</time>
      </trkpt>
      <trkpt lat="43.67531" lon="6.72027">
        <ele>511</ele>
        <time>2019-03-20T13:02:09Z</time>
      </trkpt>
      <trkpt lat="43.67534" lon="6.72017">
        <ele>511</ele>
        <time>2019-03-20T13:02:21Z</time>
      </trkpt>
      <trkpt lat="43.67532" lon="6.72005">
        <ele>510</ele>
        <time>2019-03-20T13:02:30Z</time>
      </trkpt>
      <trkpt lat="43.67533" lon="6.71993">
        <ele>510</ele>
        <time>2019-03-20T13:02:39Z</time>
      </trkpt>
      <trkpt lat="43.67536" lon="6.71981">
        <ele>510</ele>
        <time>2019-03-20T13:02:55Z</time>
      </trkpt>
      <trkpt lat="43.67539" lon="6.71967">
        <ele>509</ele>
        <time>2019-03-20T13:03:08Z</time>
      </trkpt>
      <trkpt lat="43.67543" lon="6.71951">
        <ele>505</ele>
        <time>2019-03-20T13:03:23Z</time>
      </trkpt>
      <trkpt lat="43.67551" lon="6.71942">
        <ele>502</ele>
        <time>2019-03-20T13:03:31Z</time>
      </trkpt>
      <trkpt lat="43.67561" lon="6.71926">
        <ele>499</ele>
        <time>2019-03-20T13:03:47Z</time>
      </trkpt>
      <trkpt lat="43.6757" lon="6.71924">
        <ele>498</ele>
        <time>2019-03-20T13:03:57Z</time>
      </trkpt>
      <trkpt lat="43.67577" lon="6.71921">
        <ele>498</ele>
        <time>2019-03-20T13:04:11Z</time>
      </trkpt>
      <trkpt lat="43.67588" lon="6.71911">
        <ele>498</ele>
        <time>2019-03-20T13:04:46Z</time>
      </trkpt>
      <trkpt lat="43.67587" lon="6.71908">
        <ele>497</ele>
        <time>2019-03-20T13:06:15Z</time>
      </trkpt>
      <trkpt lat="43.67582" lon="6.71903">
        <ele>497</ele>
        <time>2019-03-20T13:07:12Z</time>
      </trkpt>
      <trkpt lat="43.67553" lon="6.71901">
        <ele>497</ele>
        <time>2019-03-20T13:07:39Z</time>
      </trkpt>
      <trkpt lat="43.67549" lon="6.71896">
        <ele>497</ele>
        <time>2019-03-20T13:07:45Z</time>
      </trkpt>
      <trkpt lat="43.67553" lon="6.71892">
        <ele>497</ele>
        <time>2019-03-20T13:07:48Z</time>
      </trkpt>
      <trkpt lat="43.67558" lon="6.71891">
        <ele>496</ele>
        <time>2019-03-20T13:07:51Z</time>
      </trkpt>
      <trkpt lat="43.67578" lon="6.7189">
        <ele>491</ele>
        <time>2019-03-20T13:08:09Z</time>
      </trkpt>
      <trkpt lat="43.67586" lon="6.71889">
        <ele>491</ele>
        <time>2019-03-20T13:08:17Z</time>
      </trkpt>
      <trkpt lat="43.67595" lon="6.71886">
        <ele>491</ele>
        <time>2019-03-20T13:08:26Z</time>
      </trkpt>
      <trkpt lat="43.67603" lon="6.71883">
        <ele>492</ele>
        <time>2019-03-20T13:08:35Z</time>
      </trkpt>
      <trkpt lat="43.67621" lon="6.7187">
        <ele>490</ele>
        <time>2019-03-20T13:08:52Z</time>
      </trkpt>
      <trkpt lat="43.67632" lon="6.71862">
        <ele>490</ele>
        <time>2019-03-20T13:09:04Z</time>
      </trkpt>
      <trkpt lat="43.67638" lon="6.71859">
        <ele>488</ele>
        <time>2019-03-20T13:09:09Z</time>
      </trkpt>
      <trkpt lat="43.67655" lon="6.71844">
        <ele>487</ele>
        <time>2019-03-20T13:09:26Z</time>
      </trkpt>
      <trkpt lat="43.67685" lon="6.71826">
        <ele>484</ele>
        <time>2019-03-20T13:09:56Z</time>
      </trkpt>
      <trkpt lat="43.67696" lon="6.7182">
        <ele>484</ele>
        <time>2019-03-20T13:10:07Z</time>
      </trkpt>
      <trkpt lat="43.67698" lon="6.71813">
        <ele>484</ele>
        <time>2019-03-20T13:10:11Z</time>
      </trkpt>
      <trkpt lat="43.67699" lon="6.71805">
        <ele>483</ele>
        <time>2019-03-20T13:10:16Z</time>
      </trkpt>
      <trkpt lat="43.67694" lon="6.718">
        <ele>483</ele>
        <time>2019-03-20T13:11:28Z</time>
      </trkpt>
      <trkpt lat="43.6769" lon="6.71795">
        <ele>482</ele>
        <time>2019-03-20T13:12:27Z</time>
      </trkpt>
      <trkpt lat="43.67686" lon="6.7179">
        <ele>481</ele>
        <time>2019-03-20T13:12:34Z</time>
      </trkpt>
      <trkpt lat="43.67679" lon="6.71788">
        <ele>482</ele>
        <time>2019-03-20T13:13:08Z</time>
      </trkpt>
      <trkpt lat="43.67672" lon="6.71788">
        <ele>483</ele>
        <time>2019-03-20T13:13:22Z</time>
      </trkpt>
      <trkpt lat="43.67667" lon="6.71795">
        <ele>484</ele>
        <time>2019-03-20T13:13:31Z</time>
      </trkpt>
      <trkpt lat="43.67657" lon="6.71797">
        <ele>483</ele>
        <time>2019-03-20T13:13:41Z</time>
      </trkpt>
      <trkpt lat="43.67648" lon="6.71802">
        <ele>484</ele>
        <time>2019-03-20T13:13:48Z</time>
      </trkpt>
      <trkpt lat="43.6764" lon="6.71804">
        <ele>484</ele>
        <time>2019-03-20T13:13:59Z</time>
      </trkpt>
      <trkpt lat="43.67632" lon="6.71808">
        <ele>485</ele>
        <time>2019-03-20T13:14:10Z</time>
      </trkpt>
      <trkpt lat="43.67621" lon="6.71813">
        <ele>486</ele>
        <time>2019-03-20T13:14:20Z</time>
      </trkpt>
      <trkpt lat="43.6761" lon="6.71814">
        <ele>487</ele>
        <time>2019-03-20T13:14:28Z</time>
      </trkpt>
      <trkpt lat="43.67603" lon="6.71818">
        <ele>488</ele>
        <time>2019-03-20T13:14:35Z</time>
      </trkpt>
      <trkpt lat="43.67593" lon="6.71817">
        <ele>488</ele>
        <time>2019-03-20T13:14:45Z</time>
      </trkpt>
      <trkpt lat="43.67584" lon="6.71815">
        <ele>489</ele>
        <time>2019-03-20T13:14:54Z</time>
      </trkpt>
      <trkpt lat="43.67572" lon="6.71803">
        <ele>491</ele>
        <time>2019-03-20T13:15:16Z</time>
      </trkpt>
      <trkpt lat="43.67559" lon="6.71799">
        <ele>496</ele>
        <time>2019-03-20T13:15:26Z</time>
      </trkpt>
      <trkpt lat="43.67547" lon="6.71794">
        <ele>496</ele>
        <time>2019-03-20T13:15:38Z</time>
      </trkpt>
      <trkpt lat="43.67528" lon="6.71795">
        <ele>496</ele>
        <time>2019-03-20T13:15:51Z</time>
      </trkpt>
      <trkpt lat="43.67522" lon="6.71802">
        <ele>496</ele>
        <time>2019-03-20T13:16:01Z</time>
      </trkpt>
      <trkpt lat="43.67504" lon="6.71824">
        <ele>495</ele>
        <time>2019-03-20T13:16:20Z</time>
      </trkpt>
      <trkpt lat="43.67491" lon="6.71844">
        <ele>496</ele>
        <time>2019-03-20T13:16:38Z</time>
      </trkpt>
      <trkpt lat="43.6747" lon="6.71882">
        <ele>497</ele>
        <time>2019-03-20T13:17:07Z</time>
      </trkpt>
      <trkpt lat="43.67467" lon="6.71894">
        <ele>497</ele>
        <time>2019-03-20T13:17:15Z</time>
      </trkpt>
      <trkpt lat="43.67465" lon="6.71904">
        <ele>497</ele>
        <time>2019-03-20T13:17:22Z</time>
      </trkpt>
      <trkpt lat="43.67459" lon="6.71922">
        <ele>498</ele>
        <time>2019-03-20T13:17:34Z</time>
      </trkpt>
      <trkpt lat="43.67455" lon="6.71941">
        <ele>499</ele>
        <time>2019-03-20T13:17:45Z</time>
      </trkpt>
      <trkpt lat="43.67442" lon="6.71961">
        <ele>503</ele>
        <time>2019-03-20T13:18:01Z</time>
      </trkpt>
      <trkpt lat="43.67437" lon="6.71967">
        <ele>503</ele>
        <time>2019-03-20T13:18:08Z</time>
      </trkpt>
      <trkpt lat="43.67422" lon="6.71989">
        <ele>506</ele>
        <time>2019-03-20T13:18:36Z</time>
      </trkpt>
      <trkpt lat="43.67416" lon="6.71997">
        <ele>506</ele>
        <time>2019-03-20T13:18:42Z</time>
      </trkpt>
      <trkpt lat="43.67411" lon="6.72003">
        <ele>507</ele>
        <time>2019-03-20T13:18:48Z</time>
      </trkpt>
      <trkpt lat="43.674" lon="6.72017">
        <ele>506</ele>
        <time>2019-03-20T13:19:03Z</time>
      </trkpt>
      <trkpt lat="43.67404" lon="6.7201">
        <ele>506</ele>
        <time>2019-03-20T13:19:34Z</time>
      </trkpt>
      <trkpt lat="43.67427" lon="6.71986">
        <ele>507</ele>
        <time>2019-03-20T13:20:02Z</time>
      </trkpt>
      <trkpt lat="43.67421" lon="6.71985">
        <ele>508</ele>
        <time>2019-03-20T13:21:18Z</time>
      </trkpt>
      <trkpt lat="43.67416" lon="6.7199">
        <ele>509</ele>
        <time>2019-03-20T13:21:32Z</time>
      </trkpt>
      <trkpt lat="43.6741" lon="6.71993">
        <ele>510</ele>
        <time>2019-03-20T13:21:41Z</time>
      </trkpt>
      <trkpt lat="43.67405" lon="6.72001">
        <ele>510</ele>
        <time>2019-03-20T13:21:48Z</time>
      </trkpt>
      <trkpt lat="43.674" lon="6.72008">
        <ele>510</ele>
        <time>2019-03-20T13:21:57Z</time>
      </trkpt>
      <trkpt lat="43.67395" lon="6.72014">
        <ele>509</ele>
        <time>2019-03-20T13:22:12Z</time>
      </trkpt>
      <trkpt lat="43.67391" lon="6.7202">
        <ele>510</ele>
        <time>2019-03-20T13:22:28Z</time>
      </trkpt>
      <trkpt lat="43.67377" lon="6.72033">
        <ele>513</ele>
        <time>2019-03-20T13:22:44Z</time>
      </trkpt>
      <trkpt lat="43.67372" lon="6.72038">
        <ele>513</ele>
        <time>2019-03-20T13:22:49Z</time>
      </trkpt>
      <trkpt lat="43.67353" lon="6.7205">
        <ele>514</ele>
        <time>2019-03-20T13:23:18Z</time>
      </trkpt>
      <trkpt lat="43.67346" lon="6.72053">
        <ele>515</ele>
        <time>2019-03-20T13:23:41Z</time>
      </trkpt>
      <trkpt lat="43.67341" lon="6.72055">
        <ele>514</ele>
        <time>2019-03-20T13:23:55Z</time>
      </trkpt>
      <trkpt lat="43.67313" lon="6.72074">
        <ele>518</ele>
        <time>2019-03-20T13:24:23Z</time>
      </trkpt>
      <trkpt lat="43.67296" lon="6.72087">
        <ele>518</ele>
        <time>2019-03-20T13:24:45Z</time>
      </trkpt>
      <trkpt lat="43.67292" lon="6.72093">
        <ele>519</ele>
        <time>2019-03-20T13:25:00Z</time>
      </trkpt>
      <trkpt lat="43.67285" lon="6.72094">
        <ele>520</ele>
        <time>2019-03-20T13:25:07Z</time>
      </trkpt>
      <trkpt lat="43.67274" lon="6.72089">
        <ele>520</ele>
        <time>2019-03-20T13:25:19Z</time>
      </trkpt>
      <trkpt lat="43.67251" lon="6.72084">
        <ele>521</ele>
        <time>2019-03-20T13:26:01Z</time>
      </trkpt>
      <trkpt lat="43.67243" lon="6.72081">
        <ele>522</ele>
        <time>2019-03-20T13:26:07Z</time>
      </trkpt>
      <trkpt lat="43.67227" lon="6.72076">
        <ele>523</ele>
        <time>2019-03-20T13:26:20Z</time>
      </trkpt>
      <trkpt lat="43.67207" lon="6.72066">
        <ele>524</ele>
        <time>2019-03-20T13:26:39Z</time>
      </trkpt>
      <trkpt lat="43.67176" lon="6.72066">
        <ele>527</ele>
        <time>2019-03-20T13:27:10Z</time>
      </trkpt>
      <trkpt lat="43.67166" lon="6.72068">
        <ele>529</ele>
        <time>2019-03-20T13:27:23Z</time>
      </trkpt>
      <trkpt lat="43.67158" lon="6.72074">
        <ele>527</ele>
        <time>2019-03-20T13:27:32Z</time>
      </trkpt>
      <trkpt lat="43.6715" lon="6.72075">
        <ele>526</ele>
        <time>2019-03-20T13:27:41Z</time>
      </trkpt>
      <trkpt lat="43.67142" lon="6.7208">
        <ele>526</ele>
        <time>2019-03-20T13:27:51Z</time>
      </trkpt>
      <trkpt lat="43.67137" lon="6.72083">
        <ele>525</ele>
        <time>2019-03-20T13:28:00Z</time>
      </trkpt>
      <trkpt lat="43.67129" lon="6.72083">
        <ele>526</ele>
        <time>2019-03-20T13:28:29Z</time>
      </trkpt>
      <trkpt lat="43.67123" lon="6.72086">
        <ele>523</ele>
        <time>2019-03-20T13:29:52Z</time>
      </trkpt>
      <trkpt lat="43.67109" lon="6.72088">
        <ele>525</ele>
        <time>2019-03-20T13:30:08Z</time>
      </trkpt>
      <trkpt lat="43.67101" lon="6.72085">
        <ele>526</ele>
        <time>2019-03-20T13:31:27Z</time>
      </trkpt>
      <trkpt lat="43.67081" lon="6.72094">
        <ele>528</ele>
        <time>2019-03-20T13:32:09Z</time>
      </trkpt>
      <trkpt lat="43.67075" lon="6.72078">
        <ele>537</ele>
        <time>2019-03-20T13:32:34Z</time>
      </trkpt>
      <trkpt lat="43.67059" lon="6.72069">
        <ele>538</ele>
        <time>2019-03-20T13:32:58Z</time>
      </trkpt>
      <trkpt lat="43.67051" lon="6.72072">
        <ele>530</ele>
        <time>2019-03-20T13:33:34Z</time>
      </trkpt>
      <trkpt lat="43.67045" lon="6.72067">
        <ele>526</ele>
        <time>2019-03-20T13:33:59Z</time>
      </trkpt>
      <trkpt lat="43.67028" lon="6.72057">
        <ele>522</ele>
        <time>2019-03-20T13:34:17Z</time>
      </trkpt>
      <trkpt lat="43.67022" lon="6.72051">
        <ele>522</ele>
        <time>2019-03-20T13:34:25Z</time>
      </trkpt>
      <trkpt lat="43.67011" lon="6.72041">
        <ele>520</ele>
        <time>2019-03-20T13:34:40Z</time>
      </trkpt>
      <trkpt lat="43.6699" lon="6.72023">
        <ele>519</ele>
        <time>2019-03-20T13:35:00Z</time>
      </trkpt>
      <trkpt lat="43.66983" lon="6.72015">
        <ele>519</ele>
        <time>2019-03-20T13:35:09Z</time>
      </trkpt>
      <trkpt lat="43.66978" lon="6.72013">
        <ele>521</ele>
        <time>2019-03-20T13:35:18Z</time>
      </trkpt>
      <trkpt lat="43.66973" lon="6.72013">
        <ele>520</ele>
        <time>2019-03-20T13:35:46Z</time>
      </trkpt>
      <trkpt lat="43.66973" lon="6.72012">
        <ele>516</ele>
        <time>2019-03-20T13:37:03Z</time>
      </trkpt>
      <trkpt lat="43.66976" lon="6.72009">
        <ele>516</ele>
        <time>2019-03-20T13:37:19Z</time>
      </trkpt>
      <trkpt lat="43.66979" lon="6.72014">
        <ele>518</ele>
        <time>2019-03-20T13:52:20Z</time>
      </trkpt>
      <trkpt lat="43.66984" lon="6.72019">
        <ele>519</ele>
        <time>2019-03-20T13:52:53Z</time>
      </trkpt>
      <trkpt lat="43.66988" lon="6.72021">
        <ele>523</ele>
        <time>2019-03-20T13:53:00Z</time>
      </trkpt>
      <trkpt lat="43.67012" lon="6.72044">
        <ele>521</ele>
        <time>2019-03-20T13:53:31Z</time>
      </trkpt>
      <trkpt lat="43.67024" lon="6.72052">
        <ele>520</ele>
        <time>2019-03-20T13:53:44Z</time>
      </trkpt>
      <trkpt lat="43.67031" lon="6.72056">
        <ele>521</ele>
        <time>2019-03-20T13:53:51Z</time>
      </trkpt>
      <trkpt lat="43.67037" lon="6.7206">
        <ele>520</ele>
        <time>2019-03-20T13:53:58Z</time>
      </trkpt>
      <trkpt lat="43.67049" lon="6.72071">
        <ele>522</ele>
        <time>2019-03-20T13:54:15Z</time>
      </trkpt>
      <trkpt lat="43.67054" lon="6.72075">
        <ele>532</ele>
        <time>2019-03-20T13:57:58Z</time>
      </trkpt>
      <trkpt lat="43.67068" lon="6.72084">
        <ele>532</ele>
        <time>2019-03-20T13:59:03Z</time>
      </trkpt>
      <trkpt lat="43.67084" lon="6.72089">
        <ele>538</ele>
        <time>2019-03-20T13:59:46Z</time>
      </trkpt>
      <trkpt lat="43.67096" lon="6.72088">
        <ele>538</ele>
        <time>2019-03-20T14:00:01Z</time>
      </trkpt>
      <trkpt lat="43.67093" lon="6.72089">
        <ele>534</ele>
        <time>2019-03-20T14:01:46Z</time>
      </trkpt>
      <trkpt lat="43.67094" lon="6.72091">
        <ele>529</ele>
        <time>2019-03-20T14:04:16Z</time>
      </trkpt>
      <trkpt lat="43.67099" lon="6.72091">
        <ele>529</ele>
        <time>2019-03-20T14:04:31Z</time>
      </trkpt>
      <trkpt lat="43.67103" lon="6.72088">
        <ele>527</ele>
        <time>2019-03-20T14:04:37Z</time>
      </trkpt>
      <trkpt lat="43.67124" lon="6.72085">
        <ele>527</ele>
        <time>2019-03-20T14:05:12Z</time>
      </trkpt>
      <trkpt lat="43.67131" lon="6.72086">
        <ele>528</ele>
        <time>2019-03-20T14:05:20Z</time>
      </trkpt>
      <trkpt lat="43.67136" lon="6.7208">
        <ele>526</ele>
        <time>2019-03-20T14:05:33Z</time>
      </trkpt>
      <trkpt lat="43.67143" lon="6.72075">
        <ele>525</ele>
        <time>2019-03-20T14:05:43Z</time>
      </trkpt>
      <trkpt lat="43.67149" lon="6.72075">
        <ele>526</ele>
        <time>2019-03-20T14:05:52Z</time>
      </trkpt>
      <trkpt lat="43.67155" lon="6.72069">
        <ele>525</ele>
        <time>2019-03-20T14:06:00Z</time>
      </trkpt>
      <trkpt lat="43.67161" lon="6.72065">
        <ele>525</ele>
        <time>2019-03-20T14:06:09Z</time>
      </trkpt>
      <trkpt lat="43.67174" lon="6.72055">
        <ele>526</ele>
        <time>2019-03-20T14:06:25Z</time>
      </trkpt>
      <trkpt lat="43.67181" lon="6.72055">
        <ele>526</ele>
        <time>2019-03-20T14:06:32Z</time>
      </trkpt>
      <trkpt lat="43.67187" lon="6.72059">
        <ele>526</ele>
        <time>2019-03-20T14:06:38Z</time>
      </trkpt>
      <trkpt lat="43.67219" lon="6.72072">
        <ele>523</ele>
        <time>2019-03-20T14:07:06Z</time>
      </trkpt>
      <trkpt lat="43.67223" lon="6.72074">
        <ele>522</ele>
        <time>2019-03-20T14:07:10Z</time>
      </trkpt>
      <trkpt lat="43.67257" lon="6.72082">
        <ele>519</ele>
        <time>2019-03-20T14:07:41Z</time>
      </trkpt>
      <trkpt lat="43.67261" lon="6.72083">
        <ele>519</ele>
        <time>2019-03-20T14:07:45Z</time>
      </trkpt>
      <trkpt lat="43.67267" lon="6.72084">
        <ele>518</ele>
        <time>2019-03-20T14:07:50Z</time>
      </trkpt>
      <trkpt lat="43.67272" lon="6.72087">
        <ele>519</ele>
        <time>2019-03-20T14:07:55Z</time>
      </trkpt>
      <trkpt lat="43.67277" lon="6.72088">
        <ele>519</ele>
        <time>2019-03-20T14:08:01Z</time>
      </trkpt>
      <trkpt lat="43.67282" lon="6.72091">
        <ele>519</ele>
        <time>2019-03-20T14:08:05Z</time>
      </trkpt>
      <trkpt lat="43.67293" lon="6.72088">
        <ele>519</ele>
        <time>2019-03-20T14:08:14Z</time>
      </trkpt>
      <trkpt lat="43.67298" lon="6.72083">
        <ele>516</ele>
        <time>2019-03-20T14:08:20Z</time>
      </trkpt>
      <trkpt lat="43.67321" lon="6.72059">
        <ele>512</ele>
        <time>2019-03-20T14:08:51Z</time>
      </trkpt>
      <trkpt lat="43.67327" lon="6.72055">
        <ele>512</ele>
        <time>2019-03-20T14:08:55Z</time>
      </trkpt>
      <trkpt lat="43.67339" lon="6.7205">
        <ele>511</ele>
        <time>2019-03-20T14:09:06Z</time>
      </trkpt>
      <trkpt lat="43.67364" lon="6.72045">
        <ele>510</ele>
        <time>2019-03-20T14:09:39Z</time>
      </trkpt>
      <trkpt lat="43.67376" lon="6.72031">
        <ele>508</ele>
        <time>2019-03-20T14:09:53Z</time>
      </trkpt>
      <trkpt lat="43.67384" lon="6.72025">
        <ele>507</ele>
        <time>2019-03-20T14:10:00Z</time>
      </trkpt>
      <trkpt lat="43.67393" lon="6.72014">
        <ele>505</ele>
        <time>2019-03-20T14:10:10Z</time>
      </trkpt>
      <trkpt lat="43.67396" lon="6.7201">
        <ele>505</ele>
        <time>2019-03-20T14:10:14Z</time>
      </trkpt>
      <trkpt lat="43.67408" lon="6.71998">
        <ele>506</ele>
        <time>2019-03-20T14:10:25Z</time>
      </trkpt>
      <trkpt lat="43.67421" lon="6.71986">
        <ele>505</ele>
        <time>2019-03-20T14:10:38Z</time>
      </trkpt>
      <trkpt lat="43.67433" lon="6.7197">
        <ele>505</ele>
        <time>2019-03-20T14:10:54Z</time>
      </trkpt>
      <trkpt lat="43.67436" lon="6.71966">
        <ele>503</ele>
        <time>2019-03-20T14:10:59Z</time>
      </trkpt>
      <trkpt lat="43.67458" lon="6.71936">
        <ele>499</ele>
        <time>2019-03-20T14:11:23Z</time>
      </trkpt>
      <trkpt lat="43.6746" lon="6.71929">
        <ele>500</ele>
        <time>2019-03-20T14:11:28Z</time>
      </trkpt>
      <trkpt lat="43.6746" lon="6.71922">
        <ele>500</ele>
        <time>2019-03-20T14:11:33Z</time>
      </trkpt>
      <trkpt lat="43.67463" lon="6.71905">
        <ele>500</ele>
        <time>2019-03-20T14:11:43Z</time>
      </trkpt>
      <trkpt lat="43.67467" lon="6.71898">
        <ele>499</ele>
        <time>2019-03-20T14:11:47Z</time>
      </trkpt>
      <trkpt lat="43.67469" lon="6.7189">
        <ele>499</ele>
        <time>2019-03-20T14:11:53Z</time>
      </trkpt>
      <trkpt lat="43.67471" lon="6.71882">
        <ele>499</ele>
        <time>2019-03-20T14:11:58Z</time>
      </trkpt>
      <trkpt lat="43.67479" lon="6.71866">
        <ele>499</ele>
        <time>2019-03-20T14:12:09Z</time>
      </trkpt>
      <trkpt lat="43.67501" lon="6.71827">
        <ele>495</ele>
        <time>2019-03-20T14:12:38Z</time>
      </trkpt>
      <trkpt lat="43.67506" lon="6.7182">
        <ele>494</ele>
        <time>2019-03-20T14:12:44Z</time>
      </trkpt>
      <trkpt lat="43.67515" lon="6.71809">
        <ele>494</ele>
        <time>2019-03-20T14:12:55Z</time>
      </trkpt>
      <trkpt lat="43.6752" lon="6.71805">
        <ele>494</ele>
        <time>2019-03-20T14:13:00Z</time>
      </trkpt>
      <trkpt lat="43.67527" lon="6.71798">
        <ele>494</ele>
        <time>2019-03-20T14:13:06Z</time>
      </trkpt>
      <trkpt lat="43.67532" lon="6.71795">
        <ele>493</ele>
        <time>2019-03-20T14:13:10Z</time>
      </trkpt>
      <trkpt lat="43.67538" lon="6.71792">
        <ele>492</ele>
        <time>2019-03-20T14:13:15Z</time>
      </trkpt>
      <trkpt lat="43.67551" lon="6.71796">
        <ele>490</ele>
        <time>2019-03-20T14:13:26Z</time>
      </trkpt>
      <trkpt lat="43.67573" lon="6.71812">
        <ele>489</ele>
        <time>2019-03-20T14:13:45Z</time>
      </trkpt>
      <trkpt lat="43.67576" lon="6.71814">
        <ele>489</ele>
        <time>2019-03-20T14:13:49Z</time>
      </trkpt>
      <trkpt lat="43.67581" lon="6.71817">
        <ele>490</ele>
        <time>2019-03-20T14:13:53Z</time>
      </trkpt>
      <trkpt lat="43.67586" lon="6.7182">
        <ele>491</ele>
        <time>2019-03-20T14:13:59Z</time>
      </trkpt>
      <trkpt lat="43.67592" lon="6.71822">
        <ele>494</ele>
        <time>2019-03-20T14:14:06Z</time>
      </trkpt>
      <trkpt lat="43.67599" lon="6.71821">
        <ele>495</ele>
        <time>2019-03-20T14:14:11Z</time>
      </trkpt>
      <trkpt lat="43.67604" lon="6.71819">
        <ele>495</ele>
        <time>2019-03-20T14:14:15Z</time>
      </trkpt>
      <trkpt lat="43.67643" lon="6.71804">
        <ele>492</ele>
        <time>2019-03-20T14:14:47Z</time>
      </trkpt>
      <trkpt lat="43.67649" lon="6.718">
        <ele>490</ele>
        <time>2019-03-20T14:14:51Z</time>
      </trkpt>
      <trkpt lat="43.67663" lon="6.71793">
        <ele>486</ele>
        <time>2019-03-20T14:15:00Z</time>
      </trkpt>
      <trkpt lat="43.67672" lon="6.71793">
        <ele>483</ele>
        <time>2019-03-20T14:15:06Z</time>
      </trkpt>
      <trkpt lat="43.6768" lon="6.71793">
        <ele>482</ele>
        <time>2019-03-20T14:15:13Z</time>
      </trkpt>
      <trkpt lat="43.67685" lon="6.71801">
        <ele>483</ele>
        <time>2019-03-20T14:15:20Z</time>
      </trkpt>
      <trkpt lat="43.67691" lon="6.718">
        <ele>484</ele>
        <time>2019-03-20T14:16:33Z</time>
      </trkpt>
      <trkpt lat="43.67692" lon="6.71811">
        <ele>484</ele>
        <time>2019-03-20T14:17:05Z</time>
      </trkpt>
      <trkpt lat="43.67683" lon="6.71823">
        <ele>486</ele>
        <time>2019-03-20T14:17:19Z</time>
      </trkpt>
      <trkpt lat="43.67676" lon="6.71827">
        <ele>485</ele>
        <time>2019-03-20T14:17:26Z</time>
      </trkpt>
      <trkpt lat="43.67669" lon="6.7183">
        <ele>485</ele>
        <time>2019-03-20T14:17:33Z</time>
      </trkpt>
      <trkpt lat="43.67662" lon="6.71834">
        <ele>485</ele>
        <time>2019-03-20T14:17:40Z</time>
      </trkpt>
      <trkpt lat="43.67638" lon="6.71857">
        <ele>484</ele>
        <time>2019-03-20T14:18:08Z</time>
      </trkpt>
      <trkpt lat="43.67608" lon="6.71883">
        <ele>485</ele>
        <time>2019-03-20T14:18:40Z</time>
      </trkpt>
      <trkpt lat="43.67575" lon="6.7189">
        <ele>489</ele>
        <time>2019-03-20T14:19:10Z</time>
      </trkpt>
      <trkpt lat="43.67562" lon="6.71888">
        <ele>488</ele>
        <time>2019-03-20T14:19:22Z</time>
      </trkpt>
      <trkpt lat="43.67554" lon="6.71889">
        <ele>489</ele>
        <time>2019-03-20T14:19:28Z</time>
      </trkpt>
      <trkpt lat="43.67551" lon="6.71897">
        <ele>489</ele>
        <time>2019-03-20T14:19:34Z</time>
      </trkpt>
      <trkpt lat="43.67557" lon="6.71904">
        <ele>491</ele>
        <time>2019-03-20T14:19:43Z</time>
      </trkpt>
      <trkpt lat="43.67564" lon="6.71904">
        <ele>492</ele>
        <time>2019-03-20T14:19:50Z</time>
      </trkpt>
      <trkpt lat="43.67573" lon="6.71904">
        <ele>492</ele>
        <time>2019-03-20T14:19:57Z</time>
      </trkpt>
      <trkpt lat="43.67582" lon="6.71906">
        <ele>494</ele>
        <time>2019-03-20T14:20:09Z</time>
      </trkpt>
      <trkpt lat="43.6759" lon="6.71904">
        <ele>494</ele>
        <time>2019-03-20T14:20:26Z</time>
      </trkpt>
      <trkpt lat="43.67591" lon="6.71915">
        <ele>497</ele>
        <time>2019-03-20T14:21:12Z</time>
      </trkpt>
      <trkpt lat="43.67581" lon="6.71918">
        <ele>499</ele>
        <time>2019-03-20T14:21:30Z</time>
      </trkpt>
      <trkpt lat="43.67571" lon="6.71924">
        <ele>500</ele>
        <time>2019-03-20T14:21:49Z</time>
      </trkpt>
      <trkpt lat="43.67562" lon="6.71927">
        <ele>504</ele>
        <time>2019-03-20T14:21:58Z</time>
      </trkpt>
      <trkpt lat="43.67558" lon="6.71937">
        <ele>503</ele>
        <time>2019-03-20T14:22:09Z</time>
      </trkpt>
      <trkpt lat="43.67551" lon="6.71947">
        <ele>501</ele>
        <time>2019-03-20T14:22:18Z</time>
      </trkpt>
      <trkpt lat="43.67547" lon="6.71962">
        <ele>502</ele>
        <time>2019-03-20T14:22:31Z</time>
      </trkpt>
      <trkpt lat="43.67546" lon="6.71977">
        <ele>502</ele>
        <time>2019-03-20T14:22:43Z</time>
      </trkpt>
      <trkpt lat="43.67542" lon="6.71992">
        <ele>505</ele>
        <time>2019-03-20T14:22:56Z</time>
      </trkpt>
      <trkpt lat="43.67538" lon="6.72005">
        <ele>507</ele>
        <time>2019-03-20T14:23:07Z</time>
      </trkpt>
      <trkpt lat="43.67535" lon="6.7202">
        <ele>512</ele>
        <time>2019-03-20T14:23:20Z</time>
      </trkpt>
      <trkpt lat="43.67531" lon="6.72032">
        <ele>512</ele>
        <time>2019-03-20T14:23:29Z</time>
      </trkpt>
      <trkpt lat="43.67525" lon="6.72043">
        <ele>515</ele>
        <time>2019-03-20T14:23:43Z</time>
      </trkpt>
      <trkpt lat="43.67519" lon="6.72054">
        <ele>515</ele>
        <time>2019-03-20T14:23:56Z</time>
      </trkpt>
      <trkpt lat="43.67515" lon="6.72066">
        <ele>517</ele>
        <time>2019-03-20T14:24:07Z</time>
      </trkpt>
      <trkpt lat="43.67512" lon="6.72077">
        <ele>519</ele>
        <time>2019-03-20T14:24:17Z</time>
      </trkpt>
      <trkpt lat="43.67508" lon="6.72087">
        <ele>521</ele>
        <time>2019-03-20T14:24:27Z</time>
      </trkpt>
      <trkpt lat="43.67503" lon="6.72096">
        <ele>521</ele>
        <time>2019-03-20T14:24:38Z</time>
      </trkpt>
      <trkpt lat="43.675" lon="6.72106">
        <ele>522</ele>
        <time>2019-03-20T14:24:47Z</time>
      </trkpt>
      <trkpt lat="43.67492" lon="6.72127">
        <ele>525</ele>
        <time>2019-03-20T14:25:07Z</time>
      </trkpt>
      <trkpt lat="43.67487" lon="6.72138">
        <ele>525</ele>
        <time>2019-03-20T14:25:15Z</time>
      </trkpt>
      <trkpt lat="43.67483" lon="6.7215">
        <ele>526</ele>
        <time>2019-03-20T14:25:25Z</time>
      </trkpt>
      <trkpt lat="43.67476" lon="6.72181">
        <ele>530</ele>
        <time>2019-03-20T14:25:51Z</time>
      </trkpt>
      <trkpt lat="43.67474" lon="6.72192">
        <ele>532</ele>
        <time>2019-03-20T14:25:59Z</time>
      </trkpt>
      <trkpt lat="43.67472" lon="6.7221">
        <ele>533</ele>
        <time>2019-03-20T14:26:15Z</time>
      </trkpt>
      <trkpt lat="43.67469" lon="6.72223">
        <ele>532</ele>
        <time>2019-03-20T14:26:25Z</time>
      </trkpt>
      <trkpt lat="43.6747" lon="6.72236">
        <ele>531</ele>
        <time>2019-03-20T14:26:35Z</time>
      </trkpt>
      <trkpt lat="43.67474" lon="6.72247">
        <ele>530</ele>
        <time>2019-03-20T14:26:46Z</time>
      </trkpt>
      <trkpt lat="43.67474" lon="6.72256">
        <ele>530</ele>
        <time>2019-03-20T14:26:52Z</time>
      </trkpt>
      <trkpt lat="43.67471" lon="6.72286">
        <ele>533</ele>
        <time>2019-03-20T14:27:11Z</time>
      </trkpt>
      <trkpt lat="43.67451" lon="6.72325">
        <ele>532</ele>
        <time>2019-03-20T14:27:43Z</time>
      </trkpt>
      <trkpt lat="43.67437" lon="6.7235">
        <ele>533</ele>
        <time>2019-03-20T14:28:02Z</time>
      </trkpt>
      <trkpt lat="43.67434" lon="6.72358">
        <ele>534</ele>
        <time>2019-03-20T14:28:08Z</time>
      </trkpt>
      <trkpt lat="43.67431" lon="6.72366">
        <ele>534</ele>
        <time>2019-03-20T14:28:14Z</time>
      </trkpt>
      <trkpt lat="43.67429" lon="6.72376">
        <ele>534</ele>
        <time>2019-03-20T14:28:22Z</time>
      </trkpt>
      <trkpt lat="43.67431" lon="6.7239">
        <ele>534</ele>
        <time>2019-03-20T14:28:38Z</time>
      </trkpt>
      <trkpt lat="43.67437" lon="6.72398">
        <ele>534</ele>
        <time>2019-03-20T14:28:50Z</time>
      </trkpt>
      <trkpt lat="43.67452" lon="6.72402">
        <ele>537</ele>
        <time>2019-03-20T14:29:16Z</time>
      </trkpt>
      <trkpt lat="43.67467" lon="6.7241">
        <ele>541</ele>
        <time>2019-03-20T14:29:50Z</time>
      </trkpt>
      <trkpt lat="43.67476" lon="6.72413">
        <ele>543</ele>
        <time>2019-03-20T14:30:04Z</time>
      </trkpt>
      <trkpt lat="43.67486" lon="6.72413">
        <ele>544</ele>
        <time>2019-03-20T14:30:19Z</time>
      </trkpt>
      <trkpt lat="43.67492" lon="6.7241">
        <ele>546</ele>
        <time>2019-03-20T14:30:27Z</time>
      </trkpt>
      <trkpt lat="43.67498" lon="6.72414">
        <ele>546</ele>
        <time>2019-03-20T14:30:39Z</time>
      </trkpt>
      <trkpt lat="43.67502" lon="6.72418">
        <ele>550</ele>
        <time>2019-03-20T14:32:02Z</time>
      </trkpt>
      <trkpt lat="43.67502" lon="6.72423">
        <ele>555</ele>
        <time>2019-03-20T14:34:01Z</time>
      </trkpt>
      <trkpt lat="43.67506" lon="6.72424">
        <ele>557</ele>
        <time>2019-03-20T14:35:20Z</time>
      </trkpt>
      <trkpt lat="43.67513" lon="6.72417">
        <ele>557</ele>
        <time>2019-03-20T14:35:27Z</time>
      </trkpt>
      <trkpt lat="43.67519" lon="6.72412">
        <ele>557</ele>
        <time>2019-03-20T14:35:37Z</time>
      </trkpt>
      <trkpt lat="43.67524" lon="6.72405">
        <ele>556</ele>
        <time>2019-03-20T14:35:47Z</time>
      </trkpt>
      <trkpt lat="43.67527" lon="6.72401">
        <ele>556</ele>
        <time>2019-03-20T14:35:52Z</time>
      </trkpt>
      <trkpt lat="43.67538" lon="6.72391">
        <ele>558</ele>
        <time>2019-03-20T14:36:08Z</time>
      </trkpt>
      <trkpt lat="43.6755" lon="6.72383">
        <ele>559</ele>
        <time>2019-03-20T14:36:22Z</time>
      </trkpt>
      <trkpt lat="43.67555" lon="6.72379">
        <ele>559</ele>
        <time>2019-03-20T14:36:29Z</time>
      </trkpt>
      <trkpt lat="43.67561" lon="6.72378">
        <ele>560</ele>
        <time>2019-03-20T14:36:36Z</time>
      </trkpt>
      <trkpt lat="43.67582" lon="6.72377">
        <ele>566</ele>
        <time>2019-03-20T14:37:06Z</time>
      </trkpt>
      <trkpt lat="43.67598" lon="6.72373">
        <ele>570</ele>
        <time>2019-03-20T14:37:29Z</time>
      </trkpt>
      <trkpt lat="43.67603" lon="6.72374">
        <ele>571</ele>
        <time>2019-03-20T14:37:37Z</time>
      </trkpt>
      <trkpt lat="43.67608" lon="6.72372">
        <ele>572</ele>
        <time>2019-03-20T14:37:44Z</time>
      </trkpt>
      <trkpt lat="43.67614" lon="6.72375">
        <ele>574</ele>
        <time>2019-03-20T14:37:52Z</time>
      </trkpt>
      <trkpt lat="43.67616" lon="6.72368">
        <ele>574</ele>
        <time>2019-03-20T14:38:00Z</time>
      </trkpt>
      <trkpt lat="43.6762" lon="6.72362">
        <ele>574</ele>
        <time>2019-03-20T14:38:06Z</time>
      </trkpt>
      <trkpt lat="43.67622" lon="6.72356">
        <ele>574</ele>
        <time>2019-03-20T14:38:11Z</time>
      </trkpt>
      <trkpt lat="43.67629" lon="6.72344">
        <ele>574</ele>
        <time>2019-03-20T14:38:27Z</time>
      </trkpt>
      <trkpt lat="43.67633" lon="6.7234">
        <ele>575</ele>
        <time>2019-03-20T14:38:39Z</time>
      </trkpt>
      <trkpt lat="43.67636" lon="6.72334">
        <ele>577</ele>
        <time>2019-03-20T14:39:34Z</time>
      </trkpt>
      <trkpt lat="43.67638" lon="6.72328">
        <ele>575</ele>
        <time>2019-03-20T14:39:38Z</time>
      </trkpt>
      <trkpt lat="43.67639" lon="6.72322">
        <ele>575</ele>
        <time>2019-03-20T14:39:42Z</time>
      </trkpt>
      <trkpt lat="43.67642" lon="6.72315">
        <ele>575</ele>
        <time>2019-03-20T14:39:47Z</time>
      </trkpt>
      <trkpt lat="43.67646" lon="6.72292">
        <ele>576</ele>
        <time>2019-03-20T14:40:18Z</time>
      </trkpt>
      <trkpt lat="43.67647" lon="6.72279">
        <ele>575</ele>
        <time>2019-03-20T14:40:34Z</time>
      </trkpt>
      <trkpt lat="43.67649" lon="6.72272">
        <ele>575</ele>
        <time>2019-03-20T14:40:40Z</time>
      </trkpt>
      <trkpt lat="43.67651" lon="6.72265">
        <ele>574</ele>
        <time>2019-03-20T14:40:48Z</time>
      </trkpt>
      <trkpt lat="43.6765" lon="6.72258">
        <ele>574</ele>
        <time>2019-03-20T14:40:54Z</time>
      </trkpt>
      <trkpt lat="43.6765" lon="6.72251">
        <ele>574</ele>
        <time>2019-03-20T14:40:59Z</time>
      </trkpt>
      <trkpt lat="43.67651" lon="6.72227">
        <ele>575</ele>
        <time>2019-03-20T14:41:18Z</time>
      </trkpt>
      <trkpt lat="43.67662" lon="6.72214">
        <ele>577</ele>
        <time>2019-03-20T14:41:35Z</time>
      </trkpt>
      <trkpt lat="43.6767" lon="6.72206">
        <ele>577</ele>
        <time>2019-03-20T14:41:48Z</time>
      </trkpt>
      <trkpt lat="43.67675" lon="6.72202">
        <ele>578</ele>
        <time>2019-03-20T14:41:55Z</time>
      </trkpt>
      <trkpt lat="43.67681" lon="6.72194">
        <ele>581</ele>
        <time>2019-03-20T14:42:07Z</time>
      </trkpt>
      <trkpt lat="43.67686" lon="6.72188">
        <ele>583</ele>
        <time>2019-03-20T14:42:15Z</time>
      </trkpt>
      <trkpt lat="43.677" lon="6.72168">
        <ele>585</ele>
        <time>2019-03-20T14:42:37Z</time>
      </trkpt>
      <trkpt lat="43.67705" lon="6.72163">
        <ele>586</ele>
        <time>2019-03-20T14:42:44Z</time>
      </trkpt>
      <trkpt lat="43.67709" lon="6.72158">
        <ele>587</ele>
        <time>2019-03-20T14:42:51Z</time>
      </trkpt>
      <trkpt lat="43.67722" lon="6.72144">
        <ele>591</ele>
        <time>2019-03-20T14:43:09Z</time>
      </trkpt>
      <trkpt lat="43.67727" lon="6.72138">
        <ele>591</ele>
        <time>2019-03-20T14:43:16Z</time>
      </trkpt>
      <trkpt lat="43.67732" lon="6.72133">
        <ele>591</ele>
        <time>2019-03-20T14:43:22Z</time>
      </trkpt>
      <trkpt lat="43.67742" lon="6.72122">
        <ele>591</ele>
        <time>2019-03-20T14:43:35Z</time>
      </trkpt>
      <trkpt lat="43.67746" lon="6.72116">
        <ele>591</ele>
        <time>2019-03-20T14:43:41Z</time>
      </trkpt>
      <trkpt lat="43.67749" lon="6.72111">
        <ele>591</ele>
        <time>2019-03-20T14:43:46Z</time>
      </trkpt>
      <trkpt lat="43.67764" lon="6.721">
        <ele>593</ele>
        <time>2019-03-20T14:44:03Z</time>
      </trkpt>
      <trkpt lat="43.67769" lon="6.72096">
        <ele>593</ele>
        <time>2019-03-20T14:44:08Z</time>
      </trkpt>
      <trkpt lat="43.67779" lon="6.72086">
        <ele>594</ele>
        <time>2019-03-20T14:44:20Z</time>
      </trkpt>
      <trkpt lat="43.67784" lon="6.7208">
        <ele>595</ele>
        <time>2019-03-20T14:44:26Z</time>
      </trkpt>
      <trkpt lat="43.67797" lon="6.7207">
        <ele>596</ele>
        <time>2019-03-20T14:44:41Z</time>
      </trkpt>
      <trkpt lat="43.67809" lon="6.72064">
        <ele>597</ele>
        <time>2019-03-20T14:44:51Z</time>
      </trkpt>
      <trkpt lat="43.67815" lon="6.72062">
        <ele>597</ele>
        <time>2019-03-20T14:44:58Z</time>
      </trkpt>
      <trkpt lat="43.67835" lon="6.72058">
        <ele>597</ele>
        <time>2019-03-20T14:45:16Z</time>
      </trkpt>
      <trkpt lat="43.67841" lon="6.72058">
        <ele>597</ele>
        <time>2019-03-20T14:45:24Z</time>
      </trkpt>
      <trkpt lat="43.67855" lon="6.7206">
        <ele>594</ele>
        <time>2019-03-20T14:45:35Z</time>
      </trkpt>
      <trkpt lat="43.67868" lon="6.72059">
        <ele>594</ele>
        <time>2019-03-20T14:45:48Z</time>
      </trkpt>
      <trkpt lat="43.67881" lon="6.72061">
        <ele>593</ele>
        <time>2019-03-20T14:45:59Z</time>
      </trkpt>
      <trkpt lat="43.67887" lon="6.72061">
        <ele>593</ele>
        <time>2019-03-20T14:46:04Z</time>
      </trkpt>
      <trkpt lat="43.67894" lon="6.72062">
        <ele>593</ele>
        <time>2019-03-20T14:46:10Z</time>
      </trkpt>
      <trkpt lat="43.67914" lon="6.7206">
        <ele>593</ele>
        <time>2019-03-20T14:46:38Z</time>
      </trkpt>
      <trkpt lat="43.67927" lon="6.72058">
        <ele>592</ele>
        <time>2019-03-20T14:46:55Z</time>
      </trkpt>
      <trkpt lat="43.67935" lon="6.72057">
        <ele>591</ele>
        <time>2019-03-20T14:47:03Z</time>
      </trkpt>
      <trkpt lat="43.67941" lon="6.72057">
        <ele>589</ele>
        <time>2019-03-20T14:47:09Z</time>
      </trkpt>
      <trkpt lat="43.67963" lon="6.72054">
        <ele>587</ele>
        <time>2019-03-20T14:47:36Z</time>
      </trkpt>
      <trkpt lat="43.67985" lon="6.72047">
        <ele>583</ele>
        <time>2019-03-20T14:47:55Z</time>
      </trkpt>
      <trkpt lat="43.67999" lon="6.72041">
        <ele>582</ele>
        <time>2019-03-20T14:48:11Z</time>
      </trkpt>
      <trkpt lat="43.68004" lon="6.72037">
        <ele>580</ele>
        <time>2019-03-20T14:48:17Z</time>
      </trkpt>
      <trkpt lat="43.68012" lon="6.72026">
        <ele>580</ele>
        <time>2019-03-20T14:48:30Z</time>
      </trkpt>
      <trkpt lat="43.68024" lon="6.72002">
        <ele>578</ele>
        <time>2019-03-20T14:49:02Z</time>
      </trkpt>
      <trkpt lat="43.68025" lon="6.71999">
        <ele>577</ele>
        <time>2019-03-20T14:50:38Z</time>
      </trkpt>
      <trkpt lat="43.68028" lon="6.71995">
        <ele>575</ele>
        <time>2019-03-20T14:50:52Z</time>
      </trkpt>
      <trkpt lat="43.68029" lon="6.7199">
        <ele>574</ele>
        <time>2019-03-20T14:50:55Z</time>
      </trkpt>
      <trkpt lat="43.6803" lon="6.71985">
        <ele>574</ele>
        <time>2019-03-20T14:50:58Z</time>
      </trkpt>
      <trkpt lat="43.68029" lon="6.71973">
        <ele>573</ele>
        <time>2019-03-20T14:51:04Z</time>
      </trkpt>
      <trkpt lat="43.68022" lon="6.71963">
        <ele>572</ele>
        <time>2019-03-20T14:51:13Z</time>
      </trkpt>
      <trkpt lat="43.68006" lon="6.71926">
        <ele>570</ele>
        <time>2019-03-20T14:51:43Z</time>
      </trkpt>
      <trkpt lat="43.68001" lon="6.71908">
        <ele>569</ele>
        <time>2019-03-20T14:51:55Z</time>
      </trkpt>
      <trkpt lat="43.67998" lon="6.71893">
        <ele>568</ele>
        <time>2019-03-20T14:52:04Z</time>
      </trkpt>
      <trkpt lat="43.67999" lon="6.71863">
        <ele>569</ele>
        <time>2019-03-20T14:52:25Z</time>
      </trkpt>
      <trkpt lat="43.68002" lon="6.71856">
        <ele>569</ele>
        <time>2019-03-20T14:52:30Z</time>
      </trkpt>
      <trkpt lat="43.68008" lon="6.71844">
        <ele>570</ele>
        <time>2019-03-20T14:52:39Z</time>
      </trkpt>
      <trkpt lat="43.68019" lon="6.7183">
        <ele>570</ele>
        <time>2019-03-20T14:52:53Z</time>
      </trkpt>
      <trkpt lat="43.68037" lon="6.718">
        <ele>568</ele>
        <time>2019-03-20T14:53:22Z</time>
      </trkpt>
      <trkpt lat="43.68043" lon="6.71786">
        <ele>567</ele>
        <time>2019-03-20T14:53:33Z</time>
      </trkpt>
      <trkpt lat="43.68046" lon="6.71779">
        <ele>567</ele>
        <time>2019-03-20T14:53:38Z</time>
      </trkpt>
      <trkpt lat="43.68051" lon="6.71766">
        <ele>566</ele>
        <time>2019-03-20T14:53:47Z</time>
      </trkpt>
      <trkpt lat="43.68053" lon="6.71758">
        <ele>565</ele>
        <time>2019-03-20T14:53:52Z</time>
      </trkpt>
      <trkpt lat="43.68057" lon="6.71744">
        <ele>563</ele>
        <time>2019-03-20T14:54:01Z</time>
      </trkpt>
      <trkpt lat="43.68062" lon="6.71724">
        <ele>560</ele>
        <time>2019-03-20T14:54:15Z</time>
      </trkpt>
      <trkpt lat="43.68078" lon="6.71684">
        <ele>557</ele>
        <time>2019-03-20T14:54:46Z</time>
      </trkpt>
      <trkpt lat="43.68084" lon="6.71672">
        <ele>556</ele>
        <time>2019-03-20T14:54:55Z</time>
      </trkpt>
      <trkpt lat="43.68087" lon="6.71656">
        <ele>555</ele>
        <time>2019-03-20T14:55:06Z</time>
      </trkpt>
      <trkpt lat="43.68087" lon="6.71646">
        <ele>554</ele>
        <time>2019-03-20T14:55:12Z</time>
      </trkpt>
      <trkpt lat="43.68092" lon="6.7163">
        <ele>552</ele>
        <time>2019-03-20T14:55:23Z</time>
      </trkpt>
      <trkpt lat="43.68101" lon="6.71616">
        <ele>552</ele>
        <time>2019-03-20T14:55:35Z</time>
      </trkpt>
      <trkpt lat="43.68105" lon="6.71613">
        <ele>550</ele>
        <time>2019-03-20T14:55:39Z</time>
      </trkpt>
      <trkpt lat="43.68112" lon="6.71608">
        <ele>550</ele>
        <time>2019-03-20T14:55:45Z</time>
      </trkpt>
      <trkpt lat="43.68124" lon="6.71608">
        <ele>551</ele>
        <time>2019-03-20T14:55:55Z</time>
      </trkpt>
      <trkpt lat="43.68136" lon="6.71614">
        <ele>551</ele>
        <time>2019-03-20T14:56:10Z</time>
      </trkpt>
      <trkpt lat="43.68143" lon="6.71612">
        <ele>552</ele>
        <time>2019-03-20T14:56:17Z</time>
      </trkpt>
      <trkpt lat="43.68147" lon="6.71607">
        <ele>550</ele>
        <time>2019-03-20T14:56:23Z</time>
      </trkpt>
      <trkpt lat="43.68158" lon="6.71602">
        <ele>550</ele>
        <time>2019-03-20T14:56:31Z</time>
      </trkpt>
      <trkpt lat="43.68168" lon="6.71597">
        <ele>550</ele>
        <time>2019-03-20T14:56:40Z</time>
      </trkpt>
      <trkpt lat="43.68171" lon="6.71592">
        <ele>550</ele>
        <time>2019-03-20T14:56:44Z</time>
      </trkpt>
      <trkpt lat="43.68176" lon="6.71588">
        <ele>550</ele>
        <time>2019-03-20T14:56:48Z</time>
      </trkpt>
      <trkpt lat="43.68181" lon="6.71584">
        <ele>549</ele>
        <time>2019-03-20T14:56:53Z</time>
      </trkpt>
      <trkpt lat="43.68185" lon="6.71578">
        <ele>548</ele>
        <time>2019-03-20T14:56:58Z</time>
      </trkpt>
      <trkpt lat="43.68189" lon="6.71572">
        <ele>548</ele>
        <time>2019-03-20T14:57:04Z</time>
      </trkpt>
      <trkpt lat="43.682" lon="6.71564">
        <ele>547</ele>
        <time>2019-03-20T14:57:17Z</time>
      </trkpt>
      <trkpt lat="43.68205" lon="6.71559">
        <ele>546</ele>
        <time>2019-03-20T14:57:23Z</time>
      </trkpt>
      <trkpt lat="43.68224" lon="6.71542">
        <ele>542</ele>
        <time>2019-03-20T14:57:42Z</time>
      </trkpt>
      <trkpt lat="43.68222" lon="6.71534">
        <ele>542</ele>
        <time>2019-03-20T14:57:47Z</time>
      </trkpt>
      <trkpt lat="43.68215" lon="6.71535">
        <ele>540</ele>
        <time>2019-03-20T14:57:55Z</time>
      </trkpt>
      <trkpt lat="43.6821" lon="6.71535">
        <ele>538</ele>
        <time>2019-03-20T14:58:00Z</time>
      </trkpt>
      <trkpt lat="43.68205" lon="6.71534">
        <ele>537</ele>
        <time>2019-03-20T14:58:05Z</time>
      </trkpt>
      <trkpt lat="43.68203" lon="6.71534">
        <ele>539</ele>
        <time>2019-03-20T15:00:45Z</time>
      </trkpt>
      <trkpt lat="43.68195" lon="6.71518">
        <ele>539</ele>
        <time>2019-03-20T15:01:00Z</time>
      </trkpt>
      <trkpt lat="43.68188" lon="6.71513">
        <ele>535</ele>
        <time>2019-03-20T15:01:07Z</time>
      </trkpt>
      <trkpt lat="43.68184" lon="6.71506">
        <ele>535</ele>
        <time>2019-03-20T15:01:14Z</time>
      </trkpt>
      <trkpt lat="43.68173" lon="6.71496">
        <ele>535</ele>
        <time>2019-03-20T15:01:26Z</time>
      </trkpt>
      <trkpt lat="43.68167" lon="6.7149">
        <ele>535</ele>
        <time>2019-03-20T15:01:34Z</time>
      </trkpt>
      <trkpt lat="43.68161" lon="6.71482">
        <ele>535</ele>
        <time>2019-03-20T15:01:43Z</time>
      </trkpt>
      <trkpt lat="43.68159" lon="6.71472">
        <ele>534</ele>
        <time>2019-03-20T15:01:49Z</time>
      </trkpt>
      <trkpt lat="43.68158" lon="6.71459">
        <ele>533</ele>
        <time>2019-03-20T15:01:56Z</time>
      </trkpt>
      <trkpt lat="43.68158" lon="6.7145">
        <ele>531</ele>
        <time>2019-03-20T15:02:02Z</time>
      </trkpt>
      <trkpt lat="43.68157" lon="6.71439">
        <ele>531</ele>
        <time>2019-03-20T15:02:11Z</time>
      </trkpt>
      <trkpt lat="43.68152" lon="6.71431">
        <ele>528</ele>
        <time>2019-03-20T15:02:17Z</time>
      </trkpt>
      <trkpt lat="43.68146" lon="6.71414">
        <ele>527</ele>
        <time>2019-03-20T15:02:28Z</time>
      </trkpt>
      <trkpt lat="43.68143" lon="6.71386">
        <ele>526</ele>
        <time>2019-03-20T15:02:47Z</time>
      </trkpt>
      <trkpt lat="43.68141" lon="6.71376">
        <ele>526</ele>
        <time>2019-03-20T15:02:52Z</time>
      </trkpt>
      <trkpt lat="43.68143" lon="6.71358">
        <ele>525</ele>
        <time>2019-03-20T15:03:04Z</time>
      </trkpt>
      <trkpt lat="43.68151" lon="6.71345">
        <ele>526</ele>
        <time>2019-03-20T15:03:27Z</time>
      </trkpt>
      <trkpt lat="43.68158" lon="6.7133">
        <ele>524</ele>
        <time>2019-03-20T15:03:45Z</time>
      </trkpt>
      <trkpt lat="43.68161" lon="6.71325">
        <ele>522</ele>
        <time>2019-03-20T15:04:07Z</time>
      </trkpt>
      <trkpt lat="43.68162" lon="6.7132">
        <ele>522</ele>
        <time>2019-03-20T15:04:13Z</time>
      </trkpt>
      <trkpt lat="43.68164" lon="6.71318">
        <ele>520</ele>
        <time>2019-03-20T15:04:18Z</time>
      </trkpt>
      <trkpt lat="43.68165" lon="6.71314">
        <ele>519</ele>
        <time>2019-03-20T15:04:23Z</time>
      </trkpt>
      <trkpt lat="43.6817" lon="6.71302">
        <ele>519</ele>
        <time>2019-03-20T15:04:38Z</time>
      </trkpt>
      <trkpt lat="43.6817" lon="6.71297">
        <ele>518</ele>
        <time>2019-03-20T15:05:21Z</time>
      </trkpt>
      <trkpt lat="43.6817" lon="6.7129">
        <ele>518</ele>
        <time>2019-03-20T15:05:31Z</time>
      </trkpt>
      <trkpt lat="43.68169" lon="6.71285">
        <ele>519</ele>
        <time>2019-03-20T15:05:44Z</time>
      </trkpt>
      <trkpt lat="43.68172" lon="6.7128">
        <ele>518</ele>
        <time>2019-03-20T15:05:57Z</time>
      </trkpt>
      <trkpt lat="43.68174" lon="6.71276">
        <ele>517</ele>
        <time>2019-03-20T15:06:02Z</time>
      </trkpt>
      <trkpt lat="43.68176" lon="6.71272">
        <ele>517</ele>
        <time>2019-03-20T15:06:07Z</time>
      </trkpt>
      <trkpt lat="43.68178" lon="6.71259">
        <ele>517</ele>
        <time>2019-03-20T15:06:17Z</time>
      </trkpt>
      <trkpt lat="43.6818" lon="6.71253">
        <ele>517</ele>
        <time>2019-03-20T15:06:21Z</time>
      </trkpt>
      <trkpt lat="43.68185" lon="6.71252">
        <ele>518</ele>
        <time>2019-03-20T15:06:27Z</time>
      </trkpt>
      <trkpt lat="43.68188" lon="6.7126">
        <ele>518</ele>
        <time>2019-03-20T15:06:44Z</time>
      </trkpt>
      <trkpt lat="43.68191" lon="6.71271">
        <ele>521</ele>
        <time>2019-03-20T15:07:07Z</time>
      </trkpt>
      <trkpt lat="43.68193" lon="6.71279">
        <ele>523</ele>
        <time>2019-03-20T15:07:27Z</time>
      </trkpt>
      <trkpt lat="43.68197" lon="6.71286">
        <ele>527</ele>
        <time>2019-03-20T15:07:50Z</time>
      </trkpt>
      <trkpt lat="43.682" lon="6.71294">
        <ele>530</ele>
        <time>2019-03-20T15:08:20Z</time>
      </trkpt>
      <trkpt lat="43.68207" lon="6.71299">
        <ele>531</ele>
        <time>2019-03-20T15:08:36Z</time>
      </trkpt>
      <trkpt lat="43.68214" lon="6.71304">
        <ele>535</ele>
        <time>2019-03-20T15:08:56Z</time>
      </trkpt>
      <trkpt lat="43.68219" lon="6.71315">
        <ele>537</ele>
        <time>2019-03-20T15:09:26Z</time>
      </trkpt>
      <trkpt lat="43.68224" lon="6.71323">
        <ele>543</ele>
        <time>2019-03-20T15:10:18Z</time>
      </trkpt>
      <trkpt lat="43.68227" lon="6.71322">
        <ele>544</ele>
        <time>2019-03-20T15:11:00Z</time>
      </trkpt>
      <trkpt lat="43.6823" lon="6.71316">
        <ele>545</ele>
        <time>2019-03-20T15:11:23Z</time>
      </trkpt>
      <trkpt lat="43.68244" lon="6.71307">
        <ele>544</ele>
        <time>2019-03-20T15:11:39Z</time>
      </trkpt>
      <trkpt lat="43.68256" lon="6.71291">
        <ele>544</ele>
        <time>2019-03-20T15:11:53Z</time>
      </trkpt>
      <trkpt lat="43.68268" lon="6.71246">
        <ele>539</ele>
        <time>2019-03-20T15:12:24Z</time>
      </trkpt>
      <trkpt lat="43.68278" lon="6.7123">
        <ele>537</ele>
        <time>2019-03-20T15:12:37Z</time>
      </trkpt>
      <trkpt lat="43.68281" lon="6.71222">
        <ele>538</ele>
        <time>2019-03-20T15:12:43Z</time>
      </trkpt>
      <trkpt lat="43.68281" lon="6.71214">
        <ele>537</ele>
        <time>2019-03-20T15:12:48Z</time>
      </trkpt>
      <trkpt lat="43.68281" lon="6.71206">
        <ele>536</ele>
        <time>2019-03-20T15:12:53Z</time>
      </trkpt>
      <trkpt lat="43.6828" lon="6.71199">
        <ele>536</ele>
        <time>2019-03-20T15:12:58Z</time>
      </trkpt>
      <trkpt lat="43.68279" lon="6.71192">
        <ele>533</ele>
        <time>2019-03-20T15:13:03Z</time>
      </trkpt>
      <trkpt lat="43.68278" lon="6.71185">
        <ele>532</ele>
        <time>2019-03-20T15:13:07Z</time>
      </trkpt>
      <trkpt lat="43.68277" lon="6.71169">
        <ele>532</ele>
        <time>2019-03-20T15:13:17Z</time>
      </trkpt>
      <trkpt lat="43.68278" lon="6.7116">
        <ele>531</ele>
        <time>2019-03-20T15:13:21Z</time>
      </trkpt>
      <trkpt lat="43.6828" lon="6.71151">
        <ele>531</ele>
        <time>2019-03-20T15:13:26Z</time>
      </trkpt>
      <trkpt lat="43.6828" lon="6.71143">
        <ele>531</ele>
        <time>2019-03-20T15:13:31Z</time>
      </trkpt>
      <trkpt lat="43.68282" lon="6.71119">
        <ele>530</ele>
        <time>2019-03-20T15:13:44Z</time>
      </trkpt>
      <trkpt lat="43.68286" lon="6.71105">
        <ele>530</ele>
        <time>2019-03-20T15:13:52Z</time>
      </trkpt>
      <trkpt lat="43.68299" lon="6.71064">
        <ele>527</ele>
        <time>2019-03-20T15:14:16Z</time>
      </trkpt>
      <trkpt lat="43.68303" lon="6.71057">
        <ele>527</ele>
        <time>2019-03-20T15:14:24Z</time>
      </trkpt>
      <trkpt lat="43.68307" lon="6.71049">
        <ele>527</ele>
        <time>2019-03-20T15:14:30Z</time>
      </trkpt>
      <trkpt lat="43.6831" lon="6.71042">
        <ele>528</ele>
        <time>2019-03-20T15:14:34Z</time>
      </trkpt>
      <trkpt lat="43.68313" lon="6.71034">
        <ele>527</ele>
        <time>2019-03-20T15:14:40Z</time>
      </trkpt>
      <trkpt lat="43.68315" lon="6.71024">
        <ele>524</ele>
        <time>2019-03-20T15:15:05Z</time>
      </trkpt>
      <trkpt lat="43.68321" lon="6.71011">
        <ele>525</ele>
        <time>2019-03-20T15:16:07Z</time>
      </trkpt>
      <trkpt lat="43.68327" lon="6.70998">
        <ele>530</ele>
        <time>2019-03-20T15:16:28Z</time>
      </trkpt>
      <trkpt lat="43.68326" lon="6.70987">
        <ele>532</ele>
        <time>2019-03-20T15:16:48Z</time>
      </trkpt>
      <trkpt lat="43.68336" lon="6.70985">
        <ele>533</ele>
        <time>2019-03-20T15:17:16Z</time>
      </trkpt>
      <trkpt lat="43.68332" lon="6.70998">
        <ele>533</ele>
        <time>2019-03-20T15:17:43Z</time>
      </trkpt>
      <trkpt lat="43.68338" lon="6.71019">
        <ele>534</ele>
        <time>2019-03-20T15:18:06Z</time>
      </trkpt>
      <trkpt lat="43.68328" lon="6.71026">
        <ele>534</ele>
        <time>2019-03-20T15:18:11Z</time>
      </trkpt>
      <trkpt lat="43.68331" lon="6.7104">
        <ele>538</ele>
        <time>2019-03-20T15:18:35Z</time>
      </trkpt>
      <trkpt lat="43.68334" lon="6.71056">
        <ele>541</ele>
        <time>2019-03-20T15:18:58Z</time>
      </trkpt>
      <trkpt lat="43.68333" lon="6.71071">
        <ele>546</ele>
        <time>2019-03-20T15:19:27Z</time>
      </trkpt>
      <trkpt lat="43.6833" lon="6.71082">
        <ele>546</ele>
        <time>2019-03-20T15:19:41Z</time>
      </trkpt>
      <trkpt lat="43.68328" lon="6.71095">
        <ele>547</ele>
        <time>2019-03-20T15:19:56Z</time>
      </trkpt>
      <trkpt lat="43.68327" lon="6.71106">
        <ele>548</ele>
        <time>2019-03-20T15:20:08Z</time>
      </trkpt>
      <trkpt lat="43.6833" lon="6.71117">
        <ele>549</ele>
        <time>2019-03-20T15:20:22Z</time>
      </trkpt>
      <trkpt lat="43.68328" lon="6.71131">
        <ele>549</ele>
        <time>2019-03-20T15:20:41Z</time>
      </trkpt>
      <trkpt lat="43.68328" lon="6.71145">
        <ele>553</ele>
        <time>2019-03-20T15:21:06Z</time>
      </trkpt>
      <trkpt lat="43.68329" lon="6.71158">
        <ele>554</ele>
        <time>2019-03-20T15:21:23Z</time>
      </trkpt>
      <trkpt lat="43.68325" lon="6.71168">
        <ele>555</ele>
        <time>2019-03-20T15:21:38Z</time>
      </trkpt>
      <trkpt lat="43.68319" lon="6.71174">
        <ele>555</ele>
        <time>2019-03-20T15:21:52Z</time>
      </trkpt>
      <trkpt lat="43.68321" lon="6.71185">
        <ele>555</ele>
        <time>2019-03-20T15:22:03Z</time>
      </trkpt>
      <trkpt lat="43.68321" lon="6.71198">
        <ele>555</ele>
        <time>2019-03-20T15:22:19Z</time>
      </trkpt>
      <trkpt lat="43.6832" lon="6.7121">
        <ele>556</ele>
        <time>2019-03-20T15:22:32Z</time>
      </trkpt>
      <trkpt lat="43.68321" lon="6.71223">
        <ele>556</ele>
        <time>2019-03-20T15:22:48Z</time>
      </trkpt>
      <trkpt lat="43.68317" lon="6.71236">
        <ele>555</ele>
        <time>2019-03-20T15:23:03Z</time>
      </trkpt>
      <trkpt lat="43.68316" lon="6.71248">
        <ele>555</ele>
        <time>2019-03-20T15:23:15Z</time>
      </trkpt>
      <trkpt lat="43.68319" lon="6.71257">
        <ele>558</ele>
        <time>2019-03-20T15:23:40Z</time>
      </trkpt>
      <trkpt lat="43.68328" lon="6.71275">
        <ele>560</ele>
        <time>2019-03-20T15:24:13Z</time>
      </trkpt>
      <trkpt lat="43.68332" lon="6.71286">
        <ele>560</ele>
        <time>2019-03-20T15:24:27Z</time>
      </trkpt>
      <trkpt lat="43.68335" lon="6.71298">
        <ele>561</ele>
        <time>2019-03-20T15:24:54Z</time>
      </trkpt>
      <trkpt lat="43.68336" lon="6.71308">
        <ele>568</ele>
        <time>2019-03-20T15:28:08Z</time>
      </trkpt>
      <trkpt lat="43.68335" lon="6.71317">
        <ele>570</ele>
        <time>2019-03-20T15:28:22Z</time>
      </trkpt>
      <trkpt lat="43.68335" lon="6.71329">
        <ele>570</ele>
        <time>2019-03-20T15:28:44Z</time>
      </trkpt>
      <trkpt lat="43.68332" lon="6.71339">
        <ele>573</ele>
        <time>2019-03-20T15:29:08Z</time>
      </trkpt>
      <trkpt lat="43.6833" lon="6.71347">
        <ele>574</ele>
        <time>2019-03-20T15:29:18Z</time>
      </trkpt>
      <trkpt lat="43.68332" lon="6.71354">
        <ele>576</ele>
        <time>2019-03-20T15:29:30Z</time>
      </trkpt>
      <trkpt lat="43.68334" lon="6.71362">
        <ele>579</ele>
        <time>2019-03-20T15:29:42Z</time>
      </trkpt>
      <trkpt lat="43.68337" lon="6.71358">
        <ele>580</ele>
        <time>2019-03-20T15:32:58Z</time>
      </trkpt>
      <trkpt lat="43.68341" lon="6.71362">
        <ele>579</ele>
        <time>2019-03-20T15:33:07Z</time>
      </trkpt>
      <trkpt lat="43.68345" lon="6.71368">
        <ele>581</ele>
        <time>2019-03-20T15:33:18Z</time>
      </trkpt>
      <trkpt lat="43.68346" lon="6.71375">
        <ele>584</ele>
        <time>2019-03-20T15:33:27Z</time>
      </trkpt>
      <trkpt lat="43.68344" lon="6.71383">
        <ele>585</ele>
        <time>2019-03-20T15:33:36Z</time>
      </trkpt>
      <trkpt lat="43.68346" lon="6.71389">
        <ele>587</ele>
        <time>2019-03-20T15:33:43Z</time>
      </trkpt>
      <trkpt lat="43.68351" lon="6.71396">
        <ele>588</ele>
        <time>2019-03-20T15:33:55Z</time>
      </trkpt>
      <trkpt lat="43.68363" lon="6.71406">
        <ele>592</ele>
        <time>2019-03-20T15:34:25Z</time>
      </trkpt>
      <trkpt lat="43.6837" lon="6.71412">
        <ele>596</ele>
        <time>2019-03-20T15:34:46Z</time>
      </trkpt>
      <trkpt lat="43.68378" lon="6.71414">
        <ele>599</ele>
        <time>2019-03-20T15:35:04Z</time>
      </trkpt>
      <trkpt lat="43.68381" lon="6.71422">
        <ele>601</ele>
        <time>2019-03-20T15:35:21Z</time>
      </trkpt>
      <trkpt lat="43.68385" lon="6.7143">
        <ele>603</ele>
        <time>2019-03-20T15:35:36Z</time>
      </trkpt>
      <trkpt lat="43.68389" lon="6.71434">
        <ele>604</ele>
        <time>2019-03-20T15:35:45Z</time>
      </trkpt>
      <trkpt lat="43.68392" lon="6.7144">
        <ele>606</ele>
        <time>2019-03-20T15:35:53Z</time>
      </trkpt>
      <trkpt lat="43.68398" lon="6.71441">
        <ele>606</ele>
        <time>2019-03-20T15:36:20Z</time>
      </trkpt>
      <trkpt lat="43.68403" lon="6.71448">
        <ele>607</ele>
        <time>2019-03-20T15:36:29Z</time>
      </trkpt>
      <trkpt lat="43.68406" lon="6.71439">
        <ele>608</ele>
        <time>2019-03-20T15:36:44Z</time>
      </trkpt>
      <trkpt lat="43.68411" lon="6.71446">
        <ele>609</ele>
        <time>2019-03-20T15:36:54Z</time>
      </trkpt>
      <trkpt lat="43.68419" lon="6.71451">
        <ele>611</ele>
        <time>2019-03-20T15:37:06Z</time>
      </trkpt>
      <trkpt lat="43.68423" lon="6.71444">
        <ele>612</ele>
        <time>2019-03-20T15:37:29Z</time>
      </trkpt>
      <trkpt lat="43.68438" lon="6.71448">
        <ele>615</ele>
        <time>2019-03-20T15:37:53Z</time>
      </trkpt>
      <trkpt lat="43.68444" lon="6.71451">
        <ele>616</ele>
        <time>2019-03-20T15:38:01Z</time>
      </trkpt>
      <trkpt lat="43.68452" lon="6.71445">
        <ele>619</ele>
        <time>2019-03-20T15:38:33Z</time>
      </trkpt>
      <trkpt lat="43.68468" lon="6.71445">
        <ele>623</ele>
        <time>2019-03-20T15:38:56Z</time>
      </trkpt>
      <trkpt lat="43.68476" lon="6.71443">
        <ele>625</ele>
        <time>2019-03-20T15:39:07Z</time>
      </trkpt>
      <trkpt lat="43.68474" lon="6.71436">
        <ele>627</ele>
        <time>2019-03-20T15:39:26Z</time>
      </trkpt>
      <trkpt lat="43.68469" lon="6.71429">
        <ele>627</ele>
        <time>2019-03-20T15:39:35Z</time>
      </trkpt>
      <trkpt lat="43.68464" lon="6.71424">
        <ele>631</ele>
        <time>2019-03-20T15:39:45Z</time>
      </trkpt>
      <trkpt lat="43.68455" lon="6.71409">
        <ele>633</ele>
        <time>2019-03-20T15:40:04Z</time>
      </trkpt>
      <trkpt lat="43.68454" lon="6.714">
        <ele>634</ele>
        <time>2019-03-20T15:40:13Z</time>
      </trkpt>
      <trkpt lat="43.68459" lon="6.71404">
        <ele>635</ele>
        <time>2019-03-20T15:40:27Z</time>
      </trkpt>
      <trkpt lat="43.68461" lon="6.71397">
        <ele>638</ele>
        <time>2019-03-20T15:41:34Z</time>
      </trkpt>
      <trkpt lat="43.68461" lon="6.71388">
        <ele>638</ele>
        <time>2019-03-20T15:41:45Z</time>
      </trkpt>
      <trkpt lat="43.68469" lon="6.71393">
        <ele>642</ele>
        <time>2019-03-20T15:42:06Z</time>
      </trkpt>
      <trkpt lat="43.68475" lon="6.71399">
        <ele>643</ele>
        <time>2019-03-20T15:42:18Z</time>
      </trkpt>
      <trkpt lat="43.68482" lon="6.71401">
        <ele>645</ele>
        <time>2019-03-20T15:42:27Z</time>
      </trkpt>
      <trkpt lat="43.68485" lon="6.71394">
        <ele>647</ele>
        <time>2019-03-20T15:43:10Z</time>
      </trkpt>
      <trkpt lat="43.68477" lon="6.71379">
        <ele>650</ele>
        <time>2019-03-20T15:43:29Z</time>
      </trkpt>
      <trkpt lat="43.68478" lon="6.71368">
        <ele>653</ele>
        <time>2019-03-20T15:43:44Z</time>
      </trkpt>
      <trkpt lat="43.68483" lon="6.71359">
        <ele>654</ele>
        <time>2019-03-20T15:43:55Z</time>
      </trkpt>
      <trkpt lat="43.68488" lon="6.71358">
        <ele>661</ele>
        <time>2019-03-20T15:45:13Z</time>
      </trkpt>
      <trkpt lat="43.68491" lon="6.71366">
        <ele>662</ele>
        <time>2019-03-20T15:45:23Z</time>
      </trkpt>
      <trkpt lat="43.68497" lon="6.71365">
        <ele>663</ele>
        <time>2019-03-20T15:45:35Z</time>
      </trkpt>
      <trkpt lat="43.68502" lon="6.71369">
        <ele>664</ele>
        <time>2019-03-20T15:46:23Z</time>
      </trkpt>
      <trkpt lat="43.68508" lon="6.71362">
        <ele>665</ele>
        <time>2019-03-20T15:46:35Z</time>
      </trkpt>
      <trkpt lat="43.68516" lon="6.71359">
        <ele>666</ele>
        <time>2019-03-20T15:46:49Z</time>
      </trkpt>
      <trkpt lat="43.68523" lon="6.71355">
        <ele>669</ele>
        <time>2019-03-20T15:47:00Z</time>
      </trkpt>
      <trkpt lat="43.68539" lon="6.71348">
        <ele>672</ele>
        <time>2019-03-20T15:47:18Z</time>
      </trkpt>
      <trkpt lat="43.6855" lon="6.71344">
        <ele>676</ele>
        <time>2019-03-20T15:47:40Z</time>
      </trkpt>
      <trkpt lat="43.68559" lon="6.71344">
        <ele>678</ele>
        <time>2019-03-20T15:47:48Z</time>
      </trkpt>
      <trkpt lat="43.68591" lon="6.7134">
        <ele>682</ele>
        <time>2019-03-20T15:48:26Z</time>
      </trkpt>
      <trkpt lat="43.68607" lon="6.71335">
        <ele>683</ele>
        <time>2019-03-20T15:48:44Z</time>
      </trkpt>
      <trkpt lat="43.68632" lon="6.71326">
        <ele>685</ele>
        <time>2019-03-20T15:49:22Z</time>
      </trkpt>
      <trkpt lat="43.68658" lon="6.71315">
        <ele>688</ele>
        <time>2019-03-20T15:49:56Z</time>
      </trkpt>
      <trkpt lat="43.68667" lon="6.71315">
        <ele>691</ele>
        <time>2019-03-20T15:50:08Z</time>
      </trkpt>
      <trkpt lat="43.68677" lon="6.71311">
        <ele>693</ele>
        <time>2019-03-20T15:50:24Z</time>
      </trkpt>
      <trkpt lat="43.68695" lon="6.71307">
        <ele>694</ele>
        <time>2019-03-20T15:50:47Z</time>
      </trkpt>
      <trkpt lat="43.68704" lon="6.71301">
        <ele>696</ele>
        <time>2019-03-20T15:51:01Z</time>
      </trkpt>
      <trkpt lat="43.68713" lon="6.71292">
        <ele>699</ele>
        <time>2019-03-20T15:51:18Z</time>
      </trkpt>
      <trkpt lat="43.68713" lon="6.71284">
        <ele>705</ele>
        <time>2019-03-20T15:52:04Z</time>
      </trkpt>
      <trkpt lat="43.6872" lon="6.71279">
        <ele>706</ele>
        <time>2019-03-20T15:52:27Z</time>
      </trkpt>
      <trkpt lat="43.68722" lon="6.7127">
        <ele>706</ele>
        <time>2019-03-20T15:53:21Z</time>
      </trkpt>
      <trkpt lat="43.68726" lon="6.7126">
        <ele>708</ele>
        <time>2019-03-20T15:53:33Z</time>
      </trkpt>
      <trkpt lat="43.68733" lon="6.71252">
        <ele>709</ele>
        <time>2019-03-20T15:53:47Z</time>
      </trkpt>
      <trkpt lat="43.68731" lon="6.71248">
        <ele>714</ele>
        <time>2019-03-20T15:55:27Z</time>
      </trkpt>
      <trkpt lat="43.68734" lon="6.71236">
        <ele>715</ele>
        <time>2019-03-20T15:55:47Z</time>
      </trkpt>
      <trkpt lat="43.68744" lon="6.71228">
        <ele>717</ele>
        <time>2019-03-20T15:56:08Z</time>
      </trkpt>
      <trkpt lat="43.68754" lon="6.71223">
        <ele>725</ele>
        <time>2019-03-20T15:56:19Z</time>
      </trkpt>
      <trkpt lat="43.68765" lon="6.71216">
        <ele>726</ele>
        <time>2019-03-20T15:56:28Z</time>
      </trkpt>
      <trkpt lat="43.68775" lon="6.71209">
        <ele>728</ele>
        <time>2019-03-20T15:56:37Z</time>
      </trkpt>
      <trkpt lat="43.68782" lon="6.7122">
        <ele>728</ele>
        <time>2019-03-20T15:56:57Z</time>
      </trkpt>
      <trkpt lat="43.68781" lon="6.71239">
        <ele>731</ele>
        <time>2019-03-20T15:57:14Z</time>
      </trkpt>
      <trkpt lat="43.68783" lon="6.7125">
        <ele>734</ele>
        <time>2019-03-20T15:57:24Z</time>
      </trkpt>
      <trkpt lat="43.68783" lon="6.71262">
        <ele>736</ele>
        <time>2019-03-20T15:57:33Z</time>
      </trkpt>
      <trkpt lat="43.68782" lon="6.71274">
        <ele>736</ele>
        <time>2019-03-20T15:57:44Z</time>
      </trkpt>
      <trkpt lat="43.68786" lon="6.71286">
        <ele>738</ele>
        <time>2019-03-20T15:57:56Z</time>
      </trkpt>
      <trkpt lat="43.68785" lon="6.71299">
        <ele>738</ele>
        <time>2019-03-20T15:58:11Z</time>
      </trkpt>
      <trkpt lat="43.68787" lon="6.71311">
        <ele>740</ele>
        <time>2019-03-20T15:58:19Z</time>
      </trkpt>
      <trkpt lat="43.68785" lon="6.71324">
        <ele>742</ele>
        <time>2019-03-20T15:58:34Z</time>
      </trkpt>
      <trkpt lat="43.6879" lon="6.71335">
        <ele>744</ele>
        <time>2019-03-20T15:58:50Z</time>
      </trkpt>
      <trkpt lat="43.68795" lon="6.71344">
        <ele>747</ele>
        <time>2019-03-20T15:59:01Z</time>
      </trkpt>
      <trkpt lat="43.68795" lon="6.71355">
        <ele>747</ele>
        <time>2019-03-20T15:59:12Z</time>
      </trkpt>
      <trkpt lat="43.68799" lon="6.71363">
        <ele>749</ele>
        <time>2019-03-20T15:59:42Z</time>
      </trkpt>
      <trkpt lat="43.688" lon="6.71372">
        <ele>750</ele>
        <time>2019-03-20T15:59:51Z</time>
      </trkpt>
      <trkpt lat="43.68802" lon="6.71382">
        <ele>755</ele>
        <time>2019-03-20T16:00:04Z</time>
      </trkpt>
      <trkpt lat="43.68806" lon="6.7139">
        <ele>754</ele>
        <time>2019-03-20T16:00:11Z</time>
      </trkpt>
      <trkpt lat="43.68814" lon="6.71397">
        <ele>756</ele>
        <time>2019-03-20T16:00:30Z</time>
      </trkpt>
      <trkpt lat="43.68814" lon="6.71388">
        <ele>758</ele>
        <time>2019-03-20T16:00:54Z</time>
      </trkpt>
      <trkpt lat="43.6882" lon="6.7139">
        <ele>760</ele>
        <time>2019-03-20T16:01:01Z</time>
      </trkpt>
      <trkpt lat="43.68826" lon="6.71393">
        <ele>762</ele>
        <time>2019-03-20T16:01:18Z</time>
      </trkpt>
      <trkpt lat="43.68827" lon="6.71382">
        <ele>763</ele>
        <time>2019-03-20T16:01:40Z</time>
      </trkpt>
      <trkpt lat="43.68833" lon="6.71377">
        <ele>769</ele>
        <time>2019-03-20T16:02:01Z</time>
      </trkpt>
      <trkpt lat="43.68835" lon="6.71367">
        <ele>770</ele>
        <time>2019-03-20T16:02:17Z</time>
      </trkpt>
      <trkpt lat="43.6884" lon="6.7136">
        <ele>773</ele>
        <time>2019-03-20T16:02:31Z</time>
      </trkpt>
      <trkpt lat="43.68848" lon="6.71368">
        <ele>774</ele>
        <time>2019-03-20T16:02:54Z</time>
      </trkpt>
      <trkpt lat="43.68857" lon="6.71369">
        <ele>777</ele>
        <time>2019-03-20T16:03:10Z</time>
      </trkpt>
      <trkpt lat="43.68863" lon="6.71378">
        <ele>782</ele>
        <time>2019-03-20T16:04:24Z</time>
      </trkpt>
      <trkpt lat="43.68871" lon="6.71381">
        <ele>783</ele>
        <time>2019-03-20T16:04:43Z</time>
      </trkpt>
      <trkpt lat="43.68879" lon="6.71382">
        <ele>783</ele>
        <time>2019-03-20T16:04:59Z</time>
      </trkpt>
      <trkpt lat="43.68888" lon="6.71377">
        <ele>785</ele>
        <time>2019-03-20T16:05:14Z</time>
      </trkpt>
      <trkpt lat="43.68898" lon="6.7138">
        <ele>784</ele>
        <time>2019-03-20T16:05:39Z</time>
      </trkpt>
      <trkpt lat="43.68907" lon="6.71384">
        <ele>786</ele>
        <time>2019-03-20T16:05:54Z</time>
      </trkpt>
      <trkpt lat="43.68917" lon="6.71387">
        <ele>788</ele>
        <time>2019-03-20T16:06:09Z</time>
      </trkpt>
      <trkpt lat="43.68927" lon="6.71392">
        <ele>789</ele>
        <time>2019-03-20T16:06:23Z</time>
      </trkpt>
      <trkpt lat="43.68934" lon="6.71396">
        <ele>787</ele>
        <time>2019-03-20T16:06:34Z</time>
      </trkpt>
      <trkpt lat="43.68941" lon="6.71401">
        <ele>788</ele>
        <time>2019-03-20T16:06:43Z</time>
      </trkpt>
      <trkpt lat="43.68959" lon="6.71406">
        <ele>792</ele>
        <time>2019-03-20T16:07:21Z</time>
      </trkpt>
      <trkpt lat="43.68964" lon="6.71409">
        <ele>792</ele>
        <time>2019-03-20T16:07:26Z</time>
      </trkpt>
      <trkpt lat="43.68971" lon="6.71411">
        <ele>795</ele>
        <time>2019-03-20T16:07:35Z</time>
      </trkpt>
      <trkpt lat="43.68975" lon="6.71414">
        <ele>795</ele>
        <time>2019-03-20T16:07:49Z</time>
      </trkpt>
      <trkpt lat="43.68973" lon="6.7142">
        <ele>798</ele>
        <time>2019-03-20T16:08:37Z</time>
      </trkpt>
      <trkpt lat="43.68978" lon="6.71423">
        <ele>800</ele>
        <time>2019-03-20T16:10:47Z</time>
      </trkpt>
      <trkpt lat="43.68983" lon="6.71427">
        <ele>800</ele>
        <time>2019-03-20T16:11:19Z</time>
      </trkpt>
      <trkpt lat="43.68994" lon="6.71431">
        <ele>800</ele>
        <time>2019-03-20T16:11:32Z</time>
      </trkpt>
      <trkpt lat="43.69" lon="6.71425">
        <ele>803</ele>
        <time>2019-03-20T16:11:51Z</time>
      </trkpt>
      <trkpt lat="43.68995" lon="6.71416">
        <ele>811</ele>
        <time>2019-03-20T16:12:05Z</time>
      </trkpt>
      <trkpt lat="43.68989" lon="6.71413">
        <ele>813</ele>
        <time>2019-03-20T16:12:11Z</time>
      </trkpt>
      <trkpt lat="43.68984" lon="6.71409">
        <ele>814</ele>
        <time>2019-03-20T16:12:17Z</time>
      </trkpt>
      <trkpt lat="43.6898" lon="6.71405">
        <ele>814</ele>
        <time>2019-03-20T16:12:23Z</time>
      </trkpt>
      <trkpt lat="43.68972" lon="6.71394">
        <ele>815</ele>
        <time>2019-03-20T16:12:35Z</time>
      </trkpt>
      <trkpt lat="43.68958" lon="6.71378">
        <ele>815</ele>
        <time>2019-03-20T16:12:56Z</time>
      </trkpt>
      <trkpt lat="43.68956" lon="6.71372">
        <ele>812</ele>
        <time>2019-03-20T16:13:00Z</time>
      </trkpt>
      <trkpt lat="43.68958" lon="6.71365">
        <ele>811</ele>
        <time>2019-03-20T16:13:04Z</time>
      </trkpt>
      <trkpt lat="43.68964" lon="6.71353">
        <ele>809</ele>
        <time>2019-03-20T16:13:15Z</time>
      </trkpt>
      <trkpt lat="43.68967" lon="6.71347">
        <ele>809</ele>
        <time>2019-03-20T16:13:20Z</time>
      </trkpt>
      <trkpt lat="43.68972" lon="6.71344">
        <ele>808</ele>
        <time>2019-03-20T16:13:24Z</time>
      </trkpt>
      <trkpt lat="43.68978" lon="6.71333">
        <ele>807</ele>
        <time>2019-03-20T16:13:36Z</time>
      </trkpt>
      <trkpt lat="43.6898" lon="6.71327">
        <ele>808</ele>
        <time>2019-03-20T16:13:39Z</time>
      </trkpt>
      <trkpt lat="43.68979" lon="6.71322">
        <ele>807</ele>
        <time>2019-03-20T16:13:42Z</time>
      </trkpt>
    </trkseg>
  </trk>
</gpx>